<?xml version="1.0" encoding="UTF-8" standalone="no" ?>
<gpx xmlns="http://www.topografix.com/GPX/1/1" creator="https://MapMagic.app" xmlns:xsi="http://www.w3.org/2001/XMLSchema-instance" xsi:schemaLocation="http://www.topografix.com/GPX/1/1 http://www.topografix.com/GPX/1/1/gpx.xsd" version="1.1">
	<wpt lat="54.876456" lon="21.649230">
		<name>КП2</name>
		<desc>КП2</desc>
		<type>Generic</type>
	</wpt>
	<wpt lat="54.842769" lon="21.519959">
		<name>КП1</name>
		<desc>КП1</desc>
		<type>Generic</type>
	</wpt>
	<wpt lat="54.658527" lon="21.217360">
		<name>КП3</name>
		<desc>КП3</desc>
		<type>Generic</type>
	</wpt>
	<trk>
		<name>200_Летний_2026</name>
		<desc>200_Летний_2026</desc>
		<trkseg>
			<trkpt lat="54.708130" lon="20.514860"><ele>0.5</ele><time>2026-06-22T11:41:37Z</time></trkpt>
			<trkpt lat="54.708130" lon="20.514860"><ele>0.5</ele><time>2026-06-22T11:41:41Z</time></trkpt>
			<trkpt lat="54.708250" lon="20.514930"><ele>0.8</ele><time>2026-06-22T11:41:44Z</time></trkpt>
			<trkpt lat="54.708380" lon="20.515120"><ele>1.2</ele><time>2026-06-22T11:41:48Z</time></trkpt>
			<trkpt lat="54.708420" lon="20.515220"><ele>1.3</ele><time>2026-06-22T11:41:52Z</time></trkpt>
			<trkpt lat="54.708480" lon="20.515380"><ele>1.6</ele><time>2026-06-22T11:41:55Z</time></trkpt>
			<trkpt lat="54.708530" lon="20.515730"><ele>2.1</ele><time>2026-06-22T11:41:59Z</time></trkpt>
			<trkpt lat="54.708600" lon="20.516970"><ele>3.8</ele><time>2026-06-22T11:42:02Z</time></trkpt>
			<trkpt lat="54.708660" lon="20.517870"><ele>4.9</ele><time>2026-06-22T11:42:06Z</time></trkpt>
			<trkpt lat="54.708670" lon="20.517980"><ele>4.9</ele><time>2026-06-22T11:42:10Z</time></trkpt>
			<trkpt lat="54.708750" lon="20.519020"><ele>5.6</ele><time>2026-06-22T11:42:13Z</time></trkpt>
			<trkpt lat="54.708830" lon="20.520340"><ele>6.4</ele><time>2026-06-22T11:42:17Z</time></trkpt>
			<trkpt lat="54.708840" lon="20.520540"><ele>6.5</ele><time>2026-06-22T11:42:20Z</time></trkpt>
			<trkpt lat="54.708910" lon="20.521570"><ele>7.6</ele><time>2026-06-22T11:42:24Z</time></trkpt>
			<trkpt lat="54.708920" lon="20.521680"><ele>7.7</ele><time>2026-06-22T11:42:27Z</time></trkpt>
			<trkpt lat="54.708990" lon="20.522670"><ele>8.9</ele><time>2026-06-22T11:42:31Z</time></trkpt>
			<trkpt lat="54.709030" lon="20.523230"><ele>9.5</ele><time>2026-06-22T11:42:35Z</time></trkpt>
			<trkpt lat="54.709110" lon="20.524290"><ele>10.3</ele><time>2026-06-22T11:42:38Z</time></trkpt>
			<trkpt lat="54.709190" lon="20.525090"><ele>10.5</ele><time>2026-06-22T11:42:42Z</time></trkpt>
			<trkpt lat="54.709270" lon="20.525950"><ele>10.8</ele><time>2026-06-22T11:42:45Z</time></trkpt>
			<trkpt lat="54.709300" lon="20.526350"><ele>10.9</ele><time>2026-06-22T11:42:49Z</time></trkpt>
			<trkpt lat="54.709330" lon="20.526460"><ele>10.9</ele><time>2026-06-22T11:42:52Z</time></trkpt>
			<trkpt lat="54.709340" lon="20.526660"><ele>10.9</ele><time>2026-06-22T11:42:56Z</time></trkpt>
			<trkpt lat="54.709360" lon="20.526830"><ele>11.0</ele><time>2026-06-22T11:43:00Z</time></trkpt>
			<trkpt lat="54.709530" lon="20.528550"><ele>10.7</ele><time>2026-06-22T11:43:03Z</time></trkpt>
			<trkpt lat="54.709670" lon="20.530110"><ele>10.4</ele><time>2026-06-22T11:43:07Z</time></trkpt>
			<trkpt lat="54.709740" lon="20.531060"><ele>10.4</ele><time>2026-06-22T11:43:10Z</time></trkpt>
			<trkpt lat="54.709770" lon="20.531710"><ele>10.5</ele><time>2026-06-22T11:43:14Z</time></trkpt>
			<trkpt lat="54.709780" lon="20.532000"><ele>10.5</ele><time>2026-06-22T11:43:18Z</time></trkpt>
			<trkpt lat="54.709840" lon="20.533740"><ele>10.5</ele><time>2026-06-22T11:43:21Z</time></trkpt>
			<trkpt lat="54.709840" lon="20.534120"><ele>10.5</ele><time>2026-06-22T11:43:25Z</time></trkpt>
			<trkpt lat="54.709830" lon="20.534460"><ele>10.5</ele><time>2026-06-22T11:43:28Z</time></trkpt>
			<trkpt lat="54.709740" lon="20.536290"><ele>10.4</ele><time>2026-06-22T11:43:32Z</time></trkpt>
			<trkpt lat="54.709680" lon="20.537510"><ele>9.8</ele><time>2026-06-22T11:43:35Z</time></trkpt>
			<trkpt lat="54.709690" lon="20.537820"><ele>9.7</ele><time>2026-06-22T11:43:39Z</time></trkpt>
			<trkpt lat="54.709690" lon="20.537990"><ele>9.6</ele><time>2026-06-22T11:43:43Z</time></trkpt>
			<trkpt lat="54.709700" lon="20.538560"><ele>9.4</ele><time>2026-06-22T11:43:46Z</time></trkpt>
			<trkpt lat="54.709690" lon="20.538670"><ele>9.3</ele><time>2026-06-22T11:43:50Z</time></trkpt>
			<trkpt lat="54.709690" lon="20.538810"><ele>9.3</ele><time>2026-06-22T11:43:53Z</time></trkpt>
			<trkpt lat="54.709750" lon="20.542590"><ele>8.2</ele><time>2026-06-22T11:43:57Z</time></trkpt>
			<trkpt lat="54.709750" lon="20.542820"><ele>8.1</ele><time>2026-06-22T11:44:00Z</time></trkpt>
			<trkpt lat="54.709760" lon="20.544460"><ele>7.6</ele><time>2026-06-22T11:44:04Z</time></trkpt>
			<trkpt lat="54.709760" lon="20.545000"><ele>7.5</ele><time>2026-06-22T11:44:08Z</time></trkpt>
			<trkpt lat="54.709740" lon="20.546660"><ele>6.9</ele><time>2026-06-22T11:44:11Z</time></trkpt>
			<trkpt lat="54.709700" lon="20.548490"><ele>6.2</ele><time>2026-06-22T11:44:15Z</time></trkpt>
			<trkpt lat="54.709690" lon="20.548680"><ele>6.1</ele><time>2026-06-22T11:44:18Z</time></trkpt>
			<trkpt lat="54.709680" lon="20.548990"><ele>6.1</ele><time>2026-06-22T11:44:22Z</time></trkpt>
			<trkpt lat="54.709620" lon="20.550070"><ele>6.1</ele><time>2026-06-22T11:44:26Z</time></trkpt>
			<trkpt lat="54.709590" lon="20.550560"><ele>6.1</ele><time>2026-06-22T11:44:29Z</time></trkpt>
			<trkpt lat="54.709550" lon="20.551110"><ele>6.1</ele><time>2026-06-22T11:44:33Z</time></trkpt>
			<trkpt lat="54.709390" lon="20.553500"><ele>6.3</ele><time>2026-06-22T11:44:36Z</time></trkpt>
			<trkpt lat="54.709350" lon="20.554330"><ele>6.4</ele><time>2026-06-22T11:44:40Z</time></trkpt>
			<trkpt lat="54.709300" lon="20.555130"><ele>6.5</ele><time>2026-06-22T11:44:43Z</time></trkpt>
			<trkpt lat="54.709270" lon="20.555810"><ele>6.6</ele><time>2026-06-22T11:44:47Z</time></trkpt>
			<trkpt lat="54.709170" lon="20.557250"><ele>6.6</ele><time>2026-06-22T11:44:51Z</time></trkpt>
			<trkpt lat="54.709130" lon="20.558010"><ele>6.7</ele><time>2026-06-22T11:44:54Z</time></trkpt>
			<trkpt lat="54.708950" lon="20.561760"><ele>8.0</ele><time>2026-06-22T11:44:58Z</time></trkpt>
			<trkpt lat="54.708890" lon="20.563240"><ele>7.6</ele><time>2026-06-22T11:45:01Z</time></trkpt>
			<trkpt lat="54.708850" lon="20.563920"><ele>7.5</ele><time>2026-06-22T11:45:05Z</time></trkpt>
			<trkpt lat="54.708770" lon="20.567050"><ele>7.1</ele><time>2026-06-22T11:45:08Z</time></trkpt>
			<trkpt lat="54.708740" lon="20.567880"><ele>7.1</ele><time>2026-06-22T11:45:12Z</time></trkpt>
			<trkpt lat="54.708640" lon="20.569060"><ele>7.2</ele><time>2026-06-22T11:45:16Z</time></trkpt>
			<trkpt lat="54.708590" lon="20.569530"><ele>7.3</ele><time>2026-06-22T11:45:19Z</time></trkpt>
			<trkpt lat="54.708540" lon="20.569940"><ele>7.3</ele><time>2026-06-22T11:45:23Z</time></trkpt>
			<trkpt lat="54.708390" lon="20.571190"><ele>7.3</ele><time>2026-06-22T11:45:26Z</time></trkpt>
			<trkpt lat="54.708290" lon="20.572110"><ele>7.2</ele><time>2026-06-22T11:45:30Z</time></trkpt>
			<trkpt lat="54.708270" lon="20.572240"><ele>7.2</ele><time>2026-06-22T11:45:34Z</time></trkpt>
			<trkpt lat="54.708250" lon="20.572440"><ele>7.2</ele><time>2026-06-22T11:45:37Z</time></trkpt>
			<trkpt lat="54.708140" lon="20.573530"><ele>7.1</ele><time>2026-06-22T11:45:41Z</time></trkpt>
			<trkpt lat="54.707950" lon="20.575120"><ele>7.6</ele><time>2026-06-22T11:45:44Z</time></trkpt>
			<trkpt lat="54.707860" lon="20.575920"><ele>7.8</ele><time>2026-06-22T11:45:48Z</time></trkpt>
			<trkpt lat="54.707660" lon="20.577510"><ele>8.0</ele><time>2026-06-22T11:45:51Z</time></trkpt>
			<trkpt lat="54.707650" lon="20.577630"><ele>8.0</ele><time>2026-06-22T11:45:55Z</time></trkpt>
			<trkpt lat="54.707610" lon="20.577980"><ele>8.0</ele><time>2026-06-22T11:45:59Z</time></trkpt>
			<trkpt lat="54.707080" lon="20.582170"><ele>7.7</ele><time>2026-06-22T11:46:02Z</time></trkpt>
			<trkpt lat="54.706970" lon="20.583100"><ele>7.6</ele><time>2026-06-22T11:46:06Z</time></trkpt>
			<trkpt lat="54.706940" lon="20.583270"><ele>7.5</ele><time>2026-06-22T11:46:09Z</time></trkpt>
			<trkpt lat="54.706910" lon="20.583490"><ele>7.5</ele><time>2026-06-22T11:46:13Z</time></trkpt>
			<trkpt lat="54.706890" lon="20.583660"><ele>7.5</ele><time>2026-06-22T11:46:16Z</time></trkpt>
			<trkpt lat="54.706840" lon="20.584050"><ele>7.4</ele><time>2026-06-22T11:46:20Z</time></trkpt>
			<trkpt lat="54.706740" lon="20.584680"><ele>7.2</ele><time>2026-06-22T11:46:24Z</time></trkpt>
			<trkpt lat="54.706570" lon="20.585540"><ele>7.0</ele><time>2026-06-22T11:46:27Z</time></trkpt>
			<trkpt lat="54.706460" lon="20.586020"><ele>6.6</ele><time>2026-06-22T11:46:31Z</time></trkpt>
			<trkpt lat="54.706290" lon="20.586670"><ele>5.9</ele><time>2026-06-22T11:46:34Z</time></trkpt>
			<trkpt lat="54.706220" lon="20.586920"><ele>5.7</ele><time>2026-06-22T11:46:38Z</time></trkpt>
			<trkpt lat="54.706180" lon="20.587050"><ele>5.5</ele><time>2026-06-22T11:46:42Z</time></trkpt>
			<trkpt lat="54.705630" lon="20.588830"><ele>4.0</ele><time>2026-06-22T11:46:45Z</time></trkpt>
			<trkpt lat="54.705330" lon="20.589940"><ele>4.0</ele><time>2026-06-22T11:46:49Z</time></trkpt>
			<trkpt lat="54.705260" lon="20.590200"><ele>4.0</ele><time>2026-06-22T11:46:52Z</time></trkpt>
			<trkpt lat="54.704950" lon="20.591690"><ele>3.9</ele><time>2026-06-22T11:46:56Z</time></trkpt>
			<trkpt lat="54.704740" lon="20.592900"><ele>3.6</ele><time>2026-06-22T11:46:59Z</time></trkpt>
			<trkpt lat="54.704650" lon="20.593490"><ele>3.4</ele><time>2026-06-22T11:47:03Z</time></trkpt>
			<trkpt lat="54.704540" lon="20.594360"><ele>3.1</ele><time>2026-06-22T11:47:07Z</time></trkpt>
			<trkpt lat="54.704260" lon="20.596890"><ele>2.3</ele><time>2026-06-22T11:47:10Z</time></trkpt>
			<trkpt lat="54.704080" lon="20.598420"><ele>1.8</ele><time>2026-06-22T11:47:14Z</time></trkpt>
			<trkpt lat="54.704000" lon="20.599250"><ele>1.5</ele><time>2026-06-22T11:47:17Z</time></trkpt>
			<trkpt lat="54.703970" lon="20.599740"><ele>1.4</ele><time>2026-06-22T11:47:21Z</time></trkpt>
			<trkpt lat="54.703920" lon="20.600610"><ele>1.2</ele><time>2026-06-22T11:47:24Z</time></trkpt>
			<trkpt lat="54.703910" lon="20.601480"><ele>1.8</ele><time>2026-06-22T11:47:28Z</time></trkpt>
			<trkpt lat="54.703920" lon="20.602500"><ele>2.5</ele><time>2026-06-22T11:47:32Z</time></trkpt>
			<trkpt lat="54.703970" lon="20.603490"><ele>3.2</ele><time>2026-06-22T11:47:35Z</time></trkpt>
			<trkpt lat="54.704060" lon="20.604470"><ele>3.3</ele><time>2026-06-22T11:47:39Z</time></trkpt>
			<trkpt lat="54.704140" lon="20.605150"><ele>3.4</ele><time>2026-06-22T11:47:42Z</time></trkpt>
			<trkpt lat="54.704230" lon="20.605830"><ele>3.4</ele><time>2026-06-22T11:47:46Z</time></trkpt>
			<trkpt lat="54.704470" lon="20.607170"><ele>3.3</ele><time>2026-06-22T11:47:50Z</time></trkpt>
			<trkpt lat="54.704490" lon="20.607250"><ele>3.3</ele><time>2026-06-22T11:47:53Z</time></trkpt>
			<trkpt lat="54.704790" lon="20.608380"><ele>2.8</ele><time>2026-06-22T11:47:57Z</time></trkpt>
			<trkpt lat="54.704870" lon="20.608700"><ele>2.7</ele><time>2026-06-22T11:48:00Z</time></trkpt>
			<trkpt lat="54.704890" lon="20.608740"><ele>2.6</ele><time>2026-06-22T11:48:04Z</time></trkpt>
			<trkpt lat="54.705280" lon="20.610270"><ele>2.0</ele><time>2026-06-22T11:48:07Z</time></trkpt>
			<trkpt lat="54.705680" lon="20.611910"><ele>1.4</ele><time>2026-06-22T11:48:11Z</time></trkpt>
			<trkpt lat="54.705790" lon="20.612410"><ele>1.2</ele><time>2026-06-22T11:48:15Z</time></trkpt>
			<trkpt lat="54.705950" lon="20.613240"><ele>2.0</ele><time>2026-06-22T11:48:18Z</time></trkpt>
			<trkpt lat="54.706110" lon="20.614130"><ele>2.9</ele><time>2026-06-22T11:48:22Z</time></trkpt>
			<trkpt lat="54.706290" lon="20.615460"><ele>4.1</ele><time>2026-06-22T11:48:25Z</time></trkpt>
			<trkpt lat="54.706480" lon="20.616920"><ele>4.4</ele><time>2026-06-22T11:48:29Z</time></trkpt>
			<trkpt lat="54.706507" lon="20.617120"><ele>4.4</ele><time>2026-06-22T11:48:45Z</time></trkpt>
			<trkpt lat="54.706814" lon="20.617002"><ele>4.5</ele><time>2026-06-22T11:49:29Z</time></trkpt>
			<trkpt lat="54.706830" lon="20.617130"><ele>4.5</ele><time>2026-06-22T11:49:40Z</time></trkpt>
			<trkpt lat="54.706830" lon="20.617140"><ele>4.6</ele><time>2026-06-22T11:49:48Z</time></trkpt>
			<trkpt lat="54.706960" lon="20.618240"><ele>4.4</ele><time>2026-06-22T11:49:57Z</time></trkpt>
			<trkpt lat="54.706980" lon="20.618370"><ele>4.3</ele><time>2026-06-22T11:50:06Z</time></trkpt>
			<trkpt lat="54.707230" lon="20.619570"><ele>3.6</ele><time>2026-06-22T11:50:14Z</time></trkpt>
			<trkpt lat="54.707340" lon="20.619880"><ele>3.4</ele><time>2026-06-22T11:50:23Z</time></trkpt>
			<trkpt lat="54.707570" lon="20.620260"><ele>3.0</ele><time>2026-06-22T11:50:31Z</time></trkpt>
			<trkpt lat="54.708040" lon="20.620630"><ele>3.5</ele><time>2026-06-22T11:50:40Z</time></trkpt>
			<trkpt lat="54.708310" lon="20.620770"><ele>4.1</ele><time>2026-06-22T11:50:48Z</time></trkpt>
			<trkpt lat="54.708510" lon="20.621010"><ele>4.7</ele><time>2026-06-22T11:50:57Z</time></trkpt>
			<trkpt lat="54.708590" lon="20.621270"><ele>5.1</ele><time>2026-06-22T11:51:05Z</time></trkpt>
			<trkpt lat="54.708730" lon="20.622270"><ele>6.4</ele><time>2026-06-22T11:51:14Z</time></trkpt>
			<trkpt lat="54.708800" lon="20.622550"><ele>6.8</ele><time>2026-06-22T11:51:22Z</time></trkpt>
			<trkpt lat="54.710350" lon="20.622510"><ele>8.7</ele><time>2026-06-22T11:51:31Z</time></trkpt>
			<trkpt lat="54.710760" lon="20.622500"><ele>8.9</ele><time>2026-06-22T11:51:40Z</time></trkpt>
			<trkpt lat="54.711030" lon="20.622560"><ele>8.8</ele><time>2026-06-22T11:51:48Z</time></trkpt>
			<trkpt lat="54.711620" lon="20.622740"><ele>8.6</ele><time>2026-06-22T11:51:57Z</time></trkpt>
			<trkpt lat="54.711770" lon="20.622830"><ele>8.5</ele><time>2026-06-22T11:52:05Z</time></trkpt>
			<trkpt lat="54.711870" lon="20.622950"><ele>8.4</ele><time>2026-06-22T11:52:14Z</time></trkpt>
			<trkpt lat="54.711920" lon="20.623060"><ele>8.4</ele><time>2026-06-22T11:52:22Z</time></trkpt>
			<trkpt lat="54.712470" lon="20.624640"><ele>8.6</ele><time>2026-06-22T11:52:31Z</time></trkpt>
			<trkpt lat="54.712890" lon="20.626610"><ele>9.6</ele><time>2026-06-22T11:52:39Z</time></trkpt>
			<trkpt lat="54.713150" lon="20.627840"><ele>10.7</ele><time>2026-06-22T11:52:48Z</time></trkpt>
			<trkpt lat="54.713410" lon="20.628930"><ele>11.8</ele><time>2026-06-22T11:52:57Z</time></trkpt>
			<trkpt lat="54.713660" lon="20.629950"><ele>12.7</ele><time>2026-06-22T11:53:05Z</time></trkpt>
			<trkpt lat="54.713720" lon="20.630100"><ele>12.8</ele><time>2026-06-22T11:53:14Z</time></trkpt>
			<trkpt lat="54.714110" lon="20.631130"><ele>13.7</ele><time>2026-06-22T11:53:22Z</time></trkpt>
			<trkpt lat="54.715570" lon="20.633480"><ele>14.9</ele><time>2026-06-22T11:53:31Z</time></trkpt>
			<trkpt lat="54.716500" lon="20.634800"><ele>15.8</ele><time>2026-06-22T11:53:39Z</time></trkpt>
			<trkpt lat="54.719710" lon="20.639450"><ele>16.8</ele><time>2026-06-22T11:53:48Z</time></trkpt>
			<trkpt lat="54.720540" lon="20.640730"><ele>16.7</ele><time>2026-06-22T11:53:56Z</time></trkpt>
			<trkpt lat="54.720720" lon="20.641190"><ele>16.8</ele><time>2026-06-22T11:54:05Z</time></trkpt>
			<trkpt lat="54.721000" lon="20.642290"><ele>17.0</ele><time>2026-06-22T11:54:13Z</time></trkpt>
			<trkpt lat="54.722530" lon="20.648200"><ele>18.9</ele><time>2026-06-22T11:54:22Z</time></trkpt>
			<trkpt lat="54.722770" lon="20.649060"><ele>18.9</ele><time>2026-06-22T11:54:31Z</time></trkpt>
			<trkpt lat="54.723080" lon="20.649910"><ele>18.9</ele><time>2026-06-22T11:54:39Z</time></trkpt>
			<trkpt lat="54.723500" lon="20.650790"><ele>18.8</ele><time>2026-06-22T11:54:48Z</time></trkpt>
			<trkpt lat="54.723990" lon="20.651730"><ele>19.5</ele><time>2026-06-22T11:54:56Z</time></trkpt>
			<trkpt lat="54.724860" lon="20.653210"><ele>20.6</ele><time>2026-06-22T11:55:05Z</time></trkpt>
			<trkpt lat="54.727210" lon="20.657270"><ele>19.4</ele><time>2026-06-22T11:55:13Z</time></trkpt>
			<trkpt lat="54.727640" lon="20.657980"><ele>19.1</ele><time>2026-06-22T11:55:22Z</time></trkpt>
			<trkpt lat="54.729240" lon="20.660760"><ele>18.3</ele><time>2026-06-22T11:55:30Z</time></trkpt>
			<trkpt lat="54.729980" lon="20.662180"><ele>17.8</ele><time>2026-06-22T11:55:39Z</time></trkpt>
			<trkpt lat="54.730250" lon="20.662820"><ele>18.6</ele><time>2026-06-22T11:55:47Z</time></trkpt>
			<trkpt lat="54.730740" lon="20.664360"><ele>20.2</ele><time>2026-06-22T11:55:56Z</time></trkpt>
			<trkpt lat="54.731940" lon="20.667880"><ele>24.8</ele><time>2026-06-22T11:56:05Z</time></trkpt>
			<trkpt lat="54.733320" lon="20.672220"><ele>28.6</ele><time>2026-06-22T11:56:13Z</time></trkpt>
			<trkpt lat="54.733500" lon="20.673030"><ele>29.2</ele><time>2026-06-22T11:56:22Z</time></trkpt>
			<trkpt lat="54.733580" lon="20.673650"><ele>28.6</ele><time>2026-06-22T11:56:30Z</time></trkpt>
			<trkpt lat="54.733950" lon="20.676250"><ele>26.3</ele><time>2026-06-22T11:56:39Z</time></trkpt>
			<trkpt lat="54.734110" lon="20.677280"><ele>25.2</ele><time>2026-06-22T11:56:47Z</time></trkpt>
			<trkpt lat="54.734830" lon="20.681840"><ele>22.0</ele><time>2026-06-22T11:56:56Z</time></trkpt>
			<trkpt lat="54.735600" lon="20.686390"><ele>18.2</ele><time>2026-06-22T11:57:04Z</time></trkpt>
			<trkpt lat="54.739200" lon="20.706930"><ele>15.0</ele><time>2026-06-22T11:57:13Z</time></trkpt>
			<trkpt lat="54.743300" lon="20.727920"><ele>13.7</ele><time>2026-06-22T11:57:22Z</time></trkpt>
			<trkpt lat="54.744670" lon="20.734950"><ele>16.8</ele><time>2026-06-22T11:57:30Z</time></trkpt>
			<trkpt lat="54.745860" lon="20.741080"><ele>13.0</ele><time>2026-06-22T11:57:39Z</time></trkpt>
			<trkpt lat="54.745980" lon="20.741980"><ele>13.1</ele><time>2026-06-22T11:57:47Z</time></trkpt>
			<trkpt lat="54.745990" lon="20.742440"><ele>13.2</ele><time>2026-06-22T11:57:56Z</time></trkpt>
			<trkpt lat="54.746110" lon="20.747440"><ele>13.4</ele><time>2026-06-22T11:58:04Z</time></trkpt>
			<trkpt lat="54.746230" lon="20.748810"><ele>14.4</ele><time>2026-06-22T11:58:13Z</time></trkpt>
			<trkpt lat="54.746450" lon="20.749590"><ele>15.1</ele><time>2026-06-22T11:58:21Z</time></trkpt>
			<trkpt lat="54.747090" lon="20.751620"><ele>15.5</ele><time>2026-06-22T11:58:30Z</time></trkpt>
			<trkpt lat="54.748140" lon="20.754770"><ele>15.4</ele><time>2026-06-22T11:58:38Z</time></trkpt>
			<trkpt lat="54.748740" lon="20.756560"><ele>16.1</ele><time>2026-06-22T11:58:47Z</time></trkpt>
			<trkpt lat="54.749280" lon="20.758560"><ele>16.9</ele><time>2026-06-22T11:58:56Z</time></trkpt>
			<trkpt lat="54.749400" lon="20.759260"><ele>16.7</ele><time>2026-06-22T11:59:04Z</time></trkpt>
			<trkpt lat="54.749450" lon="20.760660"><ele>15.7</ele><time>2026-06-22T11:59:13Z</time></trkpt>
			<trkpt lat="54.749150" lon="20.766750"><ele>15.0</ele><time>2026-06-22T11:59:21Z</time></trkpt>
			<trkpt lat="54.748910" lon="20.771230"><ele>14.7</ele><time>2026-06-22T11:59:30Z</time></trkpt>
			<trkpt lat="54.748790" lon="20.773910"><ele>14.7</ele><time>2026-06-22T11:59:38Z</time></trkpt>
			<trkpt lat="54.748760" lon="20.778480"><ele>11.8</ele><time>2026-06-22T11:59:47Z</time></trkpt>
			<trkpt lat="54.748780" lon="20.781330"><ele>12.7</ele><time>2026-06-22T11:59:55Z</time></trkpt>
			<trkpt lat="54.748990" lon="20.787390"><ele>17.2</ele><time>2026-06-22T12:00:04Z</time></trkpt>
			<trkpt lat="54.749210" lon="20.788000"><ele>18.8</ele><time>2026-06-22T12:00:13Z</time></trkpt>
			<trkpt lat="54.753940" lon="20.797000"><ele>23.5</ele><time>2026-06-22T12:00:21Z</time></trkpt>
			<trkpt lat="54.754570" lon="20.798170"><ele>24.6</ele><time>2026-06-22T12:00:30Z</time></trkpt>
			<trkpt lat="54.754810" lon="20.798500"><ele>25.0</ele><time>2026-06-22T12:00:38Z</time></trkpt>
			<trkpt lat="54.755200" lon="20.798840"><ele>24.8</ele><time>2026-06-22T12:00:47Z</time></trkpt>
			<trkpt lat="54.755770" lon="20.799120"><ele>24.5</ele><time>2026-06-22T12:00:55Z</time></trkpt>
			<trkpt lat="54.756520" lon="20.799150"><ele>24.1</ele><time>2026-06-22T12:01:04Z</time></trkpt>
			<trkpt lat="54.759240" lon="20.799120"><ele>20.1</ele><time>2026-06-22T12:01:12Z</time></trkpt>
			<trkpt lat="54.761200" lon="20.799170"><ele>17.2</ele><time>2026-06-22T12:01:21Z</time></trkpt>
			<trkpt lat="54.761520" lon="20.799360"><ele>16.8</ele><time>2026-06-22T12:01:29Z</time></trkpt>
			<trkpt lat="54.761910" lon="20.799760"><ele>16.4</ele><time>2026-06-22T12:01:38Z</time></trkpt>
			<trkpt lat="54.762900" lon="20.800900"><ele>14.2</ele><time>2026-06-22T12:01:47Z</time></trkpt>
			<trkpt lat="54.765610" lon="20.804220"><ele>13.8</ele><time>2026-06-22T12:01:55Z</time></trkpt>
			<trkpt lat="54.768760" lon="20.808060"><ele>12.5</ele><time>2026-06-22T12:02:04Z</time></trkpt>
			<trkpt lat="54.768920" lon="20.808230"><ele>12.4</ele><time>2026-06-22T12:02:12Z</time></trkpt>
			<trkpt lat="54.769070" lon="20.808530"><ele>12.2</ele><time>2026-06-22T12:02:21Z</time></trkpt>
			<trkpt lat="54.769210" lon="20.809070"><ele>12.0</ele><time>2026-06-22T12:02:29Z</time></trkpt>
			<trkpt lat="54.769590" lon="20.811490"><ele>12.5</ele><time>2026-06-22T12:02:38Z</time></trkpt>
			<trkpt lat="54.769850" lon="20.812820"><ele>12.5</ele><time>2026-06-22T12:02:46Z</time></trkpt>
			<trkpt lat="54.769950" lon="20.813450"><ele>12.4</ele><time>2026-06-22T12:02:55Z</time></trkpt>
			<trkpt lat="54.770210" lon="20.814460"><ele>12.3</ele><time>2026-06-22T12:03:03Z</time></trkpt>
			<trkpt lat="54.771580" lon="20.818910"><ele>10.7</ele><time>2026-06-22T12:03:12Z</time></trkpt>
			<trkpt lat="54.773430" lon="20.824950"><ele>9.9</ele><time>2026-06-22T12:03:21Z</time></trkpt>
			<trkpt lat="54.773650" lon="20.826100"><ele>9.3</ele><time>2026-06-22T12:03:29Z</time></trkpt>
			<trkpt lat="54.774130" lon="20.832060"><ele>8.5</ele><time>2026-06-22T12:03:38Z</time></trkpt>
			<trkpt lat="54.774350" lon="20.833010"><ele>8.6</ele><time>2026-06-22T12:03:46Z</time></trkpt>
			<trkpt lat="54.774550" lon="20.833280"><ele>8.7</ele><time>2026-06-22T12:03:55Z</time></trkpt>
			<trkpt lat="54.775540" lon="20.834290"><ele>9.0</ele><time>2026-06-22T12:04:03Z</time></trkpt>
			<trkpt lat="54.775980" lon="20.834900"><ele>8.8</ele><time>2026-06-22T12:04:12Z</time></trkpt>
			<trkpt lat="54.776410" lon="20.835560"><ele>8.7</ele><time>2026-06-22T12:04:20Z</time></trkpt>
			<trkpt lat="54.776520" lon="20.835770"><ele>8.7</ele><time>2026-06-22T12:04:29Z</time></trkpt>
			<trkpt lat="54.776670" lon="20.836310"><ele>8.6</ele><time>2026-06-22T12:04:38Z</time></trkpt>
			<trkpt lat="54.776760" lon="20.836900"><ele>8.2</ele><time>2026-06-22T12:04:46Z</time></trkpt>
			<trkpt lat="54.776860" lon="20.837740"><ele>7.7</ele><time>2026-06-22T12:04:55Z</time></trkpt>
			<trkpt lat="54.778090" lon="20.848040"><ele>8.9</ele><time>2026-06-22T12:05:03Z</time></trkpt>
			<trkpt lat="54.778820" lon="20.854610"><ele>9.7</ele><time>2026-06-22T12:05:12Z</time></trkpt>
			<trkpt lat="54.779090" lon="20.856430"><ele>9.7</ele><time>2026-06-22T12:05:20Z</time></trkpt>
			<trkpt lat="54.780150" lon="20.862290"><ele>8.3</ele><time>2026-06-22T12:05:29Z</time></trkpt>
			<trkpt lat="54.780570" lon="20.863860"><ele>8.8</ele><time>2026-06-22T12:05:37Z</time></trkpt>
			<trkpt lat="54.781120" lon="20.865540"><ele>9.9</ele><time>2026-06-22T12:05:46Z</time></trkpt>
			<trkpt lat="54.783170" lon="20.871470"><ele>9.1</ele><time>2026-06-22T12:05:54Z</time></trkpt>
			<trkpt lat="54.785090" lon="20.877910"><ele>9.3</ele><time>2026-06-22T12:06:03Z</time></trkpt>
			<trkpt lat="54.786000" lon="20.881050"><ele>8.1</ele><time>2026-06-22T12:06:12Z</time></trkpt>
			<trkpt lat="54.786230" lon="20.881850"><ele>8.2</ele><time>2026-06-22T12:06:20Z</time></trkpt>
			<trkpt lat="54.786470" lon="20.882660"><ele>8.4</ele><time>2026-06-22T12:06:29Z</time></trkpt>
			<trkpt lat="54.786750" lon="20.883680"><ele>8.5</ele><time>2026-06-22T12:06:37Z</time></trkpt>
			<trkpt lat="54.786940" lon="20.884570"><ele>8.6</ele><time>2026-06-22T12:06:46Z</time></trkpt>
			<trkpt lat="54.787060" lon="20.885220"><ele>8.6</ele><time>2026-06-22T12:06:54Z</time></trkpt>
			<trkpt lat="54.786980" lon="20.885680"><ele>8.7</ele><time>2026-06-22T12:07:03Z</time></trkpt>
			<trkpt lat="54.786800" lon="20.886220"><ele>8.4</ele><time>2026-06-22T12:07:11Z</time></trkpt>
			<trkpt lat="54.786800" lon="20.886220"><ele>8.4</ele><time>2026-06-22T12:07:21Z</time></trkpt>
			<trkpt lat="54.786720" lon="20.886460"><ele>8.2</ele><time>2026-06-22T12:07:31Z</time></trkpt>
			<trkpt lat="54.786630" lon="20.886860"><ele>8.0</ele><time>2026-06-22T12:07:41Z</time></trkpt>
			<trkpt lat="54.786470" lon="20.888140"><ele>7.2</ele><time>2026-06-22T12:07:51Z</time></trkpt>
			<trkpt lat="54.786220" lon="20.890090"><ele>6.3</ele><time>2026-06-22T12:08:01Z</time></trkpt>
			<trkpt lat="54.786290" lon="20.891250"><ele>5.7</ele><time>2026-06-22T12:08:11Z</time></trkpt>
			<trkpt lat="54.786300" lon="20.891550"><ele>5.6</ele><time>2026-06-22T12:08:21Z</time></trkpt>
			<trkpt lat="54.786350" lon="20.891870"><ele>5.5</ele><time>2026-06-22T12:08:31Z</time></trkpt>
			<trkpt lat="54.787010" lon="20.893450"><ele>4.9</ele><time>2026-06-22T12:08:41Z</time></trkpt>
			<trkpt lat="54.787600" lon="20.895170"><ele>4.1</ele><time>2026-06-22T12:08:51Z</time></trkpt>
			<trkpt lat="54.788460" lon="20.898360"><ele>2.3</ele><time>2026-06-22T12:09:01Z</time></trkpt>
			<trkpt lat="54.788840" lon="20.900000"><ele>1.5</ele><time>2026-06-22T12:09:11Z</time></trkpt>
			<trkpt lat="54.789820" lon="20.904680"><ele>0.1</ele><time>2026-06-22T12:09:21Z</time></trkpt>
			<trkpt lat="54.789870" lon="20.904920"><ele>0.2</ele><time>2026-06-22T12:09:31Z</time></trkpt>
			<trkpt lat="54.790840" lon="20.909690"><ele>-0.2</ele><time>2026-06-22T12:09:41Z</time></trkpt>
			<trkpt lat="54.790970" lon="20.910030"><ele>0.2</ele><time>2026-06-22T12:09:51Z</time></trkpt>
			<trkpt lat="54.791180" lon="20.910310"><ele>0.6</ele><time>2026-06-22T12:10:01Z</time></trkpt>
			<trkpt lat="54.793280" lon="20.912270"><ele>0.3</ele><time>2026-06-22T12:10:11Z</time></trkpt>
			<trkpt lat="54.795560" lon="20.914450"><ele>-0.1</ele><time>2026-06-22T12:10:21Z</time></trkpt>
			<trkpt lat="54.796380" lon="20.914930"><ele>-0.0</ele><time>2026-06-22T12:10:31Z</time></trkpt>
			<trkpt lat="54.801180" lon="20.917490"><ele>2.1</ele><time>2026-06-22T12:10:41Z</time></trkpt>
			<trkpt lat="54.804310" lon="20.919050"><ele>2.9</ele><time>2026-06-22T12:10:51Z</time></trkpt>
			<trkpt lat="54.804930" lon="20.919500"><ele>3.4</ele><time>2026-06-22T12:11:01Z</time></trkpt>
			<trkpt lat="54.805510" lon="20.920480"><ele>3.3</ele><time>2026-06-22T12:11:11Z</time></trkpt>
			<trkpt lat="54.806020" lon="20.921150"><ele>2.2</ele><time>2026-06-22T12:11:21Z</time></trkpt>
			<trkpt lat="54.807390" lon="20.922140"><ele>1.1</ele><time>2026-06-22T12:11:31Z</time></trkpt>
			<trkpt lat="54.807590" lon="20.922280"><ele>1.2</ele><time>2026-06-22T12:11:41Z</time></trkpt>
			<trkpt lat="54.811220" lon="20.924930"><ele>2.6</ele><time>2026-06-22T12:11:51Z</time></trkpt>
			<trkpt lat="54.811610" lon="20.925360"><ele>2.8</ele><time>2026-06-22T12:12:01Z</time></trkpt>
			<trkpt lat="54.814840" lon="20.929910"><ele>4.5</ele><time>2026-06-22T12:12:11Z</time></trkpt>
			<trkpt lat="54.815190" lon="20.930520"><ele>4.3</ele><time>2026-06-22T12:12:21Z</time></trkpt>
			<trkpt lat="54.815650" lon="20.931180"><ele>4.1</ele><time>2026-06-22T12:12:31Z</time></trkpt>
			<trkpt lat="54.816960" lon="20.932970"><ele>4.7</ele><time>2026-06-22T12:12:41Z</time></trkpt>
			<trkpt lat="54.819800" lon="20.937090"><ele>4.5</ele><time>2026-06-22T12:12:51Z</time></trkpt>
			<trkpt lat="54.819800" lon="20.937080"><ele>4.5</ele><time>2026-06-22T12:13:01Z</time></trkpt>
			<trkpt lat="54.826980" lon="20.947470"><ele>5.0</ele><time>2026-06-22T12:13:10Z</time></trkpt>
			<trkpt lat="54.827540" lon="20.948250"><ele>5.0</ele><time>2026-06-22T12:13:19Z</time></trkpt>
			<trkpt lat="54.827880" lon="20.948790"><ele>5.0</ele><time>2026-06-22T12:13:28Z</time></trkpt>
			<trkpt lat="54.831300" lon="20.953730"><ele>2.7</ele><time>2026-06-22T12:13:37Z</time></trkpt>
			<trkpt lat="54.831690" lon="20.954290"><ele>2.6</ele><time>2026-06-22T12:13:46Z</time></trkpt>
			<trkpt lat="54.832120" lon="20.955030"><ele>2.4</ele><time>2026-06-22T12:13:55Z</time></trkpt>
			<trkpt lat="54.832670" lon="20.956030"><ele>1.7</ele><time>2026-06-22T12:14:04Z</time></trkpt>
			<trkpt lat="54.832870" lon="20.956430"><ele>1.2</ele><time>2026-06-22T12:14:13Z</time></trkpt>
			<trkpt lat="54.833510" lon="20.957790"><ele>-0.7</ele><time>2026-06-22T12:14:22Z</time></trkpt>
			<trkpt lat="54.833580" lon="20.957930"><ele>-0.9</ele><time>2026-06-22T12:14:31Z</time></trkpt>
			<trkpt lat="54.834020" lon="20.958710"><ele>0.8</ele><time>2026-06-22T12:14:41Z</time></trkpt>
			<trkpt lat="54.834220" lon="20.959200"><ele>2.0</ele><time>2026-06-22T12:14:50Z</time></trkpt>
			<trkpt lat="54.834310" lon="20.959430"><ele>2.5</ele><time>2026-06-22T12:14:59Z</time></trkpt>
			<trkpt lat="54.834610" lon="20.960570"><ele>4.9</ele><time>2026-06-22T12:15:08Z</time></trkpt>
			<trkpt lat="54.835260" lon="20.963850"><ele>3.5</ele><time>2026-06-22T12:15:17Z</time></trkpt>
			<trkpt lat="54.836180" lon="20.968200"><ele>5.9</ele><time>2026-06-22T12:15:26Z</time></trkpt>
			<trkpt lat="54.836670" lon="20.970430"><ele>7.7</ele><time>2026-06-22T12:15:35Z</time></trkpt>
			<trkpt lat="54.836910" lon="20.971500"><ele>8.9</ele><time>2026-06-22T12:15:44Z</time></trkpt>
			<trkpt lat="54.837050" lon="20.972090"><ele>9.6</ele><time>2026-06-22T12:15:53Z</time></trkpt>
			<trkpt lat="54.837800" lon="20.975390"><ele>7.4</ele><time>2026-06-22T12:16:02Z</time></trkpt>
			<trkpt lat="54.838090" lon="20.976700"><ele>7.7</ele><time>2026-06-22T12:16:11Z</time></trkpt>
			<trkpt lat="54.838440" lon="20.978300"><ele>8.1</ele><time>2026-06-22T12:16:21Z</time></trkpt>
			<trkpt lat="54.839580" lon="20.983510"><ele>6.1</ele><time>2026-06-22T12:16:30Z</time></trkpt>
			<trkpt lat="54.839620" lon="20.983700"><ele>6.0</ele><time>2026-06-22T12:16:39Z</time></trkpt>
			<trkpt lat="54.839740" lon="20.984360"><ele>6.0</ele><time>2026-06-22T12:16:48Z</time></trkpt>
			<trkpt lat="54.839820" lon="20.984880"><ele>6.0</ele><time>2026-06-22T12:16:57Z</time></trkpt>
			<trkpt lat="54.839990" lon="20.986410"><ele>5.9</ele><time>2026-06-22T12:17:06Z</time></trkpt>
			<trkpt lat="54.840640" lon="20.991710"><ele>2.3</ele><time>2026-06-22T12:17:15Z</time></trkpt>
			<trkpt lat="54.840660" lon="20.991850"><ele>2.4</ele><time>2026-06-22T12:17:24Z</time></trkpt>
			<trkpt lat="54.841610" lon="20.999500"><ele>2.6</ele><time>2026-06-22T12:17:33Z</time></trkpt>
			<trkpt lat="54.841810" lon="21.000870"><ele>2.3</ele><time>2026-06-22T12:17:42Z</time></trkpt>
			<trkpt lat="54.841970" lon="21.001780"><ele>2.1</ele><time>2026-06-22T12:17:52Z</time></trkpt>
			<trkpt lat="54.842620" lon="21.004940"><ele>3.5</ele><time>2026-06-22T12:18:01Z</time></trkpt>
			<trkpt lat="54.843090" lon="21.007300"><ele>4.6</ele><time>2026-06-22T12:18:10Z</time></trkpt>
			<trkpt lat="54.843270" lon="21.008280"><ele>5.0</ele><time>2026-06-22T12:18:19Z</time></trkpt>
			<trkpt lat="54.843400" lon="21.009490"><ele>4.4</ele><time>2026-06-22T12:18:28Z</time></trkpt>
			<trkpt lat="54.843920" lon="21.014960"><ele>3.6</ele><time>2026-06-22T12:18:37Z</time></trkpt>
			<trkpt lat="54.843930" lon="21.015690"><ele>3.8</ele><time>2026-06-22T12:18:46Z</time></trkpt>
			<trkpt lat="54.843790" lon="21.019900"><ele>5.9</ele><time>2026-06-22T12:18:55Z</time></trkpt>
			<trkpt lat="54.843730" lon="21.021820"><ele>7.4</ele><time>2026-06-22T12:19:04Z</time></trkpt>
			<trkpt lat="54.843720" lon="21.022000"><ele>7.6</ele><time>2026-06-22T12:19:13Z</time></trkpt>
			<trkpt lat="54.843730" lon="21.022540"><ele>8.1</ele><time>2026-06-22T12:19:22Z</time></trkpt>
			<trkpt lat="54.843770" lon="21.022960"><ele>8.4</ele><time>2026-06-22T12:19:32Z</time></trkpt>
			<trkpt lat="54.843820" lon="21.023310"><ele>8.8</ele><time>2026-06-22T12:19:41Z</time></trkpt>
			<trkpt lat="54.844090" lon="21.024650"><ele>8.4</ele><time>2026-06-22T12:19:50Z</time></trkpt>
			<trkpt lat="54.844190" lon="21.025730"><ele>7.2</ele><time>2026-06-22T12:19:59Z</time></trkpt>
			<trkpt lat="54.844190" lon="21.029090"><ele>6.0</ele><time>2026-06-22T12:20:08Z</time></trkpt>
			<trkpt lat="54.844170" lon="21.029610"><ele>6.0</ele><time>2026-06-22T12:20:17Z</time></trkpt>
			<trkpt lat="54.844080" lon="21.030200"><ele>5.9</ele><time>2026-06-22T12:20:26Z</time></trkpt>
			<trkpt lat="54.844040" lon="21.030500"><ele>5.8</ele><time>2026-06-22T12:20:35Z</time></trkpt>
			<trkpt lat="54.844010" lon="21.030940"><ele>5.7</ele><time>2026-06-22T12:20:44Z</time></trkpt>
			<trkpt lat="54.844000" lon="21.031540"><ele>5.5</ele><time>2026-06-22T12:20:53Z</time></trkpt>
			<trkpt lat="54.843990" lon="21.031830"><ele>5.4</ele><time>2026-06-22T12:21:02Z</time></trkpt>
			<trkpt lat="54.843870" lon="21.033470"><ele>4.9</ele><time>2026-06-22T12:21:12Z</time></trkpt>
			<trkpt lat="54.843780" lon="21.034490"><ele>4.8</ele><time>2026-06-22T12:21:21Z</time></trkpt>
			<trkpt lat="54.843640" lon="21.036060"><ele>4.7</ele><time>2026-06-22T12:21:30Z</time></trkpt>
			<trkpt lat="54.842520" lon="21.048250"><ele>4.7</ele><time>2026-06-22T12:21:39Z</time></trkpt>
			<trkpt lat="54.841760" lon="21.056480"><ele>7.0</ele><time>2026-06-22T12:21:48Z</time></trkpt>
			<trkpt lat="54.841720" lon="21.056920"><ele>7.3</ele><time>2026-06-22T12:21:57Z</time></trkpt>
			<trkpt lat="54.841720" lon="21.057490"><ele>7.8</ele><time>2026-06-22T12:22:06Z</time></trkpt>
			<trkpt lat="54.841770" lon="21.058050"><ele>8.1</ele><time>2026-06-22T12:22:15Z</time></trkpt>
			<trkpt lat="54.841850" lon="21.058690"><ele>8.3</ele><time>2026-06-22T12:22:24Z</time></trkpt>
			<trkpt lat="54.842140" lon="21.061120"><ele>8.8</ele><time>2026-06-22T12:22:33Z</time></trkpt>
			<trkpt lat="54.842230" lon="21.061720"><ele>8.3</ele><time>2026-06-22T12:22:43Z</time></trkpt>
			<trkpt lat="54.842390" lon="21.062450"><ele>7.6</ele><time>2026-06-22T12:22:52Z</time></trkpt>
			<trkpt lat="54.842430" lon="21.062570"><ele>7.5</ele><time>2026-06-22T12:23:01Z</time></trkpt>
			<trkpt lat="54.843840" lon="21.066190"><ele>5.9</ele><time>2026-06-22T12:23:10Z</time></trkpt>
			<trkpt lat="54.847970" lon="21.076690"><ele>6.0</ele><time>2026-06-22T12:23:19Z</time></trkpt>
			<trkpt lat="54.848370" lon="21.077710"><ele>5.0</ele><time>2026-06-22T12:23:28Z</time></trkpt>
			<trkpt lat="54.849230" lon="21.079890"><ele>3.5</ele><time>2026-06-22T12:23:37Z</time></trkpt>
			<trkpt lat="54.849870" lon="21.081550"><ele>3.8</ele><time>2026-06-22T12:23:46Z</time></trkpt>
			<trkpt lat="54.850620" lon="21.083500"><ele>3.4</ele><time>2026-06-22T12:23:55Z</time></trkpt>
			<trkpt lat="54.850880" lon="21.084150"><ele>3.1</ele><time>2026-06-22T12:24:04Z</time></trkpt>
			<trkpt lat="54.851740" lon="21.086350"><ele>3.4</ele><time>2026-06-22T12:24:13Z</time></trkpt>
			<trkpt lat="54.851880" lon="21.086710"><ele>3.4</ele><time>2026-06-22T12:24:23Z</time></trkpt>
			<trkpt lat="54.852120" lon="21.087350"><ele>3.4</ele><time>2026-06-22T12:24:32Z</time></trkpt>
			<trkpt lat="54.853120" lon="21.090000"><ele>2.6</ele><time>2026-06-22T12:24:41Z</time></trkpt>
			<trkpt lat="54.853140" lon="21.090050"><ele>2.6</ele><time>2026-06-22T12:24:50Z</time></trkpt>
			<trkpt lat="54.853320" lon="21.090520"><ele>2.7</ele><time>2026-06-22T12:24:59Z</time></trkpt>
			<trkpt lat="54.853620" lon="21.091300"><ele>2.8</ele><time>2026-06-22T12:25:08Z</time></trkpt>
			<trkpt lat="54.853760" lon="21.091660"><ele>2.9</ele><time>2026-06-22T12:25:17Z</time></trkpt>
			<trkpt lat="54.853820" lon="21.091830"><ele>2.9</ele><time>2026-06-22T12:25:26Z</time></trkpt>
			<trkpt lat="54.854180" lon="21.092790"><ele>2.8</ele><time>2026-06-22T12:25:35Z</time></trkpt>
			<trkpt lat="54.854410" lon="21.093370"><ele>2.6</ele><time>2026-06-22T12:25:44Z</time></trkpt>
			<trkpt lat="54.854470" lon="21.093540"><ele>2.5</ele><time>2026-06-22T12:25:53Z</time></trkpt>
			<trkpt lat="54.855600" lon="21.096440"><ele>1.4</ele><time>2026-06-22T12:26:03Z</time></trkpt>
			<trkpt lat="54.855780" lon="21.096910"><ele>1.2</ele><time>2026-06-22T12:26:12Z</time></trkpt>
			<trkpt lat="54.855930" lon="21.097320"><ele>1.1</ele><time>2026-06-22T12:26:21Z</time></trkpt>
			<trkpt lat="54.856100" lon="21.097780"><ele>1.3</ele><time>2026-06-22T12:26:30Z</time></trkpt>
			<trkpt lat="54.856270" lon="21.098210"><ele>1.9</ele><time>2026-06-22T12:26:39Z</time></trkpt>
			<trkpt lat="54.856380" lon="21.098500"><ele>2.3</ele><time>2026-06-22T12:26:48Z</time></trkpt>
			<trkpt lat="54.857160" lon="21.100570"><ele>4.0</ele><time>2026-06-22T12:26:57Z</time></trkpt>
			<trkpt lat="54.857800" lon="21.102320"><ele>2.5</ele><time>2026-06-22T12:27:06Z</time></trkpt>
			<trkpt lat="54.858410" lon="21.103640"><ele>2.2</ele><time>2026-06-22T12:27:15Z</time></trkpt>
			<trkpt lat="54.858910" lon="21.104720"><ele>2.2</ele><time>2026-06-22T12:27:24Z</time></trkpt>
			<trkpt lat="54.859380" lon="21.105850"><ele>2.0</ele><time>2026-06-22T12:27:34Z</time></trkpt>
			<trkpt lat="54.859380" lon="21.105840"><ele>2.0</ele><time>2026-06-22T12:27:39Z</time></trkpt>
			<trkpt lat="54.859490" lon="21.106120"><ele>1.8</ele><time>2026-06-22T12:27:44Z</time></trkpt>
			<trkpt lat="54.860020" lon="21.107650"><ele>1.1</ele><time>2026-06-22T12:27:50Z</time></trkpt>
			<trkpt lat="54.860360" lon="21.108630"><ele>1.5</ele><time>2026-06-22T12:27:55Z</time></trkpt>
			<trkpt lat="54.860420" lon="21.108740"><ele>1.6</ele><time>2026-06-22T12:28:00Z</time></trkpt>
			<trkpt lat="54.860600" lon="21.109010"><ele>1.9</ele><time>2026-06-22T12:28:06Z</time></trkpt>
			<trkpt lat="54.860740" lon="21.109160"><ele>2.0</ele><time>2026-06-22T12:28:11Z</time></trkpt>
			<trkpt lat="54.861050" lon="21.109410"><ele>2.4</ele><time>2026-06-22T12:28:16Z</time></trkpt>
			<trkpt lat="54.861490" lon="21.109670"><ele>2.8</ele><time>2026-06-22T12:28:22Z</time></trkpt>
			<trkpt lat="54.862390" lon="21.110250"><ele>1.6</ele><time>2026-06-22T12:28:27Z</time></trkpt>
			<trkpt lat="54.862650" lon="21.110400"><ele>1.2</ele><time>2026-06-22T12:28:32Z</time></trkpt>
			<trkpt lat="54.862800" lon="21.110570"><ele>1.0</ele><time>2026-06-22T12:28:38Z</time></trkpt>
			<trkpt lat="54.862870" lon="21.110720"><ele>0.8</ele><time>2026-06-22T12:28:43Z</time></trkpt>
			<trkpt lat="54.862960" lon="21.110940"><ele>0.6</ele><time>2026-06-22T12:28:48Z</time></trkpt>
			<trkpt lat="54.863440" lon="21.112590"><ele>-1.4</ele><time>2026-06-22T12:28:54Z</time></trkpt>
			<trkpt lat="54.864040" lon="21.114460"><ele>-2.3</ele><time>2026-06-22T12:28:59Z</time></trkpt>
			<trkpt lat="54.864240" lon="21.115060"><ele>-1.6</ele><time>2026-06-22T12:29:04Z</time></trkpt>
			<trkpt lat="54.864520" lon="21.115910"><ele>-0.6</ele><time>2026-06-22T12:29:10Z</time></trkpt>
			<trkpt lat="54.864790" lon="21.116640"><ele>0.3</ele><time>2026-06-22T12:29:15Z</time></trkpt>
			<trkpt lat="54.865140" lon="21.117500"><ele>0.9</ele><time>2026-06-22T12:29:20Z</time></trkpt>
			<trkpt lat="54.865260" lon="21.117830"><ele>1.1</ele><time>2026-06-22T12:29:26Z</time></trkpt>
			<trkpt lat="54.865440" lon="21.118310"><ele>1.4</ele><time>2026-06-22T12:29:31Z</time></trkpt>
			<trkpt lat="54.866190" lon="21.120500"><ele>0.7</ele><time>2026-06-22T12:29:36Z</time></trkpt>
			<trkpt lat="54.866280" lon="21.120820"><ele>0.4</ele><time>2026-06-22T12:29:42Z</time></trkpt>
			<trkpt lat="54.866530" lon="21.121930"><ele>-0.6</ele><time>2026-06-22T12:29:47Z</time></trkpt>
			<trkpt lat="54.866640" lon="21.122470"><ele>-0.7</ele><time>2026-06-22T12:29:52Z</time></trkpt>
			<trkpt lat="54.866740" lon="21.122990"><ele>-0.8</ele><time>2026-06-22T12:29:58Z</time></trkpt>
			<trkpt lat="54.866760" lon="21.123220"><ele>-0.8</ele><time>2026-06-22T12:30:03Z</time></trkpt>
			<trkpt lat="54.866790" lon="21.124130"><ele>-0.9</ele><time>2026-06-22T12:30:08Z</time></trkpt>
			<trkpt lat="54.866760" lon="21.124610"><ele>-1.0</ele><time>2026-06-22T12:30:14Z</time></trkpt>
			<trkpt lat="54.866730" lon="21.125000"><ele>-1.0</ele><time>2026-06-22T12:30:19Z</time></trkpt>
			<trkpt lat="54.866600" lon="21.125860"><ele>-1.4</ele><time>2026-06-22T12:30:24Z</time></trkpt>
			<trkpt lat="54.866100" lon="21.129120"><ele>-1.8</ele><time>2026-06-22T12:30:30Z</time></trkpt>
			<trkpt lat="54.865720" lon="21.131130"><ele>-1.0</ele><time>2026-06-22T12:30:35Z</time></trkpt>
			<trkpt lat="54.865700" lon="21.131120"><ele>-1.0</ele><time>2026-06-22T12:30:43Z</time></trkpt>
			<trkpt lat="54.865170" lon="21.133880"><ele>-1.5</ele><time>2026-06-22T12:30:50Z</time></trkpt>
			<trkpt lat="54.865120" lon="21.134220"><ele>-1.5</ele><time>2026-06-22T12:30:58Z</time></trkpt>
			<trkpt lat="54.864150" lon="21.140210"><ele>-2.0</ele><time>2026-06-22T12:31:06Z</time></trkpt>
			<trkpt lat="54.863990" lon="21.141130"><ele>-2.0</ele><time>2026-06-22T12:31:13Z</time></trkpt>
			<trkpt lat="54.863890" lon="21.141910"><ele>-1.9</ele><time>2026-06-22T12:31:21Z</time></trkpt>
			<trkpt lat="54.863840" lon="21.142370"><ele>-1.9</ele><time>2026-06-22T12:31:28Z</time></trkpt>
			<trkpt lat="54.863820" lon="21.142990"><ele>-1.9</ele><time>2026-06-22T12:31:36Z</time></trkpt>
			<trkpt lat="54.863830" lon="21.145560"><ele>-2.7</ele><time>2026-06-22T12:31:44Z</time></trkpt>
			<trkpt lat="54.863850" lon="21.146920"><ele>-2.5</ele><time>2026-06-22T12:31:51Z</time></trkpt>
			<trkpt lat="54.863890" lon="21.147550"><ele>-2.0</ele><time>2026-06-22T12:31:59Z</time></trkpt>
			<trkpt lat="54.864060" lon="21.149470"><ele>-0.4</ele><time>2026-06-22T12:32:07Z</time></trkpt>
			<trkpt lat="54.864190" lon="21.150880"><ele>-1.2</ele><time>2026-06-22T12:32:14Z</time></trkpt>
			<trkpt lat="54.864210" lon="21.151340"><ele>-1.4</ele><time>2026-06-22T12:32:22Z</time></trkpt>
			<trkpt lat="54.864190" lon="21.152030"><ele>-1.7</ele><time>2026-06-22T12:32:30Z</time></trkpt>
			<trkpt lat="54.863970" lon="21.154180"><ele>-2.7</ele><time>2026-06-22T12:32:37Z</time></trkpt>
			<trkpt lat="54.863610" lon="21.157990"><ele>-1.9</ele><time>2026-06-22T12:32:45Z</time></trkpt>
			<trkpt lat="54.863380" lon="21.160060"><ele>-1.2</ele><time>2026-06-22T12:32:53Z</time></trkpt>
			<trkpt lat="54.863320" lon="21.160550"><ele>-1.1</ele><time>2026-06-22T12:33:00Z</time></trkpt>
			<trkpt lat="54.863170" lon="21.161390"><ele>-0.9</ele><time>2026-06-22T12:33:08Z</time></trkpt>
			<trkpt lat="54.862960" lon="21.162070"><ele>-0.8</ele><time>2026-06-22T12:33:16Z</time></trkpt>
			<trkpt lat="54.862430" lon="21.163270"><ele>-0.7</ele><time>2026-06-22T12:33:23Z</time></trkpt>
			<trkpt lat="54.862270" lon="21.163740"><ele>-0.6</ele><time>2026-06-22T12:33:31Z</time></trkpt>
			<trkpt lat="54.862090" lon="21.164560"><ele>-0.5</ele><time>2026-06-22T12:33:39Z</time></trkpt>
			<trkpt lat="54.861360" lon="21.168520"><ele>-0.5</ele><time>2026-06-22T12:33:46Z</time></trkpt>
			<trkpt lat="54.860890" lon="21.170760"><ele>-0.9</ele><time>2026-06-22T12:33:54Z</time></trkpt>
			<trkpt lat="54.860570" lon="21.172180"><ele>-1.0</ele><time>2026-06-22T12:34:02Z</time></trkpt>
			<trkpt lat="54.860470" lon="21.172680"><ele>-1.0</ele><time>2026-06-22T12:34:09Z</time></trkpt>
			<trkpt lat="54.860390" lon="21.173530"><ele>-0.7</ele><time>2026-06-22T12:34:17Z</time></trkpt>
			<trkpt lat="54.860310" lon="21.174110"><ele>0.1</ele><time>2026-06-22T12:34:25Z</time></trkpt>
			<trkpt lat="54.859830" lon="21.176760"><ele>3.0</ele><time>2026-06-22T12:34:32Z</time></trkpt>
			<trkpt lat="54.859590" lon="21.177930"><ele>3.0</ele><time>2026-06-22T12:34:40Z</time></trkpt>
			<trkpt lat="54.859360" lon="21.178680"><ele>3.0</ele><time>2026-06-22T12:34:48Z</time></trkpt>
			<trkpt lat="54.859030" lon="21.179520"><ele>2.8</ele><time>2026-06-22T12:34:55Z</time></trkpt>
			<trkpt lat="54.858480" lon="21.180500"><ele>2.2</ele><time>2026-06-22T12:35:03Z</time></trkpt>
			<trkpt lat="54.857990" lon="21.181270"><ele>1.6</ele><time>2026-06-22T12:35:11Z</time></trkpt>
			<trkpt lat="54.857400" lon="21.182100"><ele>3.3</ele><time>2026-06-22T12:35:18Z</time></trkpt>
			<trkpt lat="54.856640" lon="21.183140"><ele>5.6</ele><time>2026-06-22T12:35:26Z</time></trkpt>
			<trkpt lat="54.855970" lon="21.183940"><ele>4.1</ele><time>2026-06-22T12:35:34Z</time></trkpt>
			<trkpt lat="54.855610" lon="21.184330"><ele>3.0</ele><time>2026-06-22T12:35:41Z</time></trkpt>
			<trkpt lat="54.855380" lon="21.184590"><ele>2.2</ele><time>2026-06-22T12:35:49Z</time></trkpt>
			<trkpt lat="54.852120" lon="21.187950"><ele>0.1</ele><time>2026-06-22T12:35:57Z</time></trkpt>
			<trkpt lat="54.849620" lon="21.190530"><ele>-0.2</ele><time>2026-06-22T12:36:04Z</time></trkpt>
			<trkpt lat="54.848800" lon="21.191420"><ele>-0.1</ele><time>2026-06-22T12:36:12Z</time></trkpt>
			<trkpt lat="54.848280" lon="21.191910"><ele>-0.1</ele><time>2026-06-22T12:36:20Z</time></trkpt>
			<trkpt lat="54.847850" lon="21.192220"><ele>-0.1</ele><time>2026-06-22T12:36:27Z</time></trkpt>
			<trkpt lat="54.847420" lon="21.192400"><ele>-0.1</ele><time>2026-06-22T12:36:35Z</time></trkpt>
			<trkpt lat="54.846890" lon="21.192460"><ele>-0.1</ele><time>2026-06-22T12:36:43Z</time></trkpt>
			<trkpt lat="54.846100" lon="21.192520"><ele>-0.1</ele><time>2026-06-22T12:36:50Z</time></trkpt>
			<trkpt lat="54.845830" lon="21.192570"><ele>-0.0</ele><time>2026-06-22T12:36:58Z</time></trkpt>
			<trkpt lat="54.845700" lon="21.192610"><ele>-0.0</ele><time>2026-06-22T12:37:06Z</time></trkpt>
			<trkpt lat="54.845550" lon="21.192700"><ele>-0.0</ele><time>2026-06-22T12:37:13Z</time></trkpt>
			<trkpt lat="54.845380" lon="21.192850"><ele>0.0</ele><time>2026-06-22T12:37:21Z</time></trkpt>
			<trkpt lat="54.845220" lon="21.193040"><ele>0.0</ele><time>2026-06-22T12:37:29Z</time></trkpt>
			<trkpt lat="54.845110" lon="21.193200"><ele>0.0</ele><time>2026-06-22T12:37:36Z</time></trkpt>
			<trkpt lat="54.844890" lon="21.193530"><ele>0.0</ele><time>2026-06-22T12:37:44Z</time></trkpt>
			<trkpt lat="54.844750" lon="21.193740"><ele>0.0</ele><time>2026-06-22T12:37:52Z</time></trkpt>
			<trkpt lat="54.844140" lon="21.194690"><ele>0.0</ele><time>2026-06-22T12:37:59Z</time></trkpt>
			<trkpt lat="54.844050" lon="21.194860"><ele>0.0</ele><time>2026-06-22T12:38:07Z</time></trkpt>
			<trkpt lat="54.843990" lon="21.195010"><ele>0.0</ele><time>2026-06-22T12:38:15Z</time></trkpt>
			<trkpt lat="54.843930" lon="21.195210"><ele>-0.1</ele><time>2026-06-22T12:38:22Z</time></trkpt>
			<trkpt lat="54.843900" lon="21.195400"><ele>-0.2</ele><time>2026-06-22T12:38:30Z</time></trkpt>
			<trkpt lat="54.843880" lon="21.195590"><ele>-0.3</ele><time>2026-06-22T12:38:38Z</time></trkpt>
			<trkpt lat="54.843860" lon="21.195830"><ele>-0.4</ele><time>2026-06-22T12:38:45Z</time></trkpt>
			<trkpt lat="54.843950" lon="21.202190"><ele>-1.7</ele><time>2026-06-22T12:38:53Z</time></trkpt>
			<trkpt lat="54.843890" lon="21.203450"><ele>-1.4</ele><time>2026-06-22T12:39:01Z</time></trkpt>
			<trkpt lat="54.843850" lon="21.204190"><ele>-1.2</ele><time>2026-06-22T12:39:08Z</time></trkpt>
			<trkpt lat="54.843670" lon="21.205840"><ele>-0.8</ele><time>2026-06-22T12:39:16Z</time></trkpt>
			<trkpt lat="54.843420" lon="21.207810"><ele>-0.5</ele><time>2026-06-22T12:39:24Z</time></trkpt>
			<trkpt lat="54.843270" lon="21.208700"><ele>-0.5</ele><time>2026-06-22T12:39:31Z</time></trkpt>
			<trkpt lat="54.843010" lon="21.210300"><ele>-0.5</ele><time>2026-06-22T12:39:39Z</time></trkpt>
			<trkpt lat="54.842830" lon="21.211340"><ele>-0.1</ele><time>2026-06-22T12:39:47Z</time></trkpt>
			<trkpt lat="54.842500" lon="21.212580"><ele>0.6</ele><time>2026-06-22T12:39:54Z</time></trkpt>
			<trkpt lat="54.842100" lon="21.214000"><ele>1.0</ele><time>2026-06-22T12:40:02Z</time></trkpt>
			<trkpt lat="54.838400" lon="21.224030"><ele>-1.5</ele><time>2026-06-22T12:40:10Z</time></trkpt>
			<trkpt lat="54.838100" lon="21.224820"><ele>-1.3</ele><time>2026-06-22T12:40:17Z</time></trkpt>
			<trkpt lat="54.837130" lon="21.227560"><ele>-0.5</ele><time>2026-06-22T12:40:25Z</time></trkpt>
			<trkpt lat="54.836680" lon="21.229030"><ele>-0.1</ele><time>2026-06-22T12:40:33Z</time></trkpt>
			<trkpt lat="54.834830" lon="21.235080"><ele>0.3</ele><time>2026-06-22T12:40:40Z</time></trkpt>
			<trkpt lat="54.833470" lon="21.239530"><ele>3.3</ele><time>2026-06-22T12:40:48Z</time></trkpt>
			<trkpt lat="54.833120" lon="21.240690"><ele>4.0</ele><time>2026-06-22T12:40:56Z</time></trkpt>
			<trkpt lat="54.831590" lon="21.245530"><ele>3.4</ele><time>2026-06-22T12:41:03Z</time></trkpt>
			<trkpt lat="54.830860" lon="21.247890"><ele>3.5</ele><time>2026-06-22T12:41:11Z</time></trkpt>
			<trkpt lat="54.830590" lon="21.248770"><ele>3.7</ele><time>2026-06-22T12:41:19Z</time></trkpt>
			<trkpt lat="54.830340" lon="21.249590"><ele>3.8</ele><time>2026-06-22T12:41:26Z</time></trkpt>
			<trkpt lat="54.829290" lon="21.253450"><ele>3.9</ele><time>2026-06-22T12:41:34Z</time></trkpt>
			<trkpt lat="54.829120" lon="21.254160"><ele>3.8</ele><time>2026-06-22T12:41:42Z</time></trkpt>
			<trkpt lat="54.827310" lon="21.261640"><ele>4.0</ele><time>2026-06-22T12:41:49Z</time></trkpt>
			<trkpt lat="54.826280" lon="21.265900"><ele>3.1</ele><time>2026-06-22T12:41:57Z</time></trkpt>
			<trkpt lat="54.825300" lon="21.269960"><ele>4.3</ele><time>2026-06-22T12:42:05Z</time></trkpt>
			<trkpt lat="54.824820" lon="21.272070"><ele>4.8</ele><time>2026-06-22T12:42:12Z</time></trkpt>
			<trkpt lat="54.824430" lon="21.274280"><ele>4.4</ele><time>2026-06-22T12:42:20Z</time></trkpt>
			<trkpt lat="54.823650" lon="21.279940"><ele>4.8</ele><time>2026-06-22T12:42:28Z</time></trkpt>
			<trkpt lat="54.823220" lon="21.283000"><ele>5.2</ele><time>2026-06-22T12:42:35Z</time></trkpt>
			<trkpt lat="54.821800" lon="21.293450"><ele>3.8</ele><time>2026-06-22T12:42:43Z</time></trkpt>
			<trkpt lat="54.821730" lon="21.294190"><ele>4.1</ele><time>2026-06-22T12:42:51Z</time></trkpt>
			<trkpt lat="54.821570" lon="21.295810"><ele>4.8</ele><time>2026-06-22T12:42:58Z</time></trkpt>
			<trkpt lat="54.821150" lon="21.302830"><ele>5.6</ele><time>2026-06-22T12:43:06Z</time></trkpt>
			<trkpt lat="54.820790" lon="21.308600"><ele>7.7</ele><time>2026-06-22T12:43:14Z</time></trkpt>
			<trkpt lat="54.820340" lon="21.316380"><ele>7.1</ele><time>2026-06-22T12:43:21Z</time></trkpt>
			<trkpt lat="54.820300" lon="21.317150"><ele>7.4</ele><time>2026-06-22T12:43:29Z</time></trkpt>
			<trkpt lat="54.820310" lon="21.317950"><ele>7.4</ele><time>2026-06-22T12:43:37Z</time></trkpt>
			<trkpt lat="54.820390" lon="21.319070"><ele>6.5</ele><time>2026-06-22T12:43:44Z</time></trkpt>
			<trkpt lat="54.820520" lon="21.320360"><ele>5.4</ele><time>2026-06-22T12:43:52Z</time></trkpt>
			<trkpt lat="54.820730" lon="21.322180"><ele>6.5</ele><time>2026-06-22T12:44:00Z</time></trkpt>
			<trkpt lat="54.821420" lon="21.327720"><ele>7.1</ele><time>2026-06-22T12:44:07Z</time></trkpt>
			<trkpt lat="54.821460" lon="21.328060"><ele>7.1</ele><time>2026-06-22T12:44:15Z</time></trkpt>
			<trkpt lat="54.822130" lon="21.333460"><ele>8.2</ele><time>2026-06-22T12:44:23Z</time></trkpt>
			<trkpt lat="54.822340" lon="21.335260"><ele>7.9</ele><time>2026-06-22T12:44:30Z</time></trkpt>
			<trkpt lat="54.823000" lon="21.340890"><ele>6.9</ele><time>2026-06-22T12:44:38Z</time></trkpt>
			<trkpt lat="54.823310" lon="21.343610"><ele>8.9</ele><time>2026-06-22T12:44:46Z</time></trkpt>
			<trkpt lat="54.823490" lon="21.345130"><ele>10.1</ele><time>2026-06-22T12:44:53Z</time></trkpt>
			<trkpt lat="54.823810" lon="21.348060"><ele>9.2</ele><time>2026-06-22T12:45:01Z</time></trkpt>
			<trkpt lat="54.824010" lon="21.349710"><ele>8.8</ele><time>2026-06-22T12:45:09Z</time></trkpt>
			<trkpt lat="54.824080" lon="21.350290"><ele>8.6</ele><time>2026-06-22T12:45:16Z</time></trkpt>
			<trkpt lat="54.824170" lon="21.351070"><ele>8.5</ele><time>2026-06-22T12:45:24Z</time></trkpt>
			<trkpt lat="54.824290" lon="21.351800"><ele>8.3</ele><time>2026-06-22T12:45:31Z</time></trkpt>
			<trkpt lat="54.824470" lon="21.352900"><ele>7.9</ele><time>2026-06-22T12:45:39Z</time></trkpt>
			<trkpt lat="54.824690" lon="21.354350"><ele>7.4</ele><time>2026-06-22T12:45:47Z</time></trkpt>
			<trkpt lat="54.824710" lon="21.354480"><ele>7.4</ele><time>2026-06-22T12:45:54Z</time></trkpt>
			<trkpt lat="54.824860" lon="21.355340"><ele>7.5</ele><time>2026-06-22T12:46:02Z</time></trkpt>
			<trkpt lat="54.825090" lon="21.356890"><ele>7.7</ele><time>2026-06-22T12:46:10Z</time></trkpt>
			<trkpt lat="54.825310" lon="21.359640"><ele>7.3</ele><time>2026-06-22T12:46:17Z</time></trkpt>
			<trkpt lat="54.825570" lon="21.362450"><ele>7.4</ele><time>2026-06-22T12:46:25Z</time></trkpt>
			<trkpt lat="54.825750" lon="21.364060"><ele>7.9</ele><time>2026-06-22T12:46:33Z</time></trkpt>
			<trkpt lat="54.826010" lon="21.366320"><ele>10.7</ele><time>2026-06-22T12:46:40Z</time></trkpt>
			<trkpt lat="54.826280" lon="21.368780"><ele>14.2</ele><time>2026-06-22T12:46:48Z</time></trkpt>
			<trkpt lat="54.826390" lon="21.369940"><ele>15.9</ele><time>2026-06-22T12:46:56Z</time></trkpt>
			<trkpt lat="54.826820" lon="21.374370"><ele>19.7</ele><time>2026-06-22T12:47:03Z</time></trkpt>
			<trkpt lat="54.826980" lon="21.376470"><ele>19.6</ele><time>2026-06-22T12:47:11Z</time></trkpt>
			<trkpt lat="54.826970" lon="21.377250"><ele>20.1</ele><time>2026-06-22T12:47:19Z</time></trkpt>
			<trkpt lat="54.826810" lon="21.379950"><ele>21.3</ele><time>2026-06-22T12:47:26Z</time></trkpt>
			<trkpt lat="54.826700" lon="21.382150"><ele>20.8</ele><time>2026-06-22T12:47:34Z</time></trkpt>
			<trkpt lat="54.826720" lon="21.382700"><ele>20.8</ele><time>2026-06-22T12:47:42Z</time></trkpt>
			<trkpt lat="54.826860" lon="21.384060"><ele>20.9</ele><time>2026-06-22T12:47:49Z</time></trkpt>
			<trkpt lat="54.827090" lon="21.385280"><ele>21.0</ele><time>2026-06-22T12:47:57Z</time></trkpt>
			<trkpt lat="54.829100" lon="21.393900"><ele>18.6</ele><time>2026-06-22T12:48:05Z</time></trkpt>
			<trkpt lat="54.830470" lon="21.400520"><ele>15.6</ele><time>2026-06-22T12:48:12Z</time></trkpt>
			<trkpt lat="54.830800" lon="21.402030"><ele>15.8</ele><time>2026-06-22T12:48:20Z</time></trkpt>
			<trkpt lat="54.831250" lon="21.403190"><ele>15.8</ele><time>2026-06-22T12:48:28Z</time></trkpt>
			<trkpt lat="54.831600" lon="21.403820"><ele>15.3</ele><time>2026-06-22T12:48:35Z</time></trkpt>
			<trkpt lat="54.831930" lon="21.404410"><ele>14.8</ele><time>2026-06-22T12:48:43Z</time></trkpt>
			<trkpt lat="54.832690" lon="21.405800"><ele>14.7</ele><time>2026-06-22T12:48:51Z</time></trkpt>
			<trkpt lat="54.833580" lon="21.407390"><ele>15.8</ele><time>2026-06-22T12:48:58Z</time></trkpt>
			<trkpt lat="54.833930" lon="21.408290"><ele>15.6</ele><time>2026-06-22T12:49:06Z</time></trkpt>
			<trkpt lat="54.834090" lon="21.408970"><ele>15.4</ele><time>2026-06-22T12:49:14Z</time></trkpt>
			<trkpt lat="54.834100" lon="21.409670"><ele>15.3</ele><time>2026-06-22T12:49:21Z</time></trkpt>
			<trkpt lat="54.834020" lon="21.410430"><ele>15.3</ele><time>2026-06-22T12:49:29Z</time></trkpt>
			<trkpt lat="54.833730" lon="21.411750"><ele>15.9</ele><time>2026-06-22T12:49:37Z</time></trkpt>
			<trkpt lat="54.832960" lon="21.415710"><ele>20.2</ele><time>2026-06-22T12:49:44Z</time></trkpt>
			<trkpt lat="54.831790" lon="21.421820"><ele>18.6</ele><time>2026-06-22T12:49:52Z</time></trkpt>
			<trkpt lat="54.831460" lon="21.423470"><ele>19.0</ele><time>2026-06-22T12:50:00Z</time></trkpt>
			<trkpt lat="54.831320" lon="21.424710"><ele>19.3</ele><time>2026-06-22T12:50:07Z</time></trkpt>
			<trkpt lat="54.831230" lon="21.425990"><ele>18.6</ele><time>2026-06-22T12:50:15Z</time></trkpt>
			<trkpt lat="54.831200" lon="21.426620"><ele>18.0</ele><time>2026-06-22T12:50:23Z</time></trkpt>
			<trkpt lat="54.831090" lon="21.427300"><ele>17.3</ele><time>2026-06-22T12:50:30Z</time></trkpt>
			<trkpt lat="54.830850" lon="21.428550"><ele>16.7</ele><time>2026-06-22T12:50:38Z</time></trkpt>
			<trkpt lat="54.830770" lon="21.428970"><ele>17.0</ele><time>2026-06-22T12:50:46Z</time></trkpt>
			<trkpt lat="54.830570" lon="21.429920"><ele>17.7</ele><time>2026-06-22T12:50:53Z</time></trkpt>
			<trkpt lat="54.830280" lon="21.431490"><ele>19.0</ele><time>2026-06-22T12:51:01Z</time></trkpt>
			<trkpt lat="54.830040" lon="21.432670"><ele>20.4</ele><time>2026-06-22T12:51:09Z</time></trkpt>
			<trkpt lat="54.829890" lon="21.433640"><ele>21.6</ele><time>2026-06-22T12:51:16Z</time></trkpt>
			<trkpt lat="54.829830" lon="21.434320"><ele>22.2</ele><time>2026-06-22T12:51:24Z</time></trkpt>
			<trkpt lat="54.829800" lon="21.435310"><ele>21.9</ele><time>2026-06-22T12:51:32Z</time></trkpt>
			<trkpt lat="54.829790" lon="21.436480"><ele>21.7</ele><time>2026-06-22T12:51:39Z</time></trkpt>
			<trkpt lat="54.829820" lon="21.438050"><ele>20.7</ele><time>2026-06-22T12:51:47Z</time></trkpt>
			<trkpt lat="54.829920" lon="21.439380"><ele>19.3</ele><time>2026-06-22T12:51:55Z</time></trkpt>
			<trkpt lat="54.830080" lon="21.440670"><ele>18.4</ele><time>2026-06-22T12:52:02Z</time></trkpt>
			<trkpt lat="54.831050" lon="21.447320"><ele>17.7</ele><time>2026-06-22T12:52:10Z</time></trkpt>
			<trkpt lat="54.831250" lon="21.448410"><ele>17.9</ele><time>2026-06-22T12:52:18Z</time></trkpt>
			<trkpt lat="54.831460" lon="21.449490"><ele>18.2</ele><time>2026-06-22T12:52:25Z</time></trkpt>
			<trkpt lat="54.831770" lon="21.450880"><ele>17.6</ele><time>2026-06-22T12:52:33Z</time></trkpt>
			<trkpt lat="54.831960" lon="21.451890"><ele>17.2</ele><time>2026-06-22T12:52:41Z</time></trkpt>
			<trkpt lat="54.832170" lon="21.453370"><ele>17.3</ele><time>2026-06-22T12:52:48Z</time></trkpt>
			<trkpt lat="54.833000" lon="21.459130"><ele>20.0</ele><time>2026-06-22T12:52:56Z</time></trkpt>
			<trkpt lat="54.833620" lon="21.463700"><ele>16.6</ele><time>2026-06-22T12:53:04Z</time></trkpt>
			<trkpt lat="54.834070" lon="21.467400"><ele>11.4</ele><time>2026-06-22T12:53:11Z</time></trkpt>
			<trkpt lat="54.834250" lon="21.469130"><ele>9.0</ele><time>2026-06-22T12:53:19Z</time></trkpt>
			<trkpt lat="54.834380" lon="21.470540"><ele>7.1</ele><time>2026-06-22T12:53:27Z</time></trkpt>
			<trkpt lat="54.834390" lon="21.471200"><ele>6.9</ele><time>2026-06-22T12:53:34Z</time></trkpt>
			<trkpt lat="54.834320" lon="21.472690"><ele>7.2</ele><time>2026-06-22T12:53:42Z</time></trkpt>
			<trkpt lat="54.834230" lon="21.473810"><ele>7.4</ele><time>2026-06-22T12:53:50Z</time></trkpt>
			<trkpt lat="54.834130" lon="21.474530"><ele>7.4</ele><time>2026-06-22T12:53:57Z</time></trkpt>
			<trkpt lat="54.833950" lon="21.475440"><ele>7.4</ele><time>2026-06-22T12:54:05Z</time></trkpt>
			<trkpt lat="54.833720" lon="21.476350"><ele>7.4</ele><time>2026-06-22T12:54:13Z</time></trkpt>
			<trkpt lat="54.833400" lon="21.477450"><ele>7.5</ele><time>2026-06-22T12:54:20Z</time></trkpt>
			<trkpt lat="54.833290" lon="21.477830"><ele>7.5</ele><time>2026-06-22T12:54:28Z</time></trkpt>
			<trkpt lat="54.833090" lon="21.478700"><ele>7.6</ele><time>2026-06-22T12:54:36Z</time></trkpt>
			<trkpt lat="54.832850" lon="21.479790"><ele>7.7</ele><time>2026-06-22T12:54:43Z</time></trkpt>
			<trkpt lat="54.832690" lon="21.480660"><ele>7.8</ele><time>2026-06-22T12:54:51Z</time></trkpt>
			<trkpt lat="54.832590" lon="21.481450"><ele>7.8</ele><time>2026-06-22T12:54:59Z</time></trkpt>
			<trkpt lat="54.832540" lon="21.482670"><ele>7.9</ele><time>2026-06-22T12:55:06Z</time></trkpt>
			<trkpt lat="54.832520" lon="21.483670"><ele>7.9</ele><time>2026-06-22T12:55:14Z</time></trkpt>
			<trkpt lat="54.832560" lon="21.484350"><ele>7.8</ele><time>2026-06-22T12:55:22Z</time></trkpt>
			<trkpt lat="54.832860" lon="21.487360"><ele>7.9</ele><time>2026-06-22T12:55:29Z</time></trkpt>
			<trkpt lat="54.832980" lon="21.488560"><ele>8.0</ele><time>2026-06-22T12:55:37Z</time></trkpt>
			<trkpt lat="54.833060" lon="21.489080"><ele>8.1</ele><time>2026-06-22T12:55:45Z</time></trkpt>
			<trkpt lat="54.833090" lon="21.489210"><ele>8.1</ele><time>2026-06-22T12:55:52Z</time></trkpt>
			<trkpt lat="54.833150" lon="21.489610"><ele>8.3</ele><time>2026-06-22T12:56:00Z</time></trkpt>
			<trkpt lat="54.833480" lon="21.491110"><ele>9.1</ele><time>2026-06-22T12:56:08Z</time></trkpt>
			<trkpt lat="54.834820" lon="21.497210"><ele>19.6</ele><time>2026-06-22T12:56:15Z</time></trkpt>
			<trkpt lat="54.835280" lon="21.499330"><ele>22.7</ele><time>2026-06-22T12:56:23Z</time></trkpt>
			<trkpt lat="54.835810" lon="21.501740"><ele>23.9</ele><time>2026-06-22T12:56:31Z</time></trkpt>
			<trkpt lat="54.837750" lon="21.510710"><ele>12.7</ele><time>2026-06-22T12:56:38Z</time></trkpt>
			<trkpt lat="54.837770" lon="21.510760"><ele>12.8</ele><time>2026-06-22T12:56:46Z</time></trkpt>
			<trkpt lat="54.837860" lon="21.511030"><ele>12.8</ele><time>2026-06-22T12:56:54Z</time></trkpt>
			<trkpt lat="54.838040" lon="21.511410"><ele>13.0</ele><time>2026-06-22T12:57:01Z</time></trkpt>
			<trkpt lat="54.839590" lon="21.514220"><ele>9.7</ele><time>2026-06-22T12:57:09Z</time></trkpt>
			<trkpt lat="54.840810" lon="21.516550"><ele>8.1</ele><time>2026-06-22T12:57:17Z</time></trkpt>
			<trkpt lat="54.840870" lon="21.516640"><ele>8.0</ele><time>2026-06-22T12:57:24Z</time></trkpt>
			<trkpt lat="54.841240" lon="21.517200"><ele>8.7</ele><time>2026-06-22T12:57:32Z</time></trkpt>
			<trkpt lat="54.842230" lon="21.518890"><ele>10.6</ele><time>2026-06-22T12:57:40Z</time></trkpt>
			<trkpt lat="54.842250" lon="21.518930"><ele>10.6</ele><time>2026-06-22T12:57:47Z</time></trkpt>
			<trkpt lat="54.842750" lon="21.519780"><ele>10.1</ele><time>2026-06-22T12:57:55Z</time></trkpt>
			<trkpt lat="54.843170" lon="21.520630"><ele>9.6</ele><time>2026-06-22T12:58:03Z</time></trkpt>
			<trkpt lat="54.843380" lon="21.521140"><ele>9.4</ele><time>2026-06-22T12:58:10Z</time></trkpt>
			<trkpt lat="54.844230" lon="21.520400"><ele>8.6</ele><time>2026-06-22T12:58:18Z</time></trkpt>
			<trkpt lat="54.844590" lon="21.519990"><ele>8.3</ele><time>2026-06-22T12:58:26Z</time></trkpt>
			<trkpt lat="54.844760" lon="21.519480"><ele>8.1</ele><time>2026-06-22T12:58:33Z</time></trkpt>
			<trkpt lat="54.844840" lon="21.519070"><ele>8.1</ele><time>2026-06-22T12:58:41Z</time></trkpt>
			<trkpt lat="54.844960" lon="21.518440"><ele>8.3</ele><time>2026-06-22T12:58:49Z</time></trkpt>
			<trkpt lat="54.845800" lon="21.518990"><ele>8.8</ele><time>2026-06-22T12:58:56Z</time></trkpt>
			<trkpt lat="54.845940" lon="21.519060"><ele>8.9</ele><time>2026-06-22T12:59:04Z</time></trkpt>
			<trkpt lat="54.846080" lon="21.519070"><ele>8.9</ele><time>2026-06-22T12:59:12Z</time></trkpt>
			<trkpt lat="54.846230" lon="21.519030"><ele>8.9</ele><time>2026-06-22T12:59:19Z</time></trkpt>
			<trkpt lat="54.847990" lon="21.517750"><ele>7.1</ele><time>2026-06-22T12:59:27Z</time></trkpt>
			<trkpt lat="54.851540" lon="21.515140"><ele>4.8</ele><time>2026-06-22T12:59:34Z</time></trkpt>
			<trkpt lat="54.853690" lon="21.513540"><ele>4.7</ele><time>2026-06-22T12:59:42Z</time></trkpt>
			<trkpt lat="54.854350" lon="21.513070"><ele>4.5</ele><time>2026-06-22T12:59:50Z</time></trkpt>
			<trkpt lat="54.854580" lon="21.512920"><ele>4.5</ele><time>2026-06-22T12:59:57Z</time></trkpt>
			<trkpt lat="54.854740" lon="21.512900"><ele>4.5</ele><time>2026-06-22T13:00:05Z</time></trkpt>
			<trkpt lat="54.855180" lon="21.512960"><ele>4.5</ele><time>2026-06-22T13:00:13Z</time></trkpt>
			<trkpt lat="54.855280" lon="21.512980"><ele>4.5</ele><time>2026-06-22T13:00:20Z</time></trkpt>
			<trkpt lat="54.859530" lon="21.513620"><ele>4.1</ele><time>2026-06-22T13:00:28Z</time></trkpt>
			<trkpt lat="54.859770" lon="21.513760"><ele>4.2</ele><time>2026-06-22T13:00:36Z</time></trkpt>
			<trkpt lat="54.860110" lon="21.514130"><ele>4.4</ele><time>2026-06-22T13:00:43Z</time></trkpt>
			<trkpt lat="54.860490" lon="21.514530"><ele>4.5</ele><time>2026-06-22T13:00:51Z</time></trkpt>
			<trkpt lat="54.860700" lon="21.514700"><ele>4.6</ele><time>2026-06-22T13:00:59Z</time></trkpt>
			<trkpt lat="54.860900" lon="21.514780"><ele>4.7</ele><time>2026-06-22T13:01:06Z</time></trkpt>
			<trkpt lat="54.861130" lon="21.514860"><ele>4.8</ele><time>2026-06-22T13:01:14Z</time></trkpt>
			<trkpt lat="54.861290" lon="21.514950"><ele>4.8</ele><time>2026-06-22T13:01:22Z</time></trkpt>
			<trkpt lat="54.867900" lon="21.522230"><ele>3.5</ele><time>2026-06-22T13:01:29Z</time></trkpt>
			<trkpt lat="54.870370" lon="21.525710"><ele>3.5</ele><time>2026-06-22T13:01:37Z</time></trkpt>
			<trkpt lat="54.871810" lon="21.527840"><ele>4.1</ele><time>2026-06-22T13:01:45Z</time></trkpt>
			<trkpt lat="54.874750" lon="21.532170"><ele>1.9</ele><time>2026-06-22T13:01:52Z</time></trkpt>
			<trkpt lat="54.875190" lon="21.532760"><ele>1.6</ele><time>2026-06-22T13:02:00Z</time></trkpt>
			<trkpt lat="54.875750" lon="21.533090"><ele>1.2</ele><time>2026-06-22T13:02:08Z</time></trkpt>
			<trkpt lat="54.876840" lon="21.533640"><ele>0.8</ele><time>2026-06-22T13:02:15Z</time></trkpt>
			<trkpt lat="54.877350" lon="21.533920"><ele>0.7</ele><time>2026-06-22T13:02:23Z</time></trkpt>
			<trkpt lat="54.877810" lon="21.534130"><ele>0.6</ele><time>2026-06-22T13:02:31Z</time></trkpt>
			<trkpt lat="54.877990" lon="21.534260"><ele>0.7</ele><time>2026-06-22T13:02:38Z</time></trkpt>
			<trkpt lat="54.880620" lon="21.531880"><ele>2.3</ele><time>2026-06-22T13:02:46Z</time></trkpt>
			<trkpt lat="54.885810" lon="21.527180"><ele>-0.4</ele><time>2026-06-22T13:02:54Z</time></trkpt>
			<trkpt lat="54.891390" lon="21.522080"><ele>0.9</ele><time>2026-06-22T13:03:01Z</time></trkpt>
			<trkpt lat="54.892140" lon="21.521390"><ele>0.3</ele><time>2026-06-22T13:03:09Z</time></trkpt>
			<trkpt lat="54.898470" lon="21.515530"><ele>8.1</ele><time>2026-06-22T13:03:17Z</time></trkpt>
			<trkpt lat="54.903160" lon="21.511270"><ele>7.7</ele><time>2026-06-22T13:03:24Z</time></trkpt>
			<trkpt lat="54.902970" lon="21.510690"><ele>7.6</ele><time>2026-06-22T13:03:32Z</time></trkpt>
			<trkpt lat="54.901800" lon="21.507020"><ele>6.8</ele><time>2026-06-22T13:03:40Z</time></trkpt>
			<trkpt lat="54.901760" lon="21.506740"><ele>6.1</ele><time>2026-06-22T13:03:47Z</time></trkpt>
			<trkpt lat="54.901770" lon="21.505920"><ele>4.0</ele><time>2026-06-22T13:03:55Z</time></trkpt>
			<trkpt lat="54.902060" lon="21.502460"><ele>1.6</ele><time>2026-06-22T13:04:03Z</time></trkpt>
			<trkpt lat="54.902160" lon="21.502070"><ele>1.7</ele><time>2026-06-22T13:04:10Z</time></trkpt>
			<trkpt lat="54.902510" lon="21.501280"><ele>4.6</ele><time>2026-06-22T13:04:18Z</time></trkpt>
			<trkpt lat="54.903000" lon="21.500540"><ele>8.0</ele><time>2026-06-22T13:04:26Z</time></trkpt>
			<trkpt lat="54.903710" lon="21.499120"><ele>10.8</ele><time>2026-06-22T13:04:33Z</time></trkpt>
			<trkpt lat="54.904450" lon="21.497280"><ele>10.6</ele><time>2026-06-22T13:04:41Z</time></trkpt>
			<trkpt lat="54.904510" lon="21.496710"><ele>10.6</ele><time>2026-06-22T13:04:49Z</time></trkpt>
			<trkpt lat="54.904590" lon="21.496430"><ele>10.5</ele><time>2026-06-22T13:04:56Z</time></trkpt>
			<trkpt lat="54.904850" lon="21.495910"><ele>10.5</ele><time>2026-06-22T13:05:04Z</time></trkpt>
			<trkpt lat="54.904900" lon="21.495670"><ele>10.5</ele><time>2026-06-22T13:05:12Z</time></trkpt>
			<trkpt lat="54.904880" lon="21.495270"><ele>10.5</ele><time>2026-06-22T13:05:19Z</time></trkpt>
			<trkpt lat="54.904640" lon="21.494620"><ele>10.5</ele><time>2026-06-22T13:05:27Z</time></trkpt>
			<trkpt lat="54.904600" lon="21.494190"><ele>10.6</ele><time>2026-06-22T13:05:35Z</time></trkpt>
			<trkpt lat="54.904720" lon="21.493930"><ele>10.7</ele><time>2026-06-22T13:05:42Z</time></trkpt>
			<trkpt lat="54.913810" lon="21.484910"><ele>8.8</ele><time>2026-06-22T13:05:50Z</time></trkpt>
			<trkpt lat="54.914200" lon="21.484560"><ele>9.0</ele><time>2026-06-22T13:05:58Z</time></trkpt>
			<trkpt lat="54.915640" lon="21.483170"><ele>8.9</ele><time>2026-06-22T13:06:05Z</time></trkpt>
			<trkpt lat="54.916670" lon="21.482150"><ele>6.8</ele><time>2026-06-22T13:06:13Z</time></trkpt>
			<trkpt lat="54.916960" lon="21.481910"><ele>6.2</ele><time>2026-06-22T13:06:21Z</time></trkpt>
			<trkpt lat="54.917080" lon="21.481890"><ele>6.4</ele><time>2026-06-22T13:06:28Z</time></trkpt>
			<trkpt lat="54.917220" lon="21.481980"><ele>6.6</ele><time>2026-06-22T13:06:36Z</time></trkpt>
			<trkpt lat="54.917480" lon="21.482210"><ele>6.9</ele><time>2026-06-22T13:06:44Z</time></trkpt>
			<trkpt lat="54.917710" lon="21.482330"><ele>7.3</ele><time>2026-06-22T13:06:51Z</time></trkpt>
			<trkpt lat="54.917950" lon="21.482300"><ele>7.6</ele><time>2026-06-22T13:06:59Z</time></trkpt>
			<trkpt lat="54.918190" lon="21.482180"><ele>7.9</ele><time>2026-06-22T13:07:07Z</time></trkpt>
			<trkpt lat="54.918720" lon="21.481750"><ele>8.5</ele><time>2026-06-22T13:07:14Z</time></trkpt>
			<trkpt lat="54.919320" lon="21.481320"><ele>7.7</ele><time>2026-06-22T13:07:22Z</time></trkpt>
			<trkpt lat="54.919630" lon="21.481160"><ele>7.3</ele><time>2026-06-22T13:07:30Z</time></trkpt>
			<trkpt lat="54.919750" lon="21.481170"><ele>7.2</ele><time>2026-06-22T13:07:37Z</time></trkpt>
			<trkpt lat="54.919860" lon="21.481240"><ele>7.1</ele><time>2026-06-22T13:07:45Z</time></trkpt>
			<trkpt lat="54.919970" lon="21.481410"><ele>6.9</ele><time>2026-06-22T13:07:53Z</time></trkpt>
			<trkpt lat="54.920050" lon="21.481660"><ele>6.7</ele><time>2026-06-22T13:08:00Z</time></trkpt>
			<trkpt lat="54.920630" lon="21.483630"><ele>3.1</ele><time>2026-06-22T13:08:08Z</time></trkpt>
			<trkpt lat="54.920830" lon="21.484290"><ele>1.7</ele><time>2026-06-22T13:08:16Z</time></trkpt>
			<trkpt lat="54.920970" lon="21.484480"><ele>1.2</ele><time>2026-06-22T13:08:23Z</time></trkpt>
			<trkpt lat="54.921190" lon="21.484770"><ele>1.0</ele><time>2026-06-22T13:08:31Z</time></trkpt>
			<trkpt lat="54.921560" lon="21.485140"><ele>1.7</ele><time>2026-06-22T13:08:39Z</time></trkpt>
			<trkpt lat="54.922400" lon="21.485880"><ele>3.4</ele><time>2026-06-22T13:08:46Z</time></trkpt>
			<trkpt lat="54.922770" lon="21.486240"><ele>3.8</ele><time>2026-06-22T13:08:54Z</time></trkpt>
			<trkpt lat="54.923060" lon="21.486660"><ele>3.6</ele><time>2026-06-22T13:09:02Z</time></trkpt>
			<trkpt lat="54.924070" lon="21.488380"><ele>2.6</ele><time>2026-06-22T13:09:09Z</time></trkpt>
			<trkpt lat="54.924400" lon="21.489170"><ele>2.3</ele><time>2026-06-22T13:09:17Z</time></trkpt>
			<trkpt lat="54.925290" lon="21.491250"><ele>1.5</ele><time>2026-06-22T13:09:25Z</time></trkpt>
			<trkpt lat="54.925450" lon="21.491530"><ele>1.5</ele><time>2026-06-22T13:09:32Z</time></trkpt>
			<trkpt lat="54.925580" lon="21.491730"><ele>1.5</ele><time>2026-06-22T13:09:40Z</time></trkpt>
			<trkpt lat="54.925740" lon="21.491900"><ele>1.5</ele><time>2026-06-22T13:09:48Z</time></trkpt>
			<trkpt lat="54.926880" lon="21.493230"><ele>1.2</ele><time>2026-06-22T13:09:55Z</time></trkpt>
			<trkpt lat="54.927130" lon="21.493490"><ele>1.0</ele><time>2026-06-22T13:10:03Z</time></trkpt>
			<trkpt lat="54.927280" lon="21.493590"><ele>0.9</ele><time>2026-06-22T13:10:11Z</time></trkpt>
			<trkpt lat="54.927460" lon="21.493680"><ele>0.8</ele><time>2026-06-22T13:10:18Z</time></trkpt>
			<trkpt lat="54.928420" lon="21.493930"><ele>0.2</ele><time>2026-06-22T13:10:26Z</time></trkpt>
			<trkpt lat="54.930290" lon="21.494280"><ele>-1.0</ele><time>2026-06-22T13:10:34Z</time></trkpt>
			<trkpt lat="54.930580" lon="21.494300"><ele>-1.2</ele><time>2026-06-22T13:10:41Z</time></trkpt>
			<trkpt lat="54.931280" lon="21.494270"><ele>-1.7</ele><time>2026-06-22T13:10:49Z</time></trkpt>
			<trkpt lat="54.931520" lon="21.494240"><ele>-1.8</ele><time>2026-06-22T13:10:57Z</time></trkpt>
			<trkpt lat="54.931850" lon="21.494170"><ele>-1.8</ele><time>2026-06-22T13:11:04Z</time></trkpt>
			<trkpt lat="54.932070" lon="21.494140"><ele>-1.6</ele><time>2026-06-22T13:11:12Z</time></trkpt>
			<trkpt lat="54.932430" lon="21.494130"><ele>-1.2</ele><time>2026-06-22T13:11:20Z</time></trkpt>
			<trkpt lat="54.932840" lon="21.494150"><ele>-0.7</ele><time>2026-06-22T13:11:27Z</time></trkpt>
			<trkpt lat="54.934190" lon="21.494250"><ele>-0.1</ele><time>2026-06-22T13:11:35Z</time></trkpt>
			<trkpt lat="54.935620" lon="21.494350"><ele>-0.1</ele><time>2026-06-22T13:11:43Z</time></trkpt>
			<trkpt lat="54.935950" lon="21.494260"><ele>-0.0</ele><time>2026-06-22T13:11:50Z</time></trkpt>
			<trkpt lat="54.937630" lon="21.493510"><ele>0.1</ele><time>2026-06-22T13:11:58Z</time></trkpt>
			<trkpt lat="54.938300" lon="21.493170"><ele>0.0</ele><time>2026-06-22T13:12:06Z</time></trkpt>
			<trkpt lat="54.939160" lon="21.492720"><ele>0.5</ele><time>2026-06-22T13:12:13Z</time></trkpt>
			<trkpt lat="54.940560" lon="21.491940"><ele>2.5</ele><time>2026-06-22T13:12:21Z</time></trkpt>
			<trkpt lat="54.940650" lon="21.491900"><ele>2.5</ele><time>2026-06-22T13:12:29Z</time></trkpt>
			<trkpt lat="54.940940" lon="21.494010"><ele>2.1</ele><time>2026-06-22T13:12:36Z</time></trkpt>
			<trkpt lat="54.941310" lon="21.496250"><ele>1.5</ele><time>2026-06-22T13:12:44Z</time></trkpt>
			<trkpt lat="54.941510" lon="21.497490"><ele>1.1</ele><time>2026-06-22T13:12:52Z</time></trkpt>
			<trkpt lat="54.941500" lon="21.497480"><ele>1.1</ele><time>2026-06-22T13:13:01Z</time></trkpt>
			<trkpt lat="54.941570" lon="21.497890"><ele>0.9</ele><time>2026-06-22T13:13:11Z</time></trkpt>
			<trkpt lat="54.941680" lon="21.498890"><ele>0.5</ele><time>2026-06-22T13:13:20Z</time></trkpt>
			<trkpt lat="54.941790" lon="21.500280"><ele>0.0</ele><time>2026-06-22T13:13:30Z</time></trkpt>
			<trkpt lat="54.941840" lon="21.501280"><ele>-0.5</ele><time>2026-06-22T13:13:39Z</time></trkpt>
			<trkpt lat="54.941820" lon="21.501920"><ele>-1.0</ele><time>2026-06-22T13:13:49Z</time></trkpt>
			<trkpt lat="54.941680" lon="21.502620"><ele>-1.4</ele><time>2026-06-22T13:13:58Z</time></trkpt>
			<trkpt lat="54.941510" lon="21.502960"><ele>-1.8</ele><time>2026-06-22T13:14:08Z</time></trkpt>
			<trkpt lat="54.941320" lon="21.503450"><ele>-2.1</ele><time>2026-06-22T13:14:17Z</time></trkpt>
			<trkpt lat="54.941160" lon="21.503890"><ele>-2.3</ele><time>2026-06-22T13:14:27Z</time></trkpt>
			<trkpt lat="54.940500" lon="21.506230"><ele>-2.0</ele><time>2026-06-22T13:14:36Z</time></trkpt>
			<trkpt lat="54.940450" lon="21.506620"><ele>-1.8</ele><time>2026-06-22T13:14:46Z</time></trkpt>
			<trkpt lat="54.940360" lon="21.507330"><ele>-0.7</ele><time>2026-06-22T13:14:55Z</time></trkpt>
			<trkpt lat="54.940310" lon="21.507730"><ele>-0.0</ele><time>2026-06-22T13:15:05Z</time></trkpt>
			<trkpt lat="54.940180" lon="21.508760"><ele>1.6</ele><time>2026-06-22T13:15:14Z</time></trkpt>
			<trkpt lat="54.940110" lon="21.509720"><ele>2.9</ele><time>2026-06-22T13:15:24Z</time></trkpt>
			<trkpt lat="54.940190" lon="21.511580"><ele>4.4</ele><time>2026-06-22T13:15:34Z</time></trkpt>
			<trkpt lat="54.940400" lon="21.515680"><ele>1.3</ele><time>2026-06-22T13:15:43Z</time></trkpt>
			<trkpt lat="54.940410" lon="21.516040"><ele>1.1</ele><time>2026-06-22T13:15:53Z</time></trkpt>
			<trkpt lat="54.940450" lon="21.516490"><ele>1.1</ele><time>2026-06-22T13:16:02Z</time></trkpt>
			<trkpt lat="54.940630" lon="21.517180"><ele>1.0</ele><time>2026-06-22T13:16:12Z</time></trkpt>
			<trkpt lat="54.941280" lon="21.518880"><ele>1.3</ele><time>2026-06-22T13:16:21Z</time></trkpt>
			<trkpt lat="54.941400" lon="21.519260"><ele>1.7</ele><time>2026-06-22T13:16:31Z</time></trkpt>
			<trkpt lat="54.941440" lon="21.519470"><ele>1.9</ele><time>2026-06-22T13:16:40Z</time></trkpt>
			<trkpt lat="54.941450" lon="21.519600"><ele>2.0</ele><time>2026-06-22T13:16:50Z</time></trkpt>
			<trkpt lat="54.941440" lon="21.519760"><ele>2.1</ele><time>2026-06-22T13:16:59Z</time></trkpt>
			<trkpt lat="54.941310" lon="21.520770"><ele>3.1</ele><time>2026-06-22T13:17:09Z</time></trkpt>
			<trkpt lat="54.941180" lon="21.521380"><ele>3.7</ele><time>2026-06-22T13:17:18Z</time></trkpt>
			<trkpt lat="54.941130" lon="21.521540"><ele>3.8</ele><time>2026-06-22T13:17:28Z</time></trkpt>
			<trkpt lat="54.941040" lon="21.521700"><ele>3.9</ele><time>2026-06-22T13:17:37Z</time></trkpt>
			<trkpt lat="54.940950" lon="21.521790"><ele>3.9</ele><time>2026-06-22T13:17:47Z</time></trkpt>
			<trkpt lat="54.940570" lon="21.522040"><ele>3.9</ele><time>2026-06-22T13:17:56Z</time></trkpt>
			<trkpt lat="54.940270" lon="21.522350"><ele>4.0</ele><time>2026-06-22T13:18:06Z</time></trkpt>
			<trkpt lat="54.939990" lon="21.522730"><ele>4.0</ele><time>2026-06-22T13:18:16Z</time></trkpt>
			<trkpt lat="54.939380" lon="21.523790"><ele>4.0</ele><time>2026-06-22T13:18:25Z</time></trkpt>
			<trkpt lat="54.938920" lon="21.524880"><ele>3.8</ele><time>2026-06-22T13:18:35Z</time></trkpt>
			<trkpt lat="54.938090" lon="21.526640"><ele>4.4</ele><time>2026-06-22T13:18:44Z</time></trkpt>
			<trkpt lat="54.937730" lon="21.528060"><ele>5.3</ele><time>2026-06-22T13:18:54Z</time></trkpt>
			<trkpt lat="54.937490" lon="21.528780"><ele>5.9</ele><time>2026-06-22T13:19:03Z</time></trkpt>
			<trkpt lat="54.937170" lon="21.529500"><ele>6.6</ele><time>2026-06-22T13:19:13Z</time></trkpt>
			<trkpt lat="54.936880" lon="21.530410"><ele>7.4</ele><time>2026-06-22T13:19:22Z</time></trkpt>
			<trkpt lat="54.936700" lon="21.531130"><ele>8.0</ele><time>2026-06-22T13:19:32Z</time></trkpt>
			<trkpt lat="54.936110" lon="21.533360"><ele>9.5</ele><time>2026-06-22T13:19:41Z</time></trkpt>
			<trkpt lat="54.935970" lon="21.533750"><ele>9.8</ele><time>2026-06-22T13:19:51Z</time></trkpt>
			<trkpt lat="54.933490" lon="21.538360"><ele>9.8</ele><time>2026-06-22T13:20:00Z</time></trkpt>
			<trkpt lat="54.932550" lon="21.540170"><ele>8.1</ele><time>2026-06-22T13:20:10Z</time></trkpt>
			<trkpt lat="54.932210" lon="21.540650"><ele>7.5</ele><time>2026-06-22T13:20:19Z</time></trkpt>
			<trkpt lat="54.931570" lon="21.541280"><ele>7.7</ele><time>2026-06-22T13:20:29Z</time></trkpt>
			<trkpt lat="54.931450" lon="21.541450"><ele>7.8</ele><time>2026-06-22T13:20:38Z</time></trkpt>
			<trkpt lat="54.931410" lon="21.541550"><ele>7.8</ele><time>2026-06-22T13:20:48Z</time></trkpt>
			<trkpt lat="54.931230" lon="21.543510"><ele>7.7</ele><time>2026-06-22T13:20:58Z</time></trkpt>
			<trkpt lat="54.931100" lon="21.544030"><ele>7.0</ele><time>2026-06-22T13:21:07Z</time></trkpt>
			<trkpt lat="54.931010" lon="21.544520"><ele>6.4</ele><time>2026-06-22T13:21:17Z</time></trkpt>
			<trkpt lat="54.930820" lon="21.545260"><ele>5.4</ele><time>2026-06-22T13:21:26Z</time></trkpt>
			<trkpt lat="54.930790" lon="21.545510"><ele>5.1</ele><time>2026-06-22T13:21:36Z</time></trkpt>
			<trkpt lat="54.930780" lon="21.545750"><ele>4.8</ele><time>2026-06-22T13:21:45Z</time></trkpt>
			<trkpt lat="54.930800" lon="21.546110"><ele>4.3</ele><time>2026-06-22T13:21:55Z</time></trkpt>
			<trkpt lat="54.931000" lon="21.546910"><ele>4.3</ele><time>2026-06-22T13:22:04Z</time></trkpt>
			<trkpt lat="54.931010" lon="21.547080"><ele>4.3</ele><time>2026-06-22T13:22:14Z</time></trkpt>
			<trkpt lat="54.931010" lon="21.547350"><ele>4.3</ele><time>2026-06-22T13:22:23Z</time></trkpt>
			<trkpt lat="54.931000" lon="21.547480"><ele>4.3</ele><time>2026-06-22T13:22:33Z</time></trkpt>
			<trkpt lat="54.930960" lon="21.547630"><ele>4.3</ele><time>2026-06-22T13:22:42Z</time></trkpt>
			<trkpt lat="54.930860" lon="21.547870"><ele>4.3</ele><time>2026-06-22T13:22:52Z</time></trkpt>
			<trkpt lat="54.930720" lon="21.548100"><ele>4.3</ele><time>2026-06-22T13:23:01Z</time></trkpt>
			<trkpt lat="54.930510" lon="21.548250"><ele>4.3</ele><time>2026-06-22T13:23:11Z</time></trkpt>
			<trkpt lat="54.927640" lon="21.550010"><ele>3.1</ele><time>2026-06-22T13:23:20Z</time></trkpt>
			<trkpt lat="54.927500" lon="21.550200"><ele>3.4</ele><time>2026-06-22T13:23:30Z</time></trkpt>
			<trkpt lat="54.927390" lon="21.550410"><ele>3.6</ele><time>2026-06-22T13:23:40Z</time></trkpt>
			<trkpt lat="54.926820" lon="21.552900"><ele>7.1</ele><time>2026-06-22T13:23:49Z</time></trkpt>
			<trkpt lat="54.925410" lon="21.559030"><ele>11.4</ele><time>2026-06-22T13:23:59Z</time></trkpt>
			<trkpt lat="54.923160" lon="21.569030"><ele>2.9</ele><time>2026-06-22T13:24:08Z</time></trkpt>
			<trkpt lat="54.923020" lon="21.570090"><ele>1.0</ele><time>2026-06-22T13:24:18Z</time></trkpt>
			<trkpt lat="54.922940" lon="21.570460"><ele>0.3</ele><time>2026-06-22T13:24:27Z</time></trkpt>
			<trkpt lat="54.922860" lon="21.570790"><ele>-0.3</ele><time>2026-06-22T13:24:37Z</time></trkpt>
			<trkpt lat="54.921700" lon="21.574210"><ele>0.1</ele><time>2026-06-22T13:24:46Z</time></trkpt>
			<trkpt lat="54.921640" lon="21.574430"><ele>0.2</ele><time>2026-06-22T13:24:56Z</time></trkpt>
			<trkpt lat="54.921610" lon="21.574650"><ele>0.2</ele><time>2026-06-22T13:25:05Z</time></trkpt>
			<trkpt lat="54.921600" lon="21.574850"><ele>0.2</ele><time>2026-06-22T13:25:15Z</time></trkpt>
			<trkpt lat="54.921620" lon="21.575060"><ele>0.3</ele><time>2026-06-22T13:25:24Z</time></trkpt>
			<trkpt lat="54.921660" lon="21.575290"><ele>0.3</ele><time>2026-06-22T13:25:34Z</time></trkpt>
			<trkpt lat="54.922440" lon="21.578430"><ele>0.6</ele><time>2026-06-22T13:25:43Z</time></trkpt>
			<trkpt lat="54.922660" lon="21.579240"><ele>0.7</ele><time>2026-06-22T13:25:53Z</time></trkpt>
			<trkpt lat="54.923140" lon="21.580550"><ele>1.1</ele><time>2026-06-22T13:26:02Z</time></trkpt>
			<trkpt lat="54.923240" lon="21.580760"><ele>1.2</ele><time>2026-06-22T13:26:12Z</time></trkpt>
			<trkpt lat="54.923740" lon="21.581640"><ele>1.6</ele><time>2026-06-22T13:26:22Z</time></trkpt>
			<trkpt lat="54.923790" lon="21.581780"><ele>1.6</ele><time>2026-06-22T13:26:31Z</time></trkpt>
			<trkpt lat="54.923820" lon="21.581920"><ele>1.7</ele><time>2026-06-22T13:26:41Z</time></trkpt>
			<trkpt lat="54.923840" lon="21.582090"><ele>1.7</ele><time>2026-06-22T13:26:50Z</time></trkpt>
			<trkpt lat="54.923820" lon="21.582280"><ele>1.8</ele><time>2026-06-22T13:27:00Z</time></trkpt>
			<trkpt lat="54.923700" lon="21.582890"><ele>1.8</ele><time>2026-06-22T13:27:09Z</time></trkpt>
			<trkpt lat="54.923000" lon="21.585360"><ele>1.2</ele><time>2026-06-22T13:27:19Z</time></trkpt>
			<trkpt lat="54.922830" lon="21.585780"><ele>1.1</ele><time>2026-06-22T13:27:28Z</time></trkpt>
			<trkpt lat="54.922130" lon="21.586870"><ele>1.0</ele><time>2026-06-22T13:27:38Z</time></trkpt>
			<trkpt lat="54.921740" lon="21.587420"><ele>1.0</ele><time>2026-06-22T13:27:47Z</time></trkpt>
			<trkpt lat="54.921260" lon="21.588000"><ele>0.9</ele><time>2026-06-22T13:27:57Z</time></trkpt>
			<trkpt lat="54.920900" lon="21.588390"><ele>0.8</ele><time>2026-06-22T13:28:06Z</time></trkpt>
			<trkpt lat="54.920840" lon="21.588480"><ele>0.8</ele><time>2026-06-22T13:28:16Z</time></trkpt>
			<trkpt lat="54.920760" lon="21.588650"><ele>0.8</ele><time>2026-06-22T13:28:25Z</time></trkpt>
			<trkpt lat="54.920650" lon="21.588950"><ele>0.8</ele><time>2026-06-22T13:28:35Z</time></trkpt>
			<trkpt lat="54.919280" lon="21.593000"><ele>0.2</ele><time>2026-06-22T13:28:45Z</time></trkpt>
			<trkpt lat="54.919060" lon="21.593660"><ele>0.5</ele><time>2026-06-22T13:28:54Z</time></trkpt>
			<trkpt lat="54.918910" lon="21.594000"><ele>0.6</ele><time>2026-06-22T13:29:04Z</time></trkpt>
			<trkpt lat="54.918670" lon="21.594440"><ele>0.8</ele><time>2026-06-22T13:29:13Z</time></trkpt>
			<trkpt lat="54.918310" lon="21.594970"><ele>1.0</ele><time>2026-06-22T13:29:23Z</time></trkpt>
			<trkpt lat="54.918230" lon="21.595130"><ele>0.9</ele><time>2026-06-22T13:29:32Z</time></trkpt>
			<trkpt lat="54.918120" lon="21.595470"><ele>0.8</ele><time>2026-06-22T13:29:42Z</time></trkpt>
			<trkpt lat="54.917670" lon="21.597630"><ele>0.0</ele><time>2026-06-22T13:29:51Z</time></trkpt>
			<trkpt lat="54.917570" lon="21.598310"><ele>-0.0</ele><time>2026-06-22T13:30:01Z</time></trkpt>
			<trkpt lat="54.917380" lon="21.600960"><ele>-0.1</ele><time>2026-06-22T13:30:10Z</time></trkpt>
			<trkpt lat="54.917300" lon="21.602380"><ele>-0.6</ele><time>2026-06-22T13:30:20Z</time></trkpt>
			<trkpt lat="54.917280" lon="21.602730"><ele>-0.7</ele><time>2026-06-22T13:30:29Z</time></trkpt>
			<trkpt lat="54.917300" lon="21.603000"><ele>-0.8</ele><time>2026-06-22T13:30:39Z</time></trkpt>
			<trkpt lat="54.917400" lon="21.603370"><ele>-1.0</ele><time>2026-06-22T13:30:48Z</time></trkpt>
			<trkpt lat="54.917780" lon="21.604230"><ele>-0.9</ele><time>2026-06-22T13:30:58Z</time></trkpt>
			<trkpt lat="54.918960" lon="21.607080"><ele>1.0</ele><time>2026-06-22T13:31:07Z</time></trkpt>
			<trkpt lat="54.920600" lon="21.610950"><ele>3.6</ele><time>2026-06-22T13:31:17Z</time></trkpt>
			<trkpt lat="54.920720" lon="21.611140"><ele>3.7</ele><time>2026-06-22T13:31:27Z</time></trkpt>
			<trkpt lat="54.919960" lon="21.611860"><ele>3.6</ele><time>2026-06-22T13:31:36Z</time></trkpt>
			<trkpt lat="54.919960" lon="21.611860"><ele>3.6</ele><time>2026-06-22T13:31:45Z</time></trkpt>
			<trkpt lat="54.919810" lon="21.612000"><ele>3.6</ele><time>2026-06-22T13:31:55Z</time></trkpt>
			<trkpt lat="54.919360" lon="21.612550"><ele>3.4</ele><time>2026-06-22T13:32:04Z</time></trkpt>
			<trkpt lat="54.918210" lon="21.614220"><ele>2.0</ele><time>2026-06-22T13:32:14Z</time></trkpt>
			<trkpt lat="54.917650" lon="21.615090"><ele>1.3</ele><time>2026-06-22T13:32:23Z</time></trkpt>
			<trkpt lat="54.917260" lon="21.615580"><ele>1.5</ele><time>2026-06-22T13:32:32Z</time></trkpt>
			<trkpt lat="54.916940" lon="21.615920"><ele>1.6</ele><time>2026-06-22T13:32:42Z</time></trkpt>
			<trkpt lat="54.915970" lon="21.616840"><ele>1.9</ele><time>2026-06-22T13:32:51Z</time></trkpt>
			<trkpt lat="54.915200" lon="21.617670"><ele>1.4</ele><time>2026-06-22T13:33:01Z</time></trkpt>
			<trkpt lat="54.914170" lon="21.618850"><ele>1.0</ele><time>2026-06-22T13:33:10Z</time></trkpt>
			<trkpt lat="54.908390" lon="21.625740"><ele>0.7</ele><time>2026-06-22T13:33:19Z</time></trkpt>
			<trkpt lat="54.905830" lon="21.628970"><ele>2.5</ele><time>2026-06-22T13:33:29Z</time></trkpt>
			<trkpt lat="54.904620" lon="21.630490"><ele>2.1</ele><time>2026-06-22T13:33:38Z</time></trkpt>
			<trkpt lat="54.901690" lon="21.633740"><ele>4.3</ele><time>2026-06-22T13:33:47Z</time></trkpt>
			<trkpt lat="54.897300" lon="21.640080"><ele>5.7</ele><time>2026-06-22T13:33:57Z</time></trkpt>
			<trkpt lat="54.896250" lon="21.641520"><ele>5.9</ele><time>2026-06-22T13:34:06Z</time></trkpt>
			<trkpt lat="54.893540" lon="21.644440"><ele>5.4</ele><time>2026-06-22T13:34:16Z</time></trkpt>
			<trkpt lat="54.891040" lon="21.647160"><ele>7.5</ele><time>2026-06-22T13:34:25Z</time></trkpt>
			<trkpt lat="54.889760" lon="21.648470"><ele>8.5</ele><time>2026-06-22T13:34:34Z</time></trkpt>
			<trkpt lat="54.889370" lon="21.648730"><ele>8.6</ele><time>2026-06-22T13:34:44Z</time></trkpt>
			<trkpt lat="54.889250" lon="21.648780"><ele>8.5</ele><time>2026-06-22T13:34:53Z</time></trkpt>
			<trkpt lat="54.888870" lon="21.648780"><ele>8.2</ele><time>2026-06-22T13:35:03Z</time></trkpt>
			<trkpt lat="54.888780" lon="21.648780"><ele>8.1</ele><time>2026-06-22T13:35:12Z</time></trkpt>
			<trkpt lat="54.888200" lon="21.648670"><ele>7.6</ele><time>2026-06-22T13:35:21Z</time></trkpt>
			<trkpt lat="54.887430" lon="21.648640"><ele>6.9</ele><time>2026-06-22T13:35:31Z</time></trkpt>
			<trkpt lat="54.884470" lon="21.648930"><ele>4.0</ele><time>2026-06-22T13:35:40Z</time></trkpt>
			<trkpt lat="54.883700" lon="21.649030"><ele>3.9</ele><time>2026-06-22T13:35:49Z</time></trkpt>
			<trkpt lat="54.882730" lon="21.649140"><ele>5.3</ele><time>2026-06-22T13:35:59Z</time></trkpt>
			<trkpt lat="54.881810" lon="21.649260"><ele>6.0</ele><time>2026-06-22T13:36:08Z</time></trkpt>
			<trkpt lat="54.879670" lon="21.649700"><ele>7.7</ele><time>2026-06-22T13:36:18Z</time></trkpt>
			<trkpt lat="54.878180" lon="21.650030"><ele>11.3</ele><time>2026-06-22T13:36:27Z</time></trkpt>
			<trkpt lat="54.877380" lon="21.650210"><ele>13.7</ele><time>2026-06-22T13:36:36Z</time></trkpt>
			<trkpt lat="54.876290" lon="21.650180"><ele>13.9</ele><time>2026-06-22T13:36:46Z</time></trkpt>
			<trkpt lat="54.876370" lon="21.649580"><ele>13.1</ele><time>2026-06-22T13:36:55Z</time></trkpt>
			<trkpt lat="54.876340" lon="21.649300"><ele>12.8</ele><time>2026-06-22T13:37:05Z</time></trkpt>
			<trkpt lat="54.876290" lon="21.649060"><ele>12.5</ele><time>2026-06-22T13:37:14Z</time></trkpt>
			<trkpt lat="54.875900" lon="21.647840"><ele>10.3</ele><time>2026-06-22T13:37:23Z</time></trkpt>
			<trkpt lat="54.875810" lon="21.647630"><ele>9.7</ele><time>2026-06-22T13:37:33Z</time></trkpt>
			<trkpt lat="54.875700" lon="21.647410"><ele>9.0</ele><time>2026-06-22T13:37:42Z</time></trkpt>
			<trkpt lat="54.875370" lon="21.646960"><ele>7.4</ele><time>2026-06-22T13:37:51Z</time></trkpt>
			<trkpt lat="54.875370" lon="21.646950"><ele>7.4</ele><time>2026-06-22T13:37:57Z</time></trkpt>
			<trkpt lat="54.874830" lon="21.646210"><ele>4.8</ele><time>2026-06-22T13:38:03Z</time></trkpt>
			<trkpt lat="54.873680" lon="21.644610"><ele>4.1</ele><time>2026-06-22T13:38:09Z</time></trkpt>
			<trkpt lat="54.872970" lon="21.643620"><ele>3.6</ele><time>2026-06-22T13:38:14Z</time></trkpt>
			<trkpt lat="54.867430" lon="21.635910"><ele>5.4</ele><time>2026-06-22T13:38:20Z</time></trkpt>
			<trkpt lat="54.865420" lon="21.633110"><ele>5.2</ele><time>2026-06-22T13:38:26Z</time></trkpt>
			<trkpt lat="54.860920" lon="21.626840"><ele>1.4</ele><time>2026-06-22T13:38:31Z</time></trkpt>
			<trkpt lat="54.860730" lon="21.626570"><ele>1.3</ele><time>2026-06-22T13:38:37Z</time></trkpt>
			<trkpt lat="54.856710" lon="21.620960"><ele>2.7</ele><time>2026-06-22T13:38:43Z</time></trkpt>
			<trkpt lat="54.856450" lon="21.620600"><ele>2.7</ele><time>2026-06-22T13:38:49Z</time></trkpt>
			<trkpt lat="54.854070" lon="21.617300"><ele>4.5</ele><time>2026-06-22T13:38:54Z</time></trkpt>
			<trkpt lat="54.852530" lon="21.615160"><ele>4.4</ele><time>2026-06-22T13:39:00Z</time></trkpt>
			<trkpt lat="54.853280" lon="21.613200"><ele>5.1</ele><time>2026-06-22T13:39:06Z</time></trkpt>
			<trkpt lat="54.853820" lon="21.612020"><ele>5.8</ele><time>2026-06-22T13:39:12Z</time></trkpt>
			<trkpt lat="54.853980" lon="21.611600"><ele>5.8</ele><time>2026-06-22T13:39:17Z</time></trkpt>
			<trkpt lat="54.854340" lon="21.610180"><ele>5.9</ele><time>2026-06-22T13:39:23Z</time></trkpt>
			<trkpt lat="54.855410" lon="21.605420"><ele>5.0</ele><time>2026-06-22T13:39:29Z</time></trkpt>
			<trkpt lat="54.855470" lon="21.605230"><ele>5.1</ele><time>2026-06-22T13:39:34Z</time></trkpt>
			<trkpt lat="54.855550" lon="21.605070"><ele>5.3</ele><time>2026-06-22T13:39:40Z</time></trkpt>
			<trkpt lat="54.855680" lon="21.604900"><ele>5.4</ele><time>2026-06-22T13:39:46Z</time></trkpt>
			<trkpt lat="54.855810" lon="21.604780"><ele>5.5</ele><time>2026-06-22T13:39:52Z</time></trkpt>
			<trkpt lat="54.856010" lon="21.604620"><ele>5.8</ele><time>2026-06-22T13:39:57Z</time></trkpt>
			<trkpt lat="54.856220" lon="21.604500"><ele>6.0</ele><time>2026-06-22T13:40:03Z</time></trkpt>
			<trkpt lat="54.856520" lon="21.604430"><ele>6.3</ele><time>2026-06-22T13:40:09Z</time></trkpt>
			<trkpt lat="54.857170" lon="21.604370"><ele>6.5</ele><time>2026-06-22T13:40:15Z</time></trkpt>
			<trkpt lat="54.857340" lon="21.604270"><ele>6.6</ele><time>2026-06-22T13:40:20Z</time></trkpt>
			<trkpt lat="54.857400" lon="21.604180"><ele>6.6</ele><time>2026-06-22T13:40:26Z</time></trkpt>
			<trkpt lat="54.857500" lon="21.603970"><ele>6.7</ele><time>2026-06-22T13:40:32Z</time></trkpt>
			<trkpt lat="54.857530" lon="21.603710"><ele>6.7</ele><time>2026-06-22T13:40:37Z</time></trkpt>
			<trkpt lat="54.857220" lon="21.597880"><ele>5.9</ele><time>2026-06-22T13:40:43Z</time></trkpt>
			<trkpt lat="54.857130" lon="21.597250"><ele>5.7</ele><time>2026-06-22T13:40:49Z</time></trkpt>
			<trkpt lat="54.857040" lon="21.596820"><ele>5.5</ele><time>2026-06-22T13:40:55Z</time></trkpt>
			<trkpt lat="54.856900" lon="21.596370"><ele>5.7</ele><time>2026-06-22T13:41:00Z</time></trkpt>
			<trkpt lat="54.856670" lon="21.595760"><ele>6.6</ele><time>2026-06-22T13:41:06Z</time></trkpt>
			<trkpt lat="54.856070" lon="21.594390"><ele>8.8</ele><time>2026-06-22T13:41:12Z</time></trkpt>
			<trkpt lat="54.853390" lon="21.587890"><ele>8.0</ele><time>2026-06-22T13:41:17Z</time></trkpt>
			<trkpt lat="54.851280" lon="21.582810"><ele>8.6</ele><time>2026-06-22T13:41:23Z</time></trkpt>
			<trkpt lat="54.850290" lon="21.580480"><ele>10.1</ele><time>2026-06-22T13:41:29Z</time></trkpt>
			<trkpt lat="54.850100" lon="21.580090"><ele>10.4</ele><time>2026-06-22T13:41:35Z</time></trkpt>
			<trkpt lat="54.849830" lon="21.579620"><ele>10.9</ele><time>2026-06-22T13:41:40Z</time></trkpt>
			<trkpt lat="54.849230" lon="21.578700"><ele>11.8</ele><time>2026-06-22T13:41:46Z</time></trkpt>
			<trkpt lat="54.849030" lon="21.578360"><ele>12.1</ele><time>2026-06-22T13:41:52Z</time></trkpt>
			<trkpt lat="54.849000" lon="21.578300"><ele>12.2</ele><time>2026-06-22T13:41:58Z</time></trkpt>
			<trkpt lat="54.848900" lon="21.578000"><ele>12.4</ele><time>2026-06-22T13:42:03Z</time></trkpt>
			<trkpt lat="54.848800" lon="21.577560"><ele>12.7</ele><time>2026-06-22T13:42:09Z</time></trkpt>
			<trkpt lat="54.848390" lon="21.575600"><ele>13.0</ele><time>2026-06-22T13:42:15Z</time></trkpt>
			<trkpt lat="54.848190" lon="21.574790"><ele>12.5</ele><time>2026-06-22T13:42:20Z</time></trkpt>
			<trkpt lat="54.848020" lon="21.574300"><ele>12.1</ele><time>2026-06-22T13:42:26Z</time></trkpt>
			<trkpt lat="54.844820" lon="21.568100"><ele>10.6</ele><time>2026-06-22T13:42:32Z</time></trkpt>
			<trkpt lat="54.844650" lon="21.567770"><ele>10.6</ele><time>2026-06-22T13:42:38Z</time></trkpt>
			<trkpt lat="54.844440" lon="21.567320"><ele>10.7</ele><time>2026-06-22T13:42:43Z</time></trkpt>
			<trkpt lat="54.844260" lon="21.566770"><ele>10.7</ele><time>2026-06-22T13:42:49Z</time></trkpt>
			<trkpt lat="54.844070" lon="21.565960"><ele>10.4</ele><time>2026-06-22T13:42:55Z</time></trkpt>
			<trkpt lat="54.843930" lon="21.565260"><ele>10.0</ele><time>2026-06-22T13:43:01Z</time></trkpt>
			<trkpt lat="54.843650" lon="21.563830"><ele>9.1</ele><time>2026-06-22T13:43:06Z</time></trkpt>
			<trkpt lat="54.843580" lon="21.563300"><ele>8.9</ele><time>2026-06-22T13:43:12Z</time></trkpt>
			<trkpt lat="54.843190" lon="21.559310"><ele>8.4</ele><time>2026-06-22T13:43:18Z</time></trkpt>
			<trkpt lat="54.843090" lon="21.558200"><ele>8.2</ele><time>2026-06-22T13:43:23Z</time></trkpt>
			<trkpt lat="54.842970" lon="21.557390"><ele>8.1</ele><time>2026-06-22T13:43:29Z</time></trkpt>
			<trkpt lat="54.842700" lon="21.556020"><ele>7.8</ele><time>2026-06-22T13:43:35Z</time></trkpt>
			<trkpt lat="54.842360" lon="21.554090"><ele>7.4</ele><time>2026-06-22T13:43:41Z</time></trkpt>
			<trkpt lat="54.841530" lon="21.548030"><ele>8.9</ele><time>2026-06-22T13:43:46Z</time></trkpt>
			<trkpt lat="54.841160" lon="21.545430"><ele>7.6</ele><time>2026-06-22T13:43:52Z</time></trkpt>
			<trkpt lat="54.841100" lon="21.544920"><ele>7.4</ele><time>2026-06-22T13:43:58Z</time></trkpt>
			<trkpt lat="54.841080" lon="21.544250"><ele>7.1</ele><time>2026-06-22T13:44:03Z</time></trkpt>
			<trkpt lat="54.841110" lon="21.543640"><ele>6.9</ele><time>2026-06-22T13:44:09Z</time></trkpt>
			<trkpt lat="54.841180" lon="21.542890"><ele>6.6</ele><time>2026-06-22T13:44:15Z</time></trkpt>
			<trkpt lat="54.841290" lon="21.541710"><ele>6.5</ele><time>2026-06-22T13:44:21Z</time></trkpt>
			<trkpt lat="54.841310" lon="21.541360"><ele>6.7</ele><time>2026-06-22T13:44:26Z</time></trkpt>
			<trkpt lat="54.841420" lon="21.540400"><ele>7.3</ele><time>2026-06-22T13:44:32Z</time></trkpt>
			<trkpt lat="54.841560" lon="21.539580"><ele>7.8</ele><time>2026-06-22T13:44:38Z</time></trkpt>
			<trkpt lat="54.841570" lon="21.539500"><ele>7.9</ele><time>2026-06-22T13:44:44Z</time></trkpt>
			<trkpt lat="54.841750" lon="21.538410"><ele>8.2</ele><time>2026-06-22T13:44:49Z</time></trkpt>
			<trkpt lat="54.841970" lon="21.536910"><ele>8.4</ele><time>2026-06-22T13:44:55Z</time></trkpt>
			<trkpt lat="54.842870" lon="21.528910"><ele>8.7</ele><time>2026-06-22T13:45:01Z</time></trkpt>
			<trkpt lat="54.842950" lon="21.528270"><ele>8.7</ele><time>2026-06-22T13:45:06Z</time></trkpt>
			<trkpt lat="54.843200" lon="21.525950"><ele>8.9</ele><time>2026-06-22T13:45:12Z</time></trkpt>
			<trkpt lat="54.843210" lon="21.525950"><ele>8.9</ele><time>2026-06-22T13:45:20Z</time></trkpt>
			<trkpt lat="54.843220" lon="21.525780"><ele>8.9</ele><time>2026-06-22T13:45:28Z</time></trkpt>
			<trkpt lat="54.843280" lon="21.525280"><ele>9.1</ele><time>2026-06-22T13:45:35Z</time></trkpt>
			<trkpt lat="54.843430" lon="21.523950"><ele>9.4</ele><time>2026-06-22T13:45:43Z</time></trkpt>
			<trkpt lat="54.843560" lon="21.522800"><ele>9.5</ele><time>2026-06-22T13:45:51Z</time></trkpt>
			<trkpt lat="54.843570" lon="21.522590"><ele>9.4</ele><time>2026-06-22T13:45:59Z</time></trkpt>
			<trkpt lat="54.843560" lon="21.522290"><ele>9.4</ele><time>2026-06-22T13:46:06Z</time></trkpt>
			<trkpt lat="54.843530" lon="21.521920"><ele>9.4</ele><time>2026-06-22T13:46:14Z</time></trkpt>
			<trkpt lat="54.843480" lon="21.521600"><ele>9.4</ele><time>2026-06-22T13:46:22Z</time></trkpt>
			<trkpt lat="54.843380" lon="21.521130"><ele>9.4</ele><time>2026-06-22T13:46:30Z</time></trkpt>
			<trkpt lat="54.843160" lon="21.520630"><ele>9.4</ele><time>2026-06-22T13:46:37Z</time></trkpt>
			<trkpt lat="54.842750" lon="21.519780"><ele>9.8</ele><time>2026-06-22T13:46:45Z</time></trkpt>
			<trkpt lat="54.842240" lon="21.518920"><ele>10.2</ele><time>2026-06-22T13:46:53Z</time></trkpt>
			<trkpt lat="54.842220" lon="21.518890"><ele>10.2</ele><time>2026-06-22T13:47:01Z</time></trkpt>
			<trkpt lat="54.841240" lon="21.517190"><ele>9.0</ele><time>2026-06-22T13:47:08Z</time></trkpt>
			<trkpt lat="54.840870" lon="21.516630"><ele>8.4</ele><time>2026-06-22T13:47:16Z</time></trkpt>
			<trkpt lat="54.840810" lon="21.516540"><ele>8.3</ele><time>2026-06-22T13:47:24Z</time></trkpt>
			<trkpt lat="54.839580" lon="21.514220"><ele>9.7</ele><time>2026-06-22T13:47:32Z</time></trkpt>
			<trkpt lat="54.838030" lon="21.511410"><ele>13.7</ele><time>2026-06-22T13:47:39Z</time></trkpt>
			<trkpt lat="54.837860" lon="21.511020"><ele>13.5</ele><time>2026-06-22T13:47:47Z</time></trkpt>
			<trkpt lat="54.837750" lon="21.510700"><ele>13.3</ele><time>2026-06-22T13:47:55Z</time></trkpt>
			<trkpt lat="54.836200" lon="21.503530"><ele>22.7</ele><time>2026-06-22T13:48:03Z</time></trkpt>
			<trkpt lat="54.834810" lon="21.497200"><ele>18.5</ele><time>2026-06-22T13:48:10Z</time></trkpt>
			<trkpt lat="54.833470" lon="21.491110"><ele>9.5</ele><time>2026-06-22T13:48:18Z</time></trkpt>
			<trkpt lat="54.833150" lon="21.489600"><ele>9.0</ele><time>2026-06-22T13:48:26Z</time></trkpt>
			<trkpt lat="54.833080" lon="21.489200"><ele>8.9</ele><time>2026-06-22T13:48:34Z</time></trkpt>
			<trkpt lat="54.832970" lon="21.488560"><ele>8.8</ele><time>2026-06-22T13:48:41Z</time></trkpt>
			<trkpt lat="54.832560" lon="21.484350"><ele>8.0</ele><time>2026-06-22T13:48:49Z</time></trkpt>
			<trkpt lat="54.832520" lon="21.483670"><ele>7.9</ele><time>2026-06-22T13:48:57Z</time></trkpt>
			<trkpt lat="54.832580" lon="21.481450"><ele>7.7</ele><time>2026-06-22T13:49:04Z</time></trkpt>
			<trkpt lat="54.832690" lon="21.480660"><ele>7.8</ele><time>2026-06-22T13:49:12Z</time></trkpt>
			<trkpt lat="54.832850" lon="21.479790"><ele>7.9</ele><time>2026-06-22T13:49:20Z</time></trkpt>
			<trkpt lat="54.833080" lon="21.478690"><ele>7.9</ele><time>2026-06-22T13:49:28Z</time></trkpt>
			<trkpt lat="54.833290" lon="21.477830"><ele>7.7</ele><time>2026-06-22T13:49:35Z</time></trkpt>
			<trkpt lat="54.833710" lon="21.476340"><ele>7.4</ele><time>2026-06-22T13:49:43Z</time></trkpt>
			<trkpt lat="54.833940" lon="21.475440"><ele>7.2</ele><time>2026-06-22T13:49:51Z</time></trkpt>
			<trkpt lat="54.834120" lon="21.474520"><ele>7.1</ele><time>2026-06-22T13:49:59Z</time></trkpt>
			<trkpt lat="54.834220" lon="21.473810"><ele>6.9</ele><time>2026-06-22T13:50:06Z</time></trkpt>
			<trkpt lat="54.834320" lon="21.472690"><ele>7.0</ele><time>2026-06-22T13:50:14Z</time></trkpt>
			<trkpt lat="54.834390" lon="21.471200"><ele>7.1</ele><time>2026-06-22T13:50:22Z</time></trkpt>
			<trkpt lat="54.834380" lon="21.470530"><ele>7.2</ele><time>2026-06-22T13:50:30Z</time></trkpt>
			<trkpt lat="54.834240" lon="21.469130"><ele>8.8</ele><time>2026-06-22T13:50:37Z</time></trkpt>
			<trkpt lat="54.834070" lon="21.467400"><ele>11.1</ele><time>2026-06-22T13:50:45Z</time></trkpt>
			<trkpt lat="54.833620" lon="21.463690"><ele>16.3</ele><time>2026-06-22T13:50:53Z</time></trkpt>
			<trkpt lat="54.832860" lon="21.458210"><ele>19.4</ele><time>2026-06-22T13:51:01Z</time></trkpt>
			<trkpt lat="54.831950" lon="21.451880"><ele>17.3</ele><time>2026-06-22T13:51:08Z</time></trkpt>
			<trkpt lat="54.831770" lon="21.450880"><ele>17.6</ele><time>2026-06-22T13:51:16Z</time></trkpt>
			<trkpt lat="54.831460" lon="21.449480"><ele>18.1</ele><time>2026-06-22T13:51:24Z</time></trkpt>
			<trkpt lat="54.831240" lon="21.448410"><ele>18.2</ele><time>2026-06-22T13:51:32Z</time></trkpt>
			<trkpt lat="54.831040" lon="21.447310"><ele>18.0</ele><time>2026-06-22T13:51:39Z</time></trkpt>
			<trkpt lat="54.830080" lon="21.440660"><ele>18.8</ele><time>2026-06-22T13:51:47Z</time></trkpt>
			<trkpt lat="54.829920" lon="21.439380"><ele>18.6</ele><time>2026-06-22T13:51:55Z</time></trkpt>
			<trkpt lat="54.829820" lon="21.438050"><ele>19.7</ele><time>2026-06-22T13:52:03Z</time></trkpt>
			<trkpt lat="54.829790" lon="21.436480"><ele>20.9</ele><time>2026-06-22T13:52:10Z</time></trkpt>
			<trkpt lat="54.829800" lon="21.435300"><ele>21.5</ele><time>2026-06-22T13:52:18Z</time></trkpt>
			<trkpt lat="54.829830" lon="21.434310"><ele>21.9</ele><time>2026-06-22T13:52:26Z</time></trkpt>
			<trkpt lat="54.829880" lon="21.433640"><ele>22.1</ele><time>2026-06-22T13:52:34Z</time></trkpt>
			<trkpt lat="54.830040" lon="21.432660"><ele>20.9</ele><time>2026-06-22T13:52:41Z</time></trkpt>
			<trkpt lat="54.830760" lon="21.428960"><ele>17.9</ele><time>2026-06-22T13:52:49Z</time></trkpt>
			<trkpt lat="54.830850" lon="21.428550"><ele>17.7</ele><time>2026-06-22T13:52:57Z</time></trkpt>
			<trkpt lat="54.831090" lon="21.427290"><ele>17.8</ele><time>2026-06-22T13:53:05Z</time></trkpt>
			<trkpt lat="54.831200" lon="21.426610"><ele>18.3</ele><time>2026-06-22T13:53:12Z</time></trkpt>
			<trkpt lat="54.831220" lon="21.425990"><ele>18.8</ele><time>2026-06-22T13:53:20Z</time></trkpt>
			<trkpt lat="54.831320" lon="21.424700"><ele>19.7</ele><time>2026-06-22T13:53:28Z</time></trkpt>
			<trkpt lat="54.831450" lon="21.423460"><ele>19.5</ele><time>2026-06-22T13:53:36Z</time></trkpt>
			<trkpt lat="54.831780" lon="21.421820"><ele>19.2</ele><time>2026-06-22T13:53:43Z</time></trkpt>
			<trkpt lat="54.832950" lon="21.415700"><ele>21.5</ele><time>2026-06-22T13:53:51Z</time></trkpt>
			<trkpt lat="54.833730" lon="21.411740"><ele>14.9</ele><time>2026-06-22T13:53:59Z</time></trkpt>
			<trkpt lat="54.834010" lon="21.410430"><ele>15.5</ele><time>2026-06-22T13:54:07Z</time></trkpt>
			<trkpt lat="54.834090" lon="21.409660"><ele>15.8</ele><time>2026-06-22T13:54:14Z</time></trkpt>
			<trkpt lat="54.834090" lon="21.408970"><ele>15.8</ele><time>2026-06-22T13:54:22Z</time></trkpt>
			<trkpt lat="54.833930" lon="21.408280"><ele>15.9</ele><time>2026-06-22T13:54:30Z</time></trkpt>
			<trkpt lat="54.833570" lon="21.407380"><ele>15.9</ele><time>2026-06-22T13:54:37Z</time></trkpt>
			<trkpt lat="54.831240" lon="21.403190"><ele>15.5</ele><time>2026-06-22T13:54:45Z</time></trkpt>
			<trkpt lat="54.830790" lon="21.402030"><ele>16.1</ele><time>2026-06-22T13:54:53Z</time></trkpt>
			<trkpt lat="54.829090" lon="21.393890"><ele>19.1</ele><time>2026-06-22T13:55:01Z</time></trkpt>
			<trkpt lat="54.827090" lon="21.385270"><ele>20.6</ele><time>2026-06-22T13:55:08Z</time></trkpt>
			<trkpt lat="54.826850" lon="21.384050"><ele>20.3</ele><time>2026-06-22T13:55:16Z</time></trkpt>
			<trkpt lat="54.826710" lon="21.382690"><ele>20.2</ele><time>2026-06-22T13:55:24Z</time></trkpt>
			<trkpt lat="54.826690" lon="21.382150"><ele>20.2</ele><time>2026-06-22T13:55:32Z</time></trkpt>
			<trkpt lat="54.826810" lon="21.379950"><ele>20.9</ele><time>2026-06-22T13:55:39Z</time></trkpt>
			<trkpt lat="54.826970" lon="21.377250"><ele>20.3</ele><time>2026-06-22T13:55:47Z</time></trkpt>
			<trkpt lat="54.826970" lon="21.376460"><ele>19.7</ele><time>2026-06-22T13:55:55Z</time></trkpt>
			<trkpt lat="54.826820" lon="21.374370"><ele>19.5</ele><time>2026-06-22T13:56:03Z</time></trkpt>
			<trkpt lat="54.826280" lon="21.368780"><ele>14.4</ele><time>2026-06-22T13:56:10Z</time></trkpt>
			<trkpt lat="54.826000" lon="21.366320"><ele>10.1</ele><time>2026-06-22T13:56:18Z</time></trkpt>
			<trkpt lat="54.825750" lon="21.364060"><ele>7.7</ele><time>2026-06-22T13:56:26Z</time></trkpt>
			<trkpt lat="54.825570" lon="21.362440"><ele>7.1</ele><time>2026-06-22T13:56:34Z</time></trkpt>
			<trkpt lat="54.825300" lon="21.359640"><ele>7.4</ele><time>2026-06-22T13:56:41Z</time></trkpt>
			<trkpt lat="54.825090" lon="21.356880"><ele>7.5</ele><time>2026-06-22T13:56:49Z</time></trkpt>
			<trkpt lat="54.824850" lon="21.355330"><ele>7.5</ele><time>2026-06-22T13:56:57Z</time></trkpt>
			<trkpt lat="54.824700" lon="21.354480"><ele>7.6</ele><time>2026-06-22T13:57:05Z</time></trkpt>
			<trkpt lat="54.824700" lon="21.354450"><ele>7.6</ele><time>2026-06-22T13:57:12Z</time></trkpt>
			<trkpt lat="54.824280" lon="21.351800"><ele>7.6</ele><time>2026-06-22T13:57:20Z</time></trkpt>
			<trkpt lat="54.824160" lon="21.351060"><ele>7.6</ele><time>2026-06-22T13:57:28Z</time></trkpt>
			<trkpt lat="54.824070" lon="21.350290"><ele>7.9</ele><time>2026-06-22T13:57:36Z</time></trkpt>
			<trkpt lat="54.824000" lon="21.349710"><ele>8.2</ele><time>2026-06-22T13:57:43Z</time></trkpt>
			<trkpt lat="54.823800" lon="21.348060"><ele>9.0</ele><time>2026-06-22T13:57:51Z</time></trkpt>
			<trkpt lat="54.823480" lon="21.345120"><ele>10.7</ele><time>2026-06-22T13:57:59Z</time></trkpt>
			<trkpt lat="54.823310" lon="21.343600"><ele>9.5</ele><time>2026-06-22T13:58:07Z</time></trkpt>
			<trkpt lat="54.822990" lon="21.340890"><ele>7.1</ele><time>2026-06-22T13:58:14Z</time></trkpt>
			<trkpt lat="54.822330" lon="21.335250"><ele>7.5</ele><time>2026-06-22T13:58:22Z</time></trkpt>
			<trkpt lat="54.822130" lon="21.333460"><ele>7.7</ele><time>2026-06-22T13:58:30Z</time></trkpt>
			<trkpt lat="54.821460" lon="21.328050"><ele>7.2</ele><time>2026-06-22T13:58:38Z</time></trkpt>
			<trkpt lat="54.821410" lon="21.327710"><ele>7.2</ele><time>2026-06-22T13:58:45Z</time></trkpt>
			<trkpt lat="54.820510" lon="21.320350"><ele>5.6</ele><time>2026-06-22T13:58:53Z</time></trkpt>
			<trkpt lat="54.820380" lon="21.319060"><ele>6.2</ele><time>2026-06-22T13:59:01Z</time></trkpt>
			<trkpt lat="54.820310" lon="21.317950"><ele>6.8</ele><time>2026-06-22T13:59:09Z</time></trkpt>
			<trkpt lat="54.820300" lon="21.317140"><ele>7.2</ele><time>2026-06-22T13:59:16Z</time></trkpt>
			<trkpt lat="54.820330" lon="21.316380"><ele>7.0</ele><time>2026-06-22T13:59:24Z</time></trkpt>
			<trkpt lat="54.820790" lon="21.308690"><ele>6.7</ele><time>2026-06-22T13:59:32Z</time></trkpt>
			<trkpt lat="54.821150" lon="21.302830"><ele>5.6</ele><time>2026-06-22T13:59:40Z</time></trkpt>
			<trkpt lat="54.821570" lon="21.295800"><ele>5.2</ele><time>2026-06-22T13:59:47Z</time></trkpt>
			<trkpt lat="54.821720" lon="21.294190"><ele>4.3</ele><time>2026-06-22T13:59:55Z</time></trkpt>
			<trkpt lat="54.821790" lon="21.293440"><ele>3.7</ele><time>2026-06-22T14:00:03Z</time></trkpt>
			<trkpt lat="54.823220" lon="21.283000"><ele>5.6</ele><time>2026-06-22T14:00:10Z</time></trkpt>
			<trkpt lat="54.824420" lon="21.274280"><ele>4.1</ele><time>2026-06-22T14:00:18Z</time></trkpt>
			<trkpt lat="54.824820" lon="21.272070"><ele>4.2</ele><time>2026-06-22T14:00:26Z</time></trkpt>
			<trkpt lat="54.825300" lon="21.269950"><ele>4.1</ele><time>2026-06-22T14:00:34Z</time></trkpt>
			<trkpt lat="54.826280" lon="21.265900"><ele>3.6</ele><time>2026-06-22T14:00:41Z</time></trkpt>
			<trkpt lat="54.827310" lon="21.261640"><ele>3.7</ele><time>2026-06-22T14:00:49Z</time></trkpt>
			<trkpt lat="54.829110" lon="21.254160"><ele>3.7</ele><time>2026-06-22T14:00:57Z</time></trkpt>
			<trkpt lat="54.829280" lon="21.253440"><ele>3.6</ele><time>2026-06-22T14:01:05Z</time></trkpt>
			<trkpt lat="54.830330" lon="21.249580"><ele>4.0</ele><time>2026-06-22T14:01:12Z</time></trkpt>
			<trkpt lat="54.830580" lon="21.248770"><ele>4.0</ele><time>2026-06-22T14:01:20Z</time></trkpt>
			<trkpt lat="54.830860" lon="21.247890"><ele>4.0</ele><time>2026-06-22T14:01:28Z</time></trkpt>
			<trkpt lat="54.831590" lon="21.245530"><ele>3.5</ele><time>2026-06-22T14:01:36Z</time></trkpt>
			<trkpt lat="54.833110" lon="21.240680"><ele>4.2</ele><time>2026-06-22T14:01:43Z</time></trkpt>
			<trkpt lat="54.833460" lon="21.239530"><ele>3.7</ele><time>2026-06-22T14:01:51Z</time></trkpt>
			<trkpt lat="54.833040" lon="21.239260"><ele>3.3</ele><time>2026-06-22T14:01:59Z</time></trkpt>
			<trkpt lat="54.832640" lon="21.238940"><ele>3.0</ele><time>2026-06-22T14:02:07Z</time></trkpt>
			<trkpt lat="54.832390" lon="21.238690"><ele>2.8</ele><time>2026-06-22T14:02:14Z</time></trkpt>
			<trkpt lat="54.832310" lon="21.238580"><ele>2.7</ele><time>2026-06-22T14:02:22Z</time></trkpt>
			<trkpt lat="54.832010" lon="21.238160"><ele>2.4</ele><time>2026-06-22T14:02:30Z</time></trkpt>
			<trkpt lat="54.832010" lon="21.238150"><ele>2.4</ele><time>2026-06-22T14:02:41Z</time></trkpt>
			<trkpt lat="54.831620" lon="21.237510"><ele>2.0</ele><time>2026-06-22T14:02:52Z</time></trkpt>
			<trkpt lat="54.831390" lon="21.237170"><ele>1.9</ele><time>2026-06-22T14:03:03Z</time></trkpt>
			<trkpt lat="54.830700" lon="21.236210"><ele>1.4</ele><time>2026-06-22T14:03:14Z</time></trkpt>
			<trkpt lat="54.830110" lon="21.235540"><ele>3.3</ele><time>2026-06-22T14:03:25Z</time></trkpt>
			<trkpt lat="54.829940" lon="21.235350"><ele>3.8</ele><time>2026-06-22T14:03:36Z</time></trkpt>
			<trkpt lat="54.829240" lon="21.235100"><ele>5.7</ele><time>2026-06-22T14:03:47Z</time></trkpt>
			<trkpt lat="54.828560" lon="21.234970"><ele>5.7</ele><time>2026-06-22T14:03:58Z</time></trkpt>
			<trkpt lat="54.828450" lon="21.234910"><ele>5.7</ele><time>2026-06-22T14:04:08Z</time></trkpt>
			<trkpt lat="54.828000" lon="21.234770"><ele>5.4</ele><time>2026-06-22T14:04:19Z</time></trkpt>
			<trkpt lat="54.826860" lon="21.234720"><ele>5.3</ele><time>2026-06-22T14:04:30Z</time></trkpt>
			<trkpt lat="54.825370" lon="21.234820"><ele>6.4</ele><time>2026-06-22T14:04:41Z</time></trkpt>
			<trkpt lat="54.824460" lon="21.234770"><ele>6.0</ele><time>2026-06-22T14:04:52Z</time></trkpt>
			<trkpt lat="54.823270" lon="21.234330"><ele>5.7</ele><time>2026-06-22T14:05:03Z</time></trkpt>
			<trkpt lat="54.821680" lon="21.233640"><ele>5.8</ele><time>2026-06-22T14:05:14Z</time></trkpt>
			<trkpt lat="54.816440" lon="21.231100"><ele>6.8</ele><time>2026-06-22T14:05:25Z</time></trkpt>
			<trkpt lat="54.815370" lon="21.230620"><ele>6.2</ele><time>2026-06-22T14:05:36Z</time></trkpt>
			<trkpt lat="54.810910" lon="21.232940"><ele>3.9</ele><time>2026-06-22T14:05:47Z</time></trkpt>
			<trkpt lat="54.806270" lon="21.235230"><ele>5.6</ele><time>2026-06-22T14:05:58Z</time></trkpt>
			<trkpt lat="54.804620" lon="21.236080"><ele>7.5</ele><time>2026-06-22T14:06:09Z</time></trkpt>
			<trkpt lat="54.798890" lon="21.240190"><ele>6.4</ele><time>2026-06-22T14:06:20Z</time></trkpt>
			<trkpt lat="54.797820" lon="21.240820"><ele>7.4</ele><time>2026-06-22T14:06:31Z</time></trkpt>
			<trkpt lat="54.795130" lon="21.241890"><ele>7.1</ele><time>2026-06-22T14:06:42Z</time></trkpt>
			<trkpt lat="54.794540" lon="21.242060"><ele>6.9</ele><time>2026-06-22T14:06:53Z</time></trkpt>
			<trkpt lat="54.794390" lon="21.242100"><ele>6.9</ele><time>2026-06-22T14:07:04Z</time></trkpt>
			<trkpt lat="54.793730" lon="21.241920"><ele>7.4</ele><time>2026-06-22T14:07:15Z</time></trkpt>
			<trkpt lat="54.793310" lon="21.241670"><ele>7.7</ele><time>2026-06-22T14:07:26Z</time></trkpt>
			<trkpt lat="54.792980" lon="21.241120"><ele>8.0</ele><time>2026-06-22T14:07:37Z</time></trkpt>
			<trkpt lat="54.792710" lon="21.240540"><ele>8.3</ele><time>2026-06-22T14:07:48Z</time></trkpt>
			<trkpt lat="54.792210" lon="21.240700"><ele>8.6</ele><time>2026-06-22T14:07:59Z</time></trkpt>
			<trkpt lat="54.791870" lon="21.240770"><ele>8.8</ele><time>2026-06-22T14:08:10Z</time></trkpt>
			<trkpt lat="54.790990" lon="21.241200"><ele>9.6</ele><time>2026-06-22T14:08:20Z</time></trkpt>
			<trkpt lat="54.786360" lon="21.244410"><ele>11.4</ele><time>2026-06-22T14:08:31Z</time></trkpt>
			<trkpt lat="54.784140" lon="21.245840"><ele>8.3</ele><time>2026-06-22T14:08:42Z</time></trkpt>
			<trkpt lat="54.781170" lon="21.247830"><ele>13.8</ele><time>2026-06-22T14:08:53Z</time></trkpt>
			<trkpt lat="54.776170" lon="21.253300"><ele>17.8</ele><time>2026-06-22T14:09:04Z</time></trkpt>
			<trkpt lat="54.771350" lon="21.258090"><ele>13.7</ele><time>2026-06-22T14:09:15Z</time></trkpt>
			<trkpt lat="54.768530" lon="21.262040"><ele>6.8</ele><time>2026-06-22T14:09:26Z</time></trkpt>
			<trkpt lat="54.765800" lon="21.265850"><ele>8.1</ele><time>2026-06-22T14:09:37Z</time></trkpt>
			<trkpt lat="54.759460" lon="21.274800"><ele>7.6</ele><time>2026-06-22T14:09:48Z</time></trkpt>
			<trkpt lat="54.758370" lon="21.276360"><ele>8.1</ele><time>2026-06-22T14:09:59Z</time></trkpt>
			<trkpt lat="54.757850" lon="21.275180"><ele>8.1</ele><time>2026-06-22T14:10:10Z</time></trkpt>
			<trkpt lat="54.757340" lon="21.274260"><ele>7.5</ele><time>2026-06-22T14:10:21Z</time></trkpt>
			<trkpt lat="54.757220" lon="21.274100"><ele>7.3</ele><time>2026-06-22T14:10:32Z</time></trkpt>
			<trkpt lat="54.756900" lon="21.273820"><ele>7.0</ele><time>2026-06-22T14:10:43Z</time></trkpt>
			<trkpt lat="54.756660" lon="21.273680"><ele>6.8</ele><time>2026-06-22T14:10:54Z</time></trkpt>
			<trkpt lat="54.756450" lon="21.273490"><ele>6.6</ele><time>2026-06-22T14:11:05Z</time></trkpt>
			<trkpt lat="54.755990" lon="21.272900"><ele>6.0</ele><time>2026-06-22T14:11:16Z</time></trkpt>
			<trkpt lat="54.755900" lon="21.272780"><ele>5.9</ele><time>2026-06-22T14:11:27Z</time></trkpt>
			<trkpt lat="54.755620" lon="21.272350"><ele>5.6</ele><time>2026-06-22T14:11:38Z</time></trkpt>
			<trkpt lat="54.755230" lon="21.271860"><ele>5.1</ele><time>2026-06-22T14:11:49Z</time></trkpt>
			<trkpt lat="54.754660" lon="21.271110"><ele>5.3</ele><time>2026-06-22T14:12:00Z</time></trkpt>
			<trkpt lat="54.754360" lon="21.270820"><ele>5.6</ele><time>2026-06-22T14:12:11Z</time></trkpt>
			<trkpt lat="54.753660" lon="21.270320"><ele>6.4</ele><time>2026-06-22T14:12:22Z</time></trkpt>
			<trkpt lat="54.753500" lon="21.270210"><ele>6.6</ele><time>2026-06-22T14:12:32Z</time></trkpt>
			<trkpt lat="54.752930" lon="21.269800"><ele>6.8</ele><time>2026-06-22T14:12:43Z</time></trkpt>
			<trkpt lat="54.752310" lon="21.269270"><ele>6.9</ele><time>2026-06-22T14:12:54Z</time></trkpt>
			<trkpt lat="54.752000" lon="21.268790"><ele>7.0</ele><time>2026-06-22T14:13:05Z</time></trkpt>
			<trkpt lat="54.748200" lon="21.261490"><ele>11.8</ele><time>2026-06-22T14:13:16Z</time></trkpt>
			<trkpt lat="54.748110" lon="21.261320"><ele>11.7</ele><time>2026-06-22T14:13:27Z</time></trkpt>
			<trkpt lat="54.747370" lon="21.259920"><ele>10.8</ele><time>2026-06-22T14:13:38Z</time></trkpt>
			<trkpt lat="54.745960" lon="21.257630"><ele>13.2</ele><time>2026-06-22T14:13:49Z</time></trkpt>
			<trkpt lat="54.738120" lon="21.244960"><ele>23.8</ele><time>2026-06-22T14:14:00Z</time></trkpt>
			<trkpt lat="54.736240" lon="21.242420"><ele>27.1</ele><time>2026-06-22T14:14:11Z</time></trkpt>
			<trkpt lat="54.735370" lon="21.241960"><ele>27.9</ele><time>2026-06-22T14:14:22Z</time></trkpt>
			<trkpt lat="54.723410" lon="21.244590"><ele>26.0</ele><time>2026-06-22T14:14:33Z</time></trkpt>
			<trkpt lat="54.722870" lon="21.244210"><ele>26.1</ele><time>2026-06-22T14:14:44Z</time></trkpt>
			<trkpt lat="54.719100" lon="21.239330"><ele>26.8</ele><time>2026-06-22T14:14:55Z</time></trkpt>
			<trkpt lat="54.715670" lon="21.234510"><ele>25.9</ele><time>2026-06-22T14:15:06Z</time></trkpt>
			<trkpt lat="54.713600" lon="21.231610"><ele>29.4</ele><time>2026-06-22T14:15:17Z</time></trkpt>
			<trkpt lat="54.711120" lon="21.228120"><ele>19.7</ele><time>2026-06-22T14:15:28Z</time></trkpt>
			<trkpt lat="54.704490" lon="21.218820"><ele>19.8</ele><time>2026-06-22T14:15:39Z</time></trkpt>
			<trkpt lat="54.701700" lon="21.214930"><ele>19.9</ele><time>2026-06-22T14:15:50Z</time></trkpt>
			<trkpt lat="54.701010" lon="21.213980"><ele>20.5</ele><time>2026-06-22T14:16:01Z</time></trkpt>
			<trkpt lat="54.700800" lon="21.213720"><ele>21.2</ele><time>2026-06-22T14:16:12Z</time></trkpt>
			<trkpt lat="54.700680" lon="21.213620"><ele>21.6</ele><time>2026-06-22T14:16:23Z</time></trkpt>
			<trkpt lat="54.698970" lon="21.212600"><ele>25.6</ele><time>2026-06-22T14:16:34Z</time></trkpt>
			<trkpt lat="54.698800" lon="21.212500"><ele>25.6</ele><time>2026-06-22T14:16:44Z</time></trkpt>
			<trkpt lat="54.698160" lon="21.212130"><ele>25.8</ele><time>2026-06-22T14:16:55Z</time></trkpt>
			<trkpt lat="54.697260" lon="21.211620"><ele>26.0</ele><time>2026-06-22T14:17:06Z</time></trkpt>
			<trkpt lat="54.697060" lon="21.211570"><ele>26.1</ele><time>2026-06-22T14:17:17Z</time></trkpt>
			<trkpt lat="54.696670" lon="21.211470"><ele>26.2</ele><time>2026-06-22T14:17:28Z</time></trkpt>
			<trkpt lat="54.696140" lon="21.211340"><ele>26.3</ele><time>2026-06-22T14:17:39Z</time></trkpt>
			<trkpt lat="54.695740" lon="21.211260"><ele>25.8</ele><time>2026-06-22T14:17:50Z</time></trkpt>
			<trkpt lat="54.695480" lon="21.211290"><ele>25.1</ele><time>2026-06-22T14:18:01Z</time></trkpt>
			<trkpt lat="54.688490" lon="21.212080"><ele>20.1</ele><time>2026-06-22T14:18:12Z</time></trkpt>
			<trkpt lat="54.681500" lon="21.212870"><ele>31.7</ele><time>2026-06-22T14:18:23Z</time></trkpt>
			<trkpt lat="54.680200" lon="21.213020"><ele>31.7</ele><time>2026-06-22T14:18:34Z</time></trkpt>
			<trkpt lat="54.676870" lon="21.213640"><ele>28.9</ele><time>2026-06-22T14:18:45Z</time></trkpt>
			<trkpt lat="54.670960" lon="21.214750"><ele>27.0</ele><time>2026-06-22T14:18:56Z</time></trkpt>
			<trkpt lat="54.670200" lon="21.215000"><ele>27.4</ele><time>2026-06-22T14:19:07Z</time></trkpt>
			<trkpt lat="54.669540" lon="21.215340"><ele>27.7</ele><time>2026-06-22T14:19:18Z</time></trkpt>
			<trkpt lat="54.669140" lon="21.215650"><ele>28.0</ele><time>2026-06-22T14:19:29Z</time></trkpt>
			<trkpt lat="54.668400" lon="21.216290"><ele>28.2</ele><time>2026-06-22T14:19:40Z</time></trkpt>
			<trkpt lat="54.667680" lon="21.216910"><ele>28.4</ele><time>2026-06-22T14:19:51Z</time></trkpt>
			<trkpt lat="54.666220" lon="21.218260"><ele>28.8</ele><time>2026-06-22T14:20:02Z</time></trkpt>
			<trkpt lat="54.665650" lon="21.218730"><ele>29.3</ele><time>2026-06-22T14:20:13Z</time></trkpt>
			<trkpt lat="54.665030" lon="21.219230"><ele>30.2</ele><time>2026-06-22T14:20:24Z</time></trkpt>
			<trkpt lat="54.664790" lon="21.219390"><ele>30.6</ele><time>2026-06-22T14:20:35Z</time></trkpt>
			<trkpt lat="54.664560" lon="21.219460"><ele>30.9</ele><time>2026-06-22T14:20:46Z</time></trkpt>
			<trkpt lat="54.664330" lon="21.219470"><ele>31.2</ele><time>2026-06-22T14:20:56Z</time></trkpt>
			<trkpt lat="54.663660" lon="21.219400"><ele>30.4</ele><time>2026-06-22T14:21:07Z</time></trkpt>
			<trkpt lat="54.661870" lon="21.219300"><ele>27.9</ele><time>2026-06-22T14:21:18Z</time></trkpt>
			<trkpt lat="54.661730" lon="21.219320"><ele>27.9</ele><time>2026-06-22T14:21:29Z</time></trkpt>
			<trkpt lat="54.661360" lon="21.219370"><ele>27.8</ele><time>2026-06-22T14:21:40Z</time></trkpt>
			<trkpt lat="54.661270" lon="21.219320"><ele>27.8</ele><time>2026-06-22T14:21:51Z</time></trkpt>
			<trkpt lat="54.660900" lon="21.218870"><ele>27.7</ele><time>2026-06-22T14:22:02Z</time></trkpt>
			<trkpt lat="54.660620" lon="21.218360"><ele>27.3</ele><time>2026-06-22T14:22:13Z</time></trkpt>
			<trkpt lat="54.659920" lon="21.218000"><ele>26.3</ele><time>2026-06-22T14:22:24Z</time></trkpt>
			<trkpt lat="54.659480" lon="21.217760"><ele>25.6</ele><time>2026-06-22T14:22:35Z</time></trkpt>
			<trkpt lat="54.658990" lon="21.217500"><ele>24.9</ele><time>2026-06-22T14:22:46Z</time></trkpt>
			<trkpt lat="54.656180" lon="21.216010"><ele>24.2</ele><time>2026-06-22T14:22:57Z</time></trkpt>
			<trkpt lat="54.655750" lon="21.215780"><ele>24.0</ele><time>2026-06-22T14:23:08Z</time></trkpt>
			<trkpt lat="54.655380" lon="21.215570"><ele>23.7</ele><time>2026-06-22T14:23:19Z</time></trkpt>
			<trkpt lat="54.655020" lon="21.215380"><ele>23.4</ele><time>2026-06-22T14:23:30Z</time></trkpt>
			<trkpt lat="54.653300" lon="21.214450"><ele>21.1</ele><time>2026-06-22T14:23:41Z</time></trkpt>
			<trkpt lat="54.653010" lon="21.214350"><ele>20.6</ele><time>2026-06-22T14:23:52Z</time></trkpt>
			<trkpt lat="54.652800" lon="21.214350"><ele>20.1</ele><time>2026-06-22T14:24:03Z</time></trkpt>
			<trkpt lat="54.652530" lon="21.214440"><ele>19.6</ele><time>2026-06-22T14:24:14Z</time></trkpt>
			<trkpt lat="54.652380" lon="21.214530"><ele>19.3</ele><time>2026-06-22T14:24:25Z</time></trkpt>
			<trkpt lat="54.652060" lon="21.214730"><ele>18.5</ele><time>2026-06-22T14:24:36Z</time></trkpt>
			<trkpt lat="54.651850" lon="21.214740"><ele>18.1</ele><time>2026-06-22T14:24:47Z</time></trkpt>
			<trkpt lat="54.651750" lon="21.214710"><ele>17.9</ele><time>2026-06-22T14:24:58Z</time></trkpt>
			<trkpt lat="54.651670" lon="21.214620"><ele>17.7</ele><time>2026-06-22T14:25:08Z</time></trkpt>
			<trkpt lat="54.651550" lon="21.214380"><ele>17.3</ele><time>2026-06-22T14:25:19Z</time></trkpt>
			<trkpt lat="54.651330" lon="21.213380"><ele>15.9</ele><time>2026-06-22T14:25:30Z</time></trkpt>
			<trkpt lat="54.651200" lon="21.213040"><ele>15.4</ele><time>2026-06-22T14:25:41Z</time></trkpt>
			<trkpt lat="54.651070" lon="21.212870"><ele>15.1</ele><time>2026-06-22T14:25:52Z</time></trkpt>
			<trkpt lat="54.650880" lon="21.212760"><ele>14.9</ele><time>2026-06-22T14:26:03Z</time></trkpt>
			<trkpt lat="54.650710" lon="21.212730"><ele>14.9</ele><time>2026-06-22T14:26:14Z</time></trkpt>
			<trkpt lat="54.649540" lon="21.212660"><ele>15.1</ele><time>2026-06-22T14:26:25Z</time></trkpt>
			<trkpt lat="54.649460" lon="21.212600"><ele>15.1</ele><time>2026-06-22T14:26:36Z</time></trkpt>
			<trkpt lat="54.649400" lon="21.212530"><ele>15.1</ele><time>2026-06-22T14:26:47Z</time></trkpt>
			<trkpt lat="54.649330" lon="21.212400"><ele>15.1</ele><time>2026-06-22T14:26:58Z</time></trkpt>
			<trkpt lat="54.649260" lon="21.212220"><ele>15.2</ele><time>2026-06-22T14:27:09Z</time></trkpt>
			<trkpt lat="54.649260" lon="21.211310"><ele>15.4</ele><time>2026-06-22T14:27:20Z</time></trkpt>
			<trkpt lat="54.649230" lon="21.210830"><ele>15.5</ele><time>2026-06-22T14:27:31Z</time></trkpt>
			<trkpt lat="54.649250" lon="21.209960"><ele>15.8</ele><time>2026-06-22T14:27:42Z</time></trkpt>
			<trkpt lat="54.649250" lon="21.209960"><ele>15.8</ele><time>2026-06-22T14:27:49Z</time></trkpt>
			<trkpt lat="54.649380" lon="21.201830"><ele>19.0</ele><time>2026-06-22T14:27:57Z</time></trkpt>
			<trkpt lat="54.649430" lon="21.199140"><ele>23.0</ele><time>2026-06-22T14:28:04Z</time></trkpt>
			<trkpt lat="54.649470" lon="21.197560"><ele>24.6</ele><time>2026-06-22T14:28:12Z</time></trkpt>
			<trkpt lat="54.649600" lon="21.191030"><ele>32.4</ele><time>2026-06-22T14:28:19Z</time></trkpt>
			<trkpt lat="54.649700" lon="21.185430"><ele>32.9</ele><time>2026-06-22T14:28:27Z</time></trkpt>
			<trkpt lat="54.649850" lon="21.177970"><ele>27.6</ele><time>2026-06-22T14:28:34Z</time></trkpt>
			<trkpt lat="54.649890" lon="21.174820"><ele>28.2</ele><time>2026-06-22T14:28:42Z</time></trkpt>
			<trkpt lat="54.650030" lon="21.171420"><ele>26.4</ele><time>2026-06-22T14:28:49Z</time></trkpt>
			<trkpt lat="54.650090" lon="21.170570"><ele>26.9</ele><time>2026-06-22T14:28:57Z</time></trkpt>
			<trkpt lat="54.650180" lon="21.169440"><ele>27.4</ele><time>2026-06-22T14:29:04Z</time></trkpt>
			<trkpt lat="54.650390" lon="21.167210"><ele>29.3</ele><time>2026-06-22T14:29:12Z</time></trkpt>
			<trkpt lat="54.650660" lon="21.165090"><ele>31.4</ele><time>2026-06-22T14:29:19Z</time></trkpt>
			<trkpt lat="54.651010" lon="21.162760"><ele>33.2</ele><time>2026-06-22T14:29:27Z</time></trkpt>
			<trkpt lat="54.651620" lon="21.159580"><ele>32.2</ele><time>2026-06-22T14:29:34Z</time></trkpt>
			<trkpt lat="54.652300" lon="21.156820"><ele>35.0</ele><time>2026-06-22T14:29:42Z</time></trkpt>
			<trkpt lat="54.653040" lon="21.154200"><ele>35.2</ele><time>2026-06-22T14:29:49Z</time></trkpt>
			<trkpt lat="54.653430" lon="21.152950"><ele>34.2</ele><time>2026-06-22T14:29:57Z</time></trkpt>
			<trkpt lat="54.654380" lon="21.150260"><ele>32.2</ele><time>2026-06-22T14:30:04Z</time></trkpt>
			<trkpt lat="54.655570" lon="21.147320"><ele>31.3</ele><time>2026-06-22T14:30:12Z</time></trkpt>
			<trkpt lat="54.660160" lon="21.135750"><ele>21.0</ele><time>2026-06-22T14:30:20Z</time></trkpt>
			<trkpt lat="54.661960" lon="21.131300"><ele>18.4</ele><time>2026-06-22T14:30:27Z</time></trkpt>
			<trkpt lat="54.663350" lon="21.127760"><ele>20.9</ele><time>2026-06-22T14:30:35Z</time></trkpt>
			<trkpt lat="54.664100" lon="21.125930"><ele>19.8</ele><time>2026-06-22T14:30:42Z</time></trkpt>
			<trkpt lat="54.664470" lon="21.124980"><ele>18.6</ele><time>2026-06-22T14:30:50Z</time></trkpt>
			<trkpt lat="54.664650" lon="21.124570"><ele>17.8</ele><time>2026-06-22T14:30:57Z</time></trkpt>
			<trkpt lat="54.665980" lon="21.121210"><ele>11.4</ele><time>2026-06-22T14:31:05Z</time></trkpt>
			<trkpt lat="54.666520" lon="21.119890"><ele>9.8</ele><time>2026-06-22T14:31:12Z</time></trkpt>
			<trkpt lat="54.666810" lon="21.119080"><ele>9.9</ele><time>2026-06-22T14:31:20Z</time></trkpt>
			<trkpt lat="54.667340" lon="21.117680"><ele>10.4</ele><time>2026-06-22T14:31:27Z</time></trkpt>
			<trkpt lat="54.667940" lon="21.115980"><ele>13.5</ele><time>2026-06-22T14:31:35Z</time></trkpt>
			<trkpt lat="54.668300" lon="21.114850"><ele>13.7</ele><time>2026-06-22T14:31:42Z</time></trkpt>
			<trkpt lat="54.669080" lon="21.112220"><ele>2.8</ele><time>2026-06-22T14:31:50Z</time></trkpt>
			<trkpt lat="54.669640" lon="21.110140"><ele>0.6</ele><time>2026-06-22T14:31:57Z</time></trkpt>
			<trkpt lat="54.670180" lon="21.107970"><ele>-0.2</ele><time>2026-06-22T14:32:05Z</time></trkpt>
			<trkpt lat="54.670480" lon="21.106560"><ele>-0.5</ele><time>2026-06-22T14:32:12Z</time></trkpt>
			<trkpt lat="54.670770" lon="21.105100"><ele>-1.0</ele><time>2026-06-22T14:32:20Z</time></trkpt>
			<trkpt lat="54.671080" lon="21.103400"><ele>-1.8</ele><time>2026-06-22T14:32:27Z</time></trkpt>
			<trkpt lat="54.671380" lon="21.101640"><ele>-3.0</ele><time>2026-06-22T14:32:35Z</time></trkpt>
			<trkpt lat="54.671610" lon="21.100010"><ele>-3.3</ele><time>2026-06-22T14:32:42Z</time></trkpt>
			<trkpt lat="54.671770" lon="21.098820"><ele>-2.5</ele><time>2026-06-22T14:32:50Z</time></trkpt>
			<trkpt lat="54.672070" lon="21.096430"><ele>-1.1</ele><time>2026-06-22T14:32:57Z</time></trkpt>
			<trkpt lat="54.672220" lon="21.095000"><ele>-0.2</ele><time>2026-06-22T14:33:05Z</time></trkpt>
			<trkpt lat="54.672470" lon="21.092170"><ele>5.5</ele><time>2026-06-22T14:33:12Z</time></trkpt>
			<trkpt lat="54.672480" lon="21.092010"><ele>5.9</ele><time>2026-06-22T14:33:20Z</time></trkpt>
			<trkpt lat="54.672560" lon="21.090700"><ele>7.6</ele><time>2026-06-22T14:33:27Z</time></trkpt>
			<trkpt lat="54.672660" lon="21.087650"><ele>10.4</ele><time>2026-06-22T14:33:35Z</time></trkpt>
			<trkpt lat="54.672690" lon="21.086200"><ele>12.8</ele><time>2026-06-22T14:33:42Z</time></trkpt>
			<trkpt lat="54.672690" lon="21.084240"><ele>15.8</ele><time>2026-06-22T14:33:50Z</time></trkpt>
			<trkpt lat="54.672670" lon="21.082360"><ele>18.3</ele><time>2026-06-22T14:33:57Z</time></trkpt>
			<trkpt lat="54.672560" lon="21.079760"><ele>18.0</ele><time>2026-06-22T14:34:05Z</time></trkpt>
			<trkpt lat="54.672410" lon="21.076690"><ele>17.8</ele><time>2026-06-22T14:34:12Z</time></trkpt>
			<trkpt lat="54.672200" lon="21.072090"><ele>14.8</ele><time>2026-06-22T14:34:20Z</time></trkpt>
			<trkpt lat="54.672000" lon="21.067640"><ele>11.4</ele><time>2026-06-22T14:34:27Z</time></trkpt>
			<trkpt lat="54.671890" lon="21.065410"><ele>10.6</ele><time>2026-06-22T14:34:35Z</time></trkpt>
			<trkpt lat="54.671740" lon="21.062340"><ele>10.9</ele><time>2026-06-22T14:34:42Z</time></trkpt>
			<trkpt lat="54.671680" lon="21.061660"><ele>11.0</ele><time>2026-06-22T14:34:50Z</time></trkpt>
			<trkpt lat="54.671510" lon="21.059600"><ele>12.7</ele><time>2026-06-22T14:34:57Z</time></trkpt>
			<trkpt lat="54.671150" lon="21.056200"><ele>17.4</ele><time>2026-06-22T14:35:05Z</time></trkpt>
			<trkpt lat="54.670840" lon="21.053750"><ele>16.1</ele><time>2026-06-22T14:35:12Z</time></trkpt>
			<trkpt lat="54.670340" lon="21.050460"><ele>9.9</ele><time>2026-06-22T14:35:20Z</time></trkpt>
			<trkpt lat="54.669960" lon="21.048340"><ele>7.2</ele><time>2026-06-22T14:35:27Z</time></trkpt>
			<trkpt lat="54.669530" lon="21.046130"><ele>7.2</ele><time>2026-06-22T14:35:35Z</time></trkpt>
			<trkpt lat="54.668540" lon="21.041220"><ele>7.1</ele><time>2026-06-22T14:35:42Z</time></trkpt>
			<trkpt lat="54.668280" lon="21.039800"><ele>6.2</ele><time>2026-06-22T14:35:50Z</time></trkpt>
			<trkpt lat="54.667860" lon="21.037010"><ele>6.5</ele><time>2026-06-22T14:35:57Z</time></trkpt>
			<trkpt lat="54.667670" lon="21.035380"><ele>7.1</ele><time>2026-06-22T14:36:05Z</time></trkpt>
			<trkpt lat="54.667470" lon="21.033260"><ele>8.0</ele><time>2026-06-22T14:36:12Z</time></trkpt>
			<trkpt lat="54.667340" lon="21.031390"><ele>8.4</ele><time>2026-06-22T14:36:20Z</time></trkpt>
			<trkpt lat="54.667240" lon="21.029360"><ele>8.3</ele><time>2026-06-22T14:36:27Z</time></trkpt>
			<trkpt lat="54.667200" lon="21.026760"><ele>7.0</ele><time>2026-06-22T14:36:35Z</time></trkpt>
			<trkpt lat="54.667210" lon="21.025200"><ele>6.4</ele><time>2026-06-22T14:36:42Z</time></trkpt>
			<trkpt lat="54.667270" lon="21.023500"><ele>5.8</ele><time>2026-06-22T14:36:50Z</time></trkpt>
			<trkpt lat="54.667610" lon="21.017590"><ele>4.1</ele><time>2026-06-22T14:36:57Z</time></trkpt>
			<trkpt lat="54.667660" lon="21.015810"><ele>4.7</ele><time>2026-06-22T14:37:05Z</time></trkpt>
			<trkpt lat="54.667780" lon="20.996430"><ele>11.4</ele><time>2026-06-22T14:37:12Z</time></trkpt>
			<trkpt lat="54.667880" lon="20.992560"><ele>13.6</ele><time>2026-06-22T14:37:20Z</time></trkpt>
			<trkpt lat="54.668020" lon="20.990690"><ele>16.0</ele><time>2026-06-22T14:37:27Z</time></trkpt>
			<trkpt lat="54.668200" lon="20.988820"><ele>17.6</ele><time>2026-06-22T14:37:35Z</time></trkpt>
			<trkpt lat="54.669790" lon="20.974470"><ele>19.8</ele><time>2026-06-22T14:37:42Z</time></trkpt>
			<trkpt lat="54.669890" lon="20.973560"><ele>20.3</ele><time>2026-06-22T14:37:50Z</time></trkpt>
			<trkpt lat="54.670350" lon="20.969540"><ele>20.9</ele><time>2026-06-22T14:37:57Z</time></trkpt>
			<trkpt lat="54.670440" lon="20.968710"><ele>20.7</ele><time>2026-06-22T14:38:05Z</time></trkpt>
			<trkpt lat="54.670550" lon="20.967380"><ele>20.2</ele><time>2026-06-22T14:38:12Z</time></trkpt>
			<trkpt lat="54.670670" lon="20.965530"><ele>19.4</ele><time>2026-06-22T14:38:20Z</time></trkpt>
			<trkpt lat="54.670730" lon="20.963480"><ele>20.4</ele><time>2026-06-22T14:38:27Z</time></trkpt>
			<trkpt lat="54.670720" lon="20.961520"><ele>21.3</ele><time>2026-06-22T14:38:35Z</time></trkpt>
			<trkpt lat="54.670700" lon="20.960890"><ele>21.3</ele><time>2026-06-22T14:38:42Z</time></trkpt>
			<trkpt lat="54.670560" lon="20.957520"><ele>20.9</ele><time>2026-06-22T14:38:50Z</time></trkpt>
			<trkpt lat="54.670460" lon="20.954190"><ele>20.4</ele><time>2026-06-22T14:38:58Z</time></trkpt>
			<trkpt lat="54.670480" lon="20.952330"><ele>19.4</ele><time>2026-06-22T14:39:05Z</time></trkpt>
			<trkpt lat="54.670510" lon="20.951610"><ele>18.2</ele><time>2026-06-22T14:39:13Z</time></trkpt>
			<trkpt lat="54.670580" lon="20.950670"><ele>16.6</ele><time>2026-06-22T14:39:20Z</time></trkpt>
			<trkpt lat="54.670790" lon="20.948960"><ele>14.2</ele><time>2026-06-22T14:39:28Z</time></trkpt>
			<trkpt lat="54.671040" lon="20.947240"><ele>12.8</ele><time>2026-06-22T14:39:35Z</time></trkpt>
			<trkpt lat="54.671280" lon="20.945860"><ele>11.4</ele><time>2026-06-22T14:39:43Z</time></trkpt>
			<trkpt lat="54.672250" lon="20.940790"><ele>9.1</ele><time>2026-06-22T14:39:50Z</time></trkpt>
			<trkpt lat="54.673390" lon="20.935340"><ele>6.1</ele><time>2026-06-22T14:39:58Z</time></trkpt>
			<trkpt lat="54.673580" lon="20.934350"><ele>5.6</ele><time>2026-06-22T14:40:05Z</time></trkpt>
			<trkpt lat="54.673810" lon="20.933160"><ele>4.8</ele><time>2026-06-22T14:40:13Z</time></trkpt>
			<trkpt lat="54.674180" lon="20.931280"><ele>4.3</ele><time>2026-06-22T14:40:20Z</time></trkpt>
			<trkpt lat="54.674640" lon="20.928920"><ele>5.9</ele><time>2026-06-22T14:40:28Z</time></trkpt>
			<trkpt lat="54.675240" lon="20.925840"><ele>5.0</ele><time>2026-06-22T14:40:35Z</time></trkpt>
			<trkpt lat="54.675370" lon="20.925170"><ele>5.2</ele><time>2026-06-22T14:40:43Z</time></trkpt>
			<trkpt lat="54.676160" lon="20.921040"><ele>4.9</ele><time>2026-06-22T14:40:50Z</time></trkpt>
			<trkpt lat="54.676500" lon="20.919260"><ele>3.7</ele><time>2026-06-22T14:40:58Z</time></trkpt>
			<trkpt lat="54.677140" lon="20.915940"><ele>0.8</ele><time>2026-06-22T14:41:05Z</time></trkpt>
			<trkpt lat="54.677490" lon="20.913980"><ele>-0.2</ele><time>2026-06-22T14:41:13Z</time></trkpt>
			<trkpt lat="54.677850" lon="20.912280"><ele>-0.1</ele><time>2026-06-22T14:41:20Z</time></trkpt>
			<trkpt lat="54.677890" lon="20.912060"><ele>-0.1</ele><time>2026-06-22T14:41:28Z</time></trkpt>
			<trkpt lat="54.678190" lon="20.910460"><ele>0.1</ele><time>2026-06-22T14:41:35Z</time></trkpt>
			<trkpt lat="54.678970" lon="20.906270"><ele>3.4</ele><time>2026-06-22T14:41:43Z</time></trkpt>
			<trkpt lat="54.681010" lon="20.895670"><ele>6.5</ele><time>2026-06-22T14:41:50Z</time></trkpt>
			<trkpt lat="54.681040" lon="20.895510"><ele>6.5</ele><time>2026-06-22T14:41:58Z</time></trkpt>
			<trkpt lat="54.681750" lon="20.891740"><ele>3.8</ele><time>2026-06-22T14:42:05Z</time></trkpt>
			<trkpt lat="54.682190" lon="20.889520"><ele>1.0</ele><time>2026-06-22T14:42:13Z</time></trkpt>
			<trkpt lat="54.682450" lon="20.888080"><ele>-0.4</ele><time>2026-06-22T14:42:20Z</time></trkpt>
			<trkpt lat="54.682490" lon="20.887910"><ele>-0.6</ele><time>2026-06-22T14:42:28Z</time></trkpt>
			<trkpt lat="54.682800" lon="20.886280"><ele>-0.9</ele><time>2026-06-22T14:42:35Z</time></trkpt>
			<trkpt lat="54.682860" lon="20.885960"><ele>-0.9</ele><time>2026-06-22T14:42:43Z</time></trkpt>
			<trkpt lat="54.683000" lon="20.885220"><ele>-0.7</ele><time>2026-06-22T14:42:50Z</time></trkpt>
			<trkpt lat="54.683180" lon="20.884190"><ele>-0.6</ele><time>2026-06-22T14:42:58Z</time></trkpt>
			<trkpt lat="54.683310" lon="20.883320"><ele>-0.7</ele><time>2026-06-22T14:43:05Z</time></trkpt>
			<trkpt lat="54.683490" lon="20.881930"><ele>-0.9</ele><time>2026-06-22T14:43:13Z</time></trkpt>
			<trkpt lat="54.683600" lon="20.880540"><ele>-1.1</ele><time>2026-06-22T14:43:20Z</time></trkpt>
			<trkpt lat="54.683670" lon="20.879300"><ele>-1.2</ele><time>2026-06-22T14:43:28Z</time></trkpt>
			<trkpt lat="54.683690" lon="20.878920"><ele>-1.3</ele><time>2026-06-22T14:43:35Z</time></trkpt>
			<trkpt lat="54.683770" lon="20.878500"><ele>-1.3</ele><time>2026-06-22T14:43:43Z</time></trkpt>
			<trkpt lat="54.683830" lon="20.878350"><ele>-1.3</ele><time>2026-06-22T14:43:50Z</time></trkpt>
			<trkpt lat="54.683900" lon="20.878230"><ele>-1.3</ele><time>2026-06-22T14:43:58Z</time></trkpt>
			<trkpt lat="54.684070" lon="20.878130"><ele>-1.3</ele><time>2026-06-22T14:44:05Z</time></trkpt>
			<trkpt lat="54.684120" lon="20.878130"><ele>-1.3</ele><time>2026-06-22T14:44:13Z</time></trkpt>
			<trkpt lat="54.684200" lon="20.878090"><ele>-1.2</ele><time>2026-06-22T14:44:20Z</time></trkpt>
			<trkpt lat="54.684290" lon="20.877990"><ele>-1.2</ele><time>2026-06-22T14:44:28Z</time></trkpt>
			<trkpt lat="54.684350" lon="20.877870"><ele>-1.2</ele><time>2026-06-22T14:44:35Z</time></trkpt>
			<trkpt lat="54.684400" lon="20.877670"><ele>-1.1</ele><time>2026-06-22T14:44:43Z</time></trkpt>
			<trkpt lat="54.684450" lon="20.877320"><ele>-1.1</ele><time>2026-06-22T14:44:50Z</time></trkpt>
			<trkpt lat="54.684490" lon="20.876360"><ele>-1.0</ele><time>2026-06-22T14:44:58Z</time></trkpt>
			<trkpt lat="54.684460" lon="20.875800"><ele>-0.9</ele><time>2026-06-22T14:45:05Z</time></trkpt>
			<trkpt lat="54.684460" lon="20.875790"><ele>-0.9</ele><time>2026-06-22T14:45:12Z</time></trkpt>
			<trkpt lat="54.684440" lon="20.875210"><ele>-0.3</ele><time>2026-06-22T14:45:19Z</time></trkpt>
			<trkpt lat="54.684320" lon="20.873580"><ele>1.3</ele><time>2026-06-22T14:45:26Z</time></trkpt>
			<trkpt lat="54.684330" lon="20.872750"><ele>2.1</ele><time>2026-06-22T14:45:32Z</time></trkpt>
			<trkpt lat="54.684340" lon="20.871840"><ele>1.2</ele><time>2026-06-22T14:45:39Z</time></trkpt>
			<trkpt lat="54.684430" lon="20.869870"><ele>-1.1</ele><time>2026-06-22T14:45:46Z</time></trkpt>
			<trkpt lat="54.684430" lon="20.869690"><ele>-1.3</ele><time>2026-06-22T14:45:53Z</time></trkpt>
			<trkpt lat="54.684520" lon="20.868510"><ele>0.3</ele><time>2026-06-22T14:45:59Z</time></trkpt>
			<trkpt lat="54.684630" lon="20.867600"><ele>1.8</ele><time>2026-06-22T14:46:06Z</time></trkpt>
			<trkpt lat="54.684750" lon="20.866730"><ele>3.3</ele><time>2026-06-22T14:46:13Z</time></trkpt>
			<trkpt lat="54.685150" lon="20.864150"><ele>5.4</ele><time>2026-06-22T14:46:19Z</time></trkpt>
			<trkpt lat="54.685190" lon="20.863910"><ele>5.5</ele><time>2026-06-22T14:46:26Z</time></trkpt>
			<trkpt lat="54.685260" lon="20.863380"><ele>5.9</ele><time>2026-06-22T14:46:33Z</time></trkpt>
			<trkpt lat="54.685340" lon="20.862880"><ele>6.0</ele><time>2026-06-22T14:46:40Z</time></trkpt>
			<trkpt lat="54.685620" lon="20.861000"><ele>6.7</ele><time>2026-06-22T14:46:46Z</time></trkpt>
			<trkpt lat="54.685810" lon="20.859760"><ele>6.8</ele><time>2026-06-22T14:46:53Z</time></trkpt>
			<trkpt lat="54.687050" lon="20.851460"><ele>14.2</ele><time>2026-06-22T14:47:00Z</time></trkpt>
			<trkpt lat="54.687440" lon="20.850120"><ele>14.0</ele><time>2026-06-22T14:47:07Z</time></trkpt>
			<trkpt lat="54.687690" lon="20.849440"><ele>13.8</ele><time>2026-06-22T14:47:13Z</time></trkpt>
			<trkpt lat="54.689650" lon="20.844020"><ele>11.2</ele><time>2026-06-22T14:47:20Z</time></trkpt>
			<trkpt lat="54.691770" lon="20.838030"><ele>8.8</ele><time>2026-06-22T14:47:27Z</time></trkpt>
			<trkpt lat="54.693400" lon="20.833540"><ele>7.2</ele><time>2026-06-22T14:47:34Z</time></trkpt>
			<trkpt lat="54.693850" lon="20.832620"><ele>6.4</ele><time>2026-06-22T14:47:40Z</time></trkpt>
			<trkpt lat="54.695870" lon="20.829340"><ele>2.8</ele><time>2026-06-22T14:47:47Z</time></trkpt>
			<trkpt lat="54.697240" lon="20.826930"><ele>4.0</ele><time>2026-06-22T14:47:54Z</time></trkpt>
			<trkpt lat="54.697460" lon="20.826600"><ele>4.3</ele><time>2026-06-22T14:48:01Z</time></trkpt>
			<trkpt lat="54.697490" lon="20.826560"><ele>4.4</ele><time>2026-06-22T14:48:07Z</time></trkpt>
			<trkpt lat="54.698030" lon="20.825710"><ele>3.8</ele><time>2026-06-22T14:48:14Z</time></trkpt>
			<trkpt lat="54.698150" lon="20.825450"><ele>3.5</ele><time>2026-06-22T14:48:21Z</time></trkpt>
			<trkpt lat="54.698370" lon="20.824880"><ele>2.9</ele><time>2026-06-22T14:48:27Z</time></trkpt>
			<trkpt lat="54.698410" lon="20.824690"><ele>2.7</ele><time>2026-06-22T14:48:34Z</time></trkpt>
			<trkpt lat="54.698510" lon="20.824220"><ele>2.2</ele><time>2026-06-22T14:48:41Z</time></trkpt>
			<trkpt lat="54.698590" lon="20.823540"><ele>2.0</ele><time>2026-06-22T14:48:48Z</time></trkpt>
			<trkpt lat="54.698690" lon="20.822880"><ele>2.4</ele><time>2026-06-22T14:48:54Z</time></trkpt>
			<trkpt lat="54.698740" lon="20.822620"><ele>2.6</ele><time>2026-06-22T14:49:01Z</time></trkpt>
			<trkpt lat="54.699400" lon="20.820600"><ele>4.1</ele><time>2026-06-22T14:49:08Z</time></trkpt>
			<trkpt lat="54.699510" lon="20.819990"><ele>4.6</ele><time>2026-06-22T14:49:15Z</time></trkpt>
			<trkpt lat="54.699560" lon="20.819490"><ele>5.0</ele><time>2026-06-22T14:49:21Z</time></trkpt>
			<trkpt lat="54.699770" lon="20.817030"><ele>6.8</ele><time>2026-06-22T14:49:28Z</time></trkpt>
			<trkpt lat="54.699770" lon="20.817030"><ele>6.8</ele><time>2026-06-22T14:49:38Z</time></trkpt>
			<trkpt lat="54.699820" lon="20.816470"><ele>7.1</ele><time>2026-06-22T14:49:47Z</time></trkpt>
			<trkpt lat="54.700490" lon="20.808230"><ele>13.0</ele><time>2026-06-22T14:49:57Z</time></trkpt>
			<trkpt lat="54.700640" lon="20.806650"><ele>12.4</ele><time>2026-06-22T14:50:07Z</time></trkpt>
			<trkpt lat="54.700760" lon="20.805390"><ele>12.2</ele><time>2026-06-22T14:50:16Z</time></trkpt>
			<trkpt lat="54.700840" lon="20.804530"><ele>12.7</ele><time>2026-06-22T14:50:26Z</time></trkpt>
			<trkpt lat="54.701040" lon="20.801930"><ele>13.3</ele><time>2026-06-22T14:50:36Z</time></trkpt>
			<trkpt lat="54.701060" lon="20.800800"><ele>11.6</ele><time>2026-06-22T14:50:45Z</time></trkpt>
			<trkpt lat="54.701050" lon="20.800180"><ele>10.7</ele><time>2026-06-22T14:50:55Z</time></trkpt>
			<trkpt lat="54.700770" lon="20.792270"><ele>10.3</ele><time>2026-06-22T14:51:05Z</time></trkpt>
			<trkpt lat="54.700750" lon="20.791310"><ele>10.1</ele><time>2026-06-22T14:51:14Z</time></trkpt>
			<trkpt lat="54.700730" lon="20.790420"><ele>9.8</ele><time>2026-06-22T14:51:24Z</time></trkpt>
			<trkpt lat="54.700730" lon="20.789970"><ele>9.7</ele><time>2026-06-22T14:51:33Z</time></trkpt>
			<trkpt lat="54.700660" lon="20.786010"><ele>10.9</ele><time>2026-06-22T14:51:43Z</time></trkpt>
			<trkpt lat="54.700600" lon="20.783920"><ele>12.1</ele><time>2026-06-22T14:51:53Z</time></trkpt>
			<trkpt lat="54.700530" lon="20.783190"><ele>12.4</ele><time>2026-06-22T14:52:02Z</time></trkpt>
			<trkpt lat="54.698330" lon="20.770840"><ele>7.4</ele><time>2026-06-22T14:52:12Z</time></trkpt>
			<trkpt lat="54.697610" lon="20.766900"><ele>6.4</ele><time>2026-06-22T14:52:22Z</time></trkpt>
			<trkpt lat="54.697570" lon="20.766240"><ele>6.5</ele><time>2026-06-22T14:52:31Z</time></trkpt>
			<trkpt lat="54.697620" lon="20.765490"><ele>6.5</ele><time>2026-06-22T14:52:41Z</time></trkpt>
			<trkpt lat="54.698170" lon="20.758580"><ele>5.1</ele><time>2026-06-22T14:52:51Z</time></trkpt>
			<trkpt lat="54.698260" lon="20.758080"><ele>5.4</ele><time>2026-06-22T14:53:00Z</time></trkpt>
			<trkpt lat="54.699620" lon="20.754000"><ele>3.4</ele><time>2026-06-22T14:53:10Z</time></trkpt>
			<trkpt lat="54.700010" lon="20.752540"><ele>4.2</ele><time>2026-06-22T14:53:20Z</time></trkpt>
			<trkpt lat="54.700400" lon="20.750830"><ele>4.9</ele><time>2026-06-22T14:53:29Z</time></trkpt>
			<trkpt lat="54.700620" lon="20.750240"><ele>4.9</ele><time>2026-06-22T14:53:39Z</time></trkpt>
			<trkpt lat="54.701330" lon="20.748650"><ele>4.8</ele><time>2026-06-22T14:53:48Z</time></trkpt>
			<trkpt lat="54.701380" lon="20.748550"><ele>4.8</ele><time>2026-06-22T14:53:58Z</time></trkpt>
			<trkpt lat="54.701540" lon="20.748040"><ele>5.5</ele><time>2026-06-22T14:54:08Z</time></trkpt>
			<trkpt lat="54.701600" lon="20.747710"><ele>5.9</ele><time>2026-06-22T14:54:17Z</time></trkpt>
			<trkpt lat="54.701640" lon="20.747200"><ele>6.4</ele><time>2026-06-22T14:54:27Z</time></trkpt>
			<trkpt lat="54.701660" lon="20.746900"><ele>6.8</ele><time>2026-06-22T14:54:37Z</time></trkpt>
			<trkpt lat="54.701840" lon="20.744010"><ele>6.4</ele><time>2026-06-22T14:54:46Z</time></trkpt>
			<trkpt lat="54.701850" lon="20.743420"><ele>5.8</ele><time>2026-06-22T14:54:56Z</time></trkpt>
			<trkpt lat="54.701860" lon="20.743160"><ele>5.5</ele><time>2026-06-22T14:55:06Z</time></trkpt>
			<trkpt lat="54.701880" lon="20.742310"><ele>5.3</ele><time>2026-06-22T14:55:15Z</time></trkpt>
			<trkpt lat="54.701850" lon="20.740930"><ele>9.2</ele><time>2026-06-22T14:55:25Z</time></trkpt>
			<trkpt lat="54.701850" lon="20.739930"><ele>12.1</ele><time>2026-06-22T14:55:35Z</time></trkpt>
			<trkpt lat="54.701840" lon="20.737850"><ele>13.1</ele><time>2026-06-22T14:55:44Z</time></trkpt>
			<trkpt lat="54.701840" lon="20.737740"><ele>13.0</ele><time>2026-06-22T14:55:54Z</time></trkpt>
			<trkpt lat="54.701800" lon="20.735160"><ele>12.0</ele><time>2026-06-22T14:56:04Z</time></trkpt>
			<trkpt lat="54.701800" lon="20.734740"><ele>11.8</ele><time>2026-06-22T14:56:13Z</time></trkpt>
			<trkpt lat="54.701780" lon="20.732910"><ele>11.0</ele><time>2026-06-22T14:56:23Z</time></trkpt>
			<trkpt lat="54.701770" lon="20.732320"><ele>11.0</ele><time>2026-06-22T14:56:32Z</time></trkpt>
			<trkpt lat="54.701760" lon="20.731840"><ele>11.1</ele><time>2026-06-22T14:56:42Z</time></trkpt>
			<trkpt lat="54.701740" lon="20.729640"><ele>11.5</ele><time>2026-06-22T14:56:52Z</time></trkpt>
			<trkpt lat="54.701740" lon="20.729630"><ele>11.5</ele><time>2026-06-22T14:56:59Z</time></trkpt>
			<trkpt lat="54.701620" lon="20.721180"><ele>13.9</ele><time>2026-06-22T14:57:07Z</time></trkpt>
			<trkpt lat="54.701640" lon="20.719810"><ele>13.4</ele><time>2026-06-22T14:57:15Z</time></trkpt>
			<trkpt lat="54.701480" lon="20.710720"><ele>11.5</ele><time>2026-06-22T14:57:22Z</time></trkpt>
			<trkpt lat="54.701460" lon="20.707260"><ele>10.6</ele><time>2026-06-22T14:57:30Z</time></trkpt>
			<trkpt lat="54.701430" lon="20.705660"><ele>8.9</ele><time>2026-06-22T14:57:37Z</time></trkpt>
			<trkpt lat="54.701430" lon="20.704700"><ele>8.3</ele><time>2026-06-22T14:57:45Z</time></trkpt>
			<trkpt lat="54.701440" lon="20.702790"><ele>8.5</ele><time>2026-06-22T14:57:52Z</time></trkpt>
			<trkpt lat="54.701440" lon="20.702050"><ele>8.5</ele><time>2026-06-22T14:58:00Z</time></trkpt>
			<trkpt lat="54.701430" lon="20.701450"><ele>8.5</ele><time>2026-06-22T14:58:08Z</time></trkpt>
			<trkpt lat="54.701440" lon="20.700760"><ele>8.5</ele><time>2026-06-22T14:58:15Z</time></trkpt>
			<trkpt lat="54.702140" lon="20.693560"><ele>11.9</ele><time>2026-06-22T14:58:23Z</time></trkpt>
			<trkpt lat="54.702930" lon="20.686500"><ele>20.1</ele><time>2026-06-22T14:58:30Z</time></trkpt>
			<trkpt lat="54.703200" lon="20.684350"><ele>22.2</ele><time>2026-06-22T14:58:38Z</time></trkpt>
			<trkpt lat="54.703800" lon="20.678370"><ele>17.4</ele><time>2026-06-22T14:58:46Z</time></trkpt>
			<trkpt lat="54.703820" lon="20.678220"><ele>17.2</ele><time>2026-06-22T14:58:53Z</time></trkpt>
			<trkpt lat="54.703830" lon="20.678060"><ele>16.9</ele><time>2026-06-22T14:59:01Z</time></trkpt>
			<trkpt lat="54.703890" lon="20.677520"><ele>16.1</ele><time>2026-06-22T14:59:08Z</time></trkpt>
			<trkpt lat="54.703920" lon="20.676650"><ele>16.2</ele><time>2026-06-22T14:59:16Z</time></trkpt>
			<trkpt lat="54.703930" lon="20.675750"><ele>16.8</ele><time>2026-06-22T14:59:24Z</time></trkpt>
			<trkpt lat="54.703960" lon="20.674700"><ele>17.4</ele><time>2026-06-22T14:59:31Z</time></trkpt>
			<trkpt lat="54.703980" lon="20.673810"><ele>17.6</ele><time>2026-06-22T14:59:39Z</time></trkpt>
			<trkpt lat="54.703930" lon="20.673260"><ele>17.4</ele><time>2026-06-22T14:59:46Z</time></trkpt>
			<trkpt lat="54.703780" lon="20.672170"><ele>16.9</ele><time>2026-06-22T14:59:54Z</time></trkpt>
			<trkpt lat="54.703590" lon="20.671460"><ele>16.6</ele><time>2026-06-22T15:00:02Z</time></trkpt>
			<trkpt lat="54.703320" lon="20.670570"><ele>16.3</ele><time>2026-06-22T15:00:09Z</time></trkpt>
			<trkpt lat="54.703290" lon="20.670460"><ele>16.3</ele><time>2026-06-22T15:00:17Z</time></trkpt>
			<trkpt lat="54.702940" lon="20.669280"><ele>16.1</ele><time>2026-06-22T15:00:24Z</time></trkpt>
			<trkpt lat="54.702910" lon="20.669160"><ele>16.1</ele><time>2026-06-22T15:00:32Z</time></trkpt>
			<trkpt lat="54.702470" lon="20.667610"><ele>14.7</ele><time>2026-06-22T15:00:40Z</time></trkpt>
			<trkpt lat="54.702370" lon="20.667110"><ele>14.1</ele><time>2026-06-22T15:00:47Z</time></trkpt>
			<trkpt lat="54.702300" lon="20.666750"><ele>13.6</ele><time>2026-06-22T15:00:55Z</time></trkpt>
			<trkpt lat="54.702270" lon="20.666610"><ele>13.4</ele><time>2026-06-22T15:01:02Z</time></trkpt>
			<trkpt lat="54.702210" lon="20.666280"><ele>12.9</ele><time>2026-06-22T15:01:10Z</time></trkpt>
			<trkpt lat="54.702100" lon="20.665690"><ele>12.1</ele><time>2026-06-22T15:01:18Z</time></trkpt>
			<trkpt lat="54.702060" lon="20.665140"><ele>11.8</ele><time>2026-06-22T15:01:25Z</time></trkpt>
			<trkpt lat="54.702010" lon="20.664150"><ele>11.4</ele><time>2026-06-22T15:01:33Z</time></trkpt>
			<trkpt lat="54.702080" lon="20.663260"><ele>11.1</ele><time>2026-06-22T15:01:40Z</time></trkpt>
			<trkpt lat="54.702480" lon="20.658600"><ele>13.1</ele><time>2026-06-22T15:01:48Z</time></trkpt>
			<trkpt lat="54.702570" lon="20.657690"><ele>14.6</ele><time>2026-06-22T15:01:56Z</time></trkpt>
			<trkpt lat="54.702690" lon="20.656790"><ele>16.1</ele><time>2026-06-22T15:02:03Z</time></trkpt>
			<trkpt lat="54.702860" lon="20.655770"><ele>17.0</ele><time>2026-06-22T15:02:11Z</time></trkpt>
			<trkpt lat="54.704010" lon="20.649500"><ele>15.6</ele><time>2026-06-22T15:02:18Z</time></trkpt>
			<trkpt lat="54.704010" lon="20.649500"><ele>15.6</ele><time>2026-06-22T15:02:24Z</time></trkpt>
			<trkpt lat="54.704060" lon="20.649210"><ele>15.4</ele><time>2026-06-22T15:02:29Z</time></trkpt>
			<trkpt lat="54.704540" lon="20.646570"><ele>13.3</ele><time>2026-06-22T15:02:34Z</time></trkpt>
			<trkpt lat="54.704700" lon="20.645670"><ele>12.4</ele><time>2026-06-22T15:02:39Z</time></trkpt>
			<trkpt lat="54.705440" lon="20.641630"><ele>8.1</ele><time>2026-06-22T15:02:45Z</time></trkpt>
			<trkpt lat="54.705760" lon="20.639870"><ele>8.7</ele><time>2026-06-22T15:02:50Z</time></trkpt>
			<trkpt lat="54.705980" lon="20.638630"><ele>9.3</ele><time>2026-06-22T15:02:55Z</time></trkpt>
			<trkpt lat="54.706930" lon="20.633390"><ele>8.5</ele><time>2026-06-22T15:03:00Z</time></trkpt>
			<trkpt lat="54.707040" lon="20.632650"><ele>8.1</ele><time>2026-06-22T15:03:06Z</time></trkpt>
			<trkpt lat="54.707170" lon="20.631580"><ele>8.6</ele><time>2026-06-22T15:03:11Z</time></trkpt>
			<trkpt lat="54.707240" lon="20.630750"><ele>9.2</ele><time>2026-06-22T15:03:16Z</time></trkpt>
			<trkpt lat="54.707300" lon="20.629900"><ele>9.9</ele><time>2026-06-22T15:03:21Z</time></trkpt>
			<trkpt lat="54.707360" lon="20.628450"><ele>9.6</ele><time>2026-06-22T15:03:27Z</time></trkpt>
			<trkpt lat="54.707430" lon="20.626800"><ele>8.2</ele><time>2026-06-22T15:03:32Z</time></trkpt>
			<trkpt lat="54.707440" lon="20.626070"><ele>7.5</ele><time>2026-06-22T15:03:37Z</time></trkpt>
			<trkpt lat="54.707420" lon="20.624840"><ele>5.7</ele><time>2026-06-22T15:03:42Z</time></trkpt>
			<trkpt lat="54.707350" lon="20.623380"><ele>3.4</ele><time>2026-06-22T15:03:48Z</time></trkpt>
			<trkpt lat="54.707350" lon="20.623380"><ele>3.4</ele><time>2026-06-22T15:03:54Z</time></trkpt>
			<trkpt lat="54.707280" lon="20.622310"><ele>2.7</ele><time>2026-06-22T15:04:01Z</time></trkpt>
			<trkpt lat="54.707190" lon="20.621180"><ele>2.3</ele><time>2026-06-22T15:04:07Z</time></trkpt>
			<trkpt lat="54.706960" lon="20.619390"><ele>2.6</ele><time>2026-06-22T15:04:13Z</time></trkpt>
			<trkpt lat="54.706810" lon="20.618350"><ele>3.8</ele><time>2026-06-22T15:04:20Z</time></trkpt>
			<trkpt lat="54.706620" lon="20.617110"><ele>5.3</ele><time>2026-06-22T15:04:26Z</time></trkpt>
			<trkpt lat="54.706250" lon="20.614270"><ele>3.0</ele><time>2026-06-22T15:04:33Z</time></trkpt>
			<trkpt lat="54.706040" lon="20.613000"><ele>2.6</ele><time>2026-06-22T15:04:39Z</time></trkpt>
			<trkpt lat="54.705900" lon="20.612330"><ele>2.6</ele><time>2026-06-22T15:04:46Z</time></trkpt>
			<trkpt lat="54.705620" lon="20.611080"><ele>2.4</ele><time>2026-06-22T15:04:52Z</time></trkpt>
			<trkpt lat="54.704770" lon="20.607750"><ele>4.2</ele><time>2026-06-22T15:04:59Z</time></trkpt>
			<trkpt lat="54.704460" lon="20.606430"><ele>5.1</ele><time>2026-06-22T15:05:05Z</time></trkpt>
			<trkpt lat="54.704290" lon="20.605400"><ele>5.8</ele><time>2026-06-22T15:05:12Z</time></trkpt>
			<trkpt lat="54.704190" lon="20.604630"><ele>5.0</ele><time>2026-06-22T15:05:18Z</time></trkpt>
			<trkpt lat="54.704120" lon="20.603900"><ele>3.8</ele><time>2026-06-22T15:05:25Z</time></trkpt>
			<trkpt lat="54.704060" lon="20.603100"><ele>2.5</ele><time>2026-06-22T15:05:31Z</time></trkpt>
			<trkpt lat="54.704020" lon="20.602240"><ele>1.1</ele><time>2026-06-22T15:05:38Z</time></trkpt>
			<trkpt lat="54.704020" lon="20.601080"><ele>1.3</ele><time>2026-06-22T15:05:44Z</time></trkpt>
			<trkpt lat="54.704080" lon="20.599690"><ele>1.7</ele><time>2026-06-22T15:05:51Z</time></trkpt>
			<trkpt lat="54.704200" lon="20.598470"><ele>1.9</ele><time>2026-06-22T15:05:57Z</time></trkpt>
			<trkpt lat="54.704370" lon="20.596910"><ele>1.8</ele><time>2026-06-22T15:06:03Z</time></trkpt>
			<trkpt lat="54.704660" lon="20.594300"><ele>3.2</ele><time>2026-06-22T15:06:10Z</time></trkpt>
			<trkpt lat="54.704850" lon="20.592930"><ele>4.4</ele><time>2026-06-22T15:06:16Z</time></trkpt>
			<trkpt lat="54.704940" lon="20.592380"><ele>4.4</ele><time>2026-06-22T15:06:23Z</time></trkpt>
			<trkpt lat="54.705200" lon="20.591150"><ele>4.3</ele><time>2026-06-22T15:06:29Z</time></trkpt>
			<trkpt lat="54.705320" lon="20.590550"><ele>4.2</ele><time>2026-06-22T15:06:36Z</time></trkpt>
			<trkpt lat="54.705700" lon="20.589140"><ele>4.5</ele><time>2026-06-22T15:06:42Z</time></trkpt>
			<trkpt lat="54.706030" lon="20.588040"><ele>5.0</ele><time>2026-06-22T15:06:49Z</time></trkpt>
			<trkpt lat="54.706290" lon="20.587140"><ele>5.4</ele><time>2026-06-22T15:06:55Z</time></trkpt>
			<trkpt lat="54.706330" lon="20.587010"><ele>5.5</ele><time>2026-06-22T15:07:02Z</time></trkpt>
			<trkpt lat="54.706410" lon="20.586760"><ele>5.8</ele><time>2026-06-22T15:07:08Z</time></trkpt>
			<trkpt lat="54.706520" lon="20.586370"><ele>6.2</ele><time>2026-06-22T15:07:15Z</time></trkpt>
			<trkpt lat="54.706740" lon="20.585560"><ele>7.0</ele><time>2026-06-22T15:07:21Z</time></trkpt>
			<trkpt lat="54.706890" lon="20.584810"><ele>7.8</ele><time>2026-06-22T15:07:28Z</time></trkpt>
			<trkpt lat="54.706990" lon="20.584140"><ele>8.2</ele><time>2026-06-22T15:07:34Z</time></trkpt>
			<trkpt lat="54.707060" lon="20.583700"><ele>8.1</ele><time>2026-06-22T15:07:40Z</time></trkpt>
			<trkpt lat="54.707130" lon="20.583150"><ele>8.0</ele><time>2026-06-22T15:07:47Z</time></trkpt>
			<trkpt lat="54.707310" lon="20.581760"><ele>7.7</ele><time>2026-06-22T15:07:53Z</time></trkpt>
			<trkpt lat="54.707380" lon="20.581190"><ele>7.6</ele><time>2026-06-22T15:08:00Z</time></trkpt>
			<trkpt lat="54.707810" lon="20.577660"><ele>8.5</ele><time>2026-06-22T15:08:06Z</time></trkpt>
			<trkpt lat="54.708080" lon="20.575390"><ele>7.9</ele><time>2026-06-22T15:08:13Z</time></trkpt>
			<trkpt lat="54.708110" lon="20.575150"><ele>7.9</ele><time>2026-06-22T15:08:19Z</time></trkpt>
			<trkpt lat="54.708250" lon="20.573770"><ele>7.8</ele><time>2026-06-22T15:08:26Z</time></trkpt>
			<trkpt lat="54.708430" lon="20.572340"><ele>7.7</ele><time>2026-06-22T15:08:32Z</time></trkpt>
			<trkpt lat="54.708590" lon="20.570920"><ele>7.8</ele><time>2026-06-22T15:08:39Z</time></trkpt>
			<trkpt lat="54.708610" lon="20.570810"><ele>7.8</ele><time>2026-06-22T15:08:45Z</time></trkpt>
			<trkpt lat="54.708710" lon="20.569990"><ele>7.9</ele><time>2026-06-22T15:08:52Z</time></trkpt>
			<trkpt lat="54.708800" lon="20.569080"><ele>8.0</ele><time>2026-06-22T15:08:58Z</time></trkpt>
			<trkpt lat="54.708840" lon="20.568780"><ele>8.0</ele><time>2026-06-22T15:09:05Z</time></trkpt>
			<trkpt lat="54.708840" lon="20.568330"><ele>7.9</ele><time>2026-06-22T15:09:11Z</time></trkpt>
			<trkpt lat="54.708860" lon="20.567600"><ele>7.9</ele><time>2026-06-22T15:09:18Z</time></trkpt>
			<trkpt lat="54.708870" lon="20.567370"><ele>7.8</ele><time>2026-06-22T15:09:24Z</time></trkpt>
			<trkpt lat="54.708900" lon="20.566500"><ele>7.8</ele><time>2026-06-22T15:09:30Z</time></trkpt>
			<trkpt lat="54.708930" lon="20.564920"><ele>7.6</ele><time>2026-06-22T15:09:37Z</time></trkpt>
			<trkpt lat="54.709000" lon="20.563220"><ele>7.4</ele><time>2026-06-22T15:09:43Z</time></trkpt>
			<trkpt lat="54.709070" lon="20.561820"><ele>7.5</ele><time>2026-06-22T15:09:50Z</time></trkpt>
			<trkpt lat="54.709180" lon="20.559880"><ele>7.9</ele><time>2026-06-22T15:09:56Z</time></trkpt>
			<trkpt lat="54.709260" lon="20.558180"><ele>6.8</ele><time>2026-06-22T15:10:03Z</time></trkpt>
			<trkpt lat="54.709330" lon="20.557150"><ele>6.0</ele><time>2026-06-22T15:10:09Z</time></trkpt>
			<trkpt lat="54.709430" lon="20.555820"><ele>5.9</ele><time>2026-06-22T15:10:16Z</time></trkpt>
			<trkpt lat="54.709500" lon="20.554650"><ele>6.4</ele><time>2026-06-22T15:10:22Z</time></trkpt>
			<trkpt lat="54.709560" lon="20.553580"><ele>6.9</ele><time>2026-06-22T15:10:29Z</time></trkpt>
			<trkpt lat="54.709670" lon="20.551140"><ele>6.1</ele><time>2026-06-22T15:10:35Z</time></trkpt>
			<trkpt lat="54.709710" lon="20.550150"><ele>5.8</ele><time>2026-06-22T15:10:42Z</time></trkpt>
			<trkpt lat="54.709780" lon="20.549170"><ele>5.9</ele><time>2026-06-22T15:10:48Z</time></trkpt>
			<trkpt lat="54.709800" lon="20.548660"><ele>5.9</ele><time>2026-06-22T15:10:55Z</time></trkpt>
			<trkpt lat="54.709870" lon="20.545830"><ele>7.0</ele><time>2026-06-22T15:11:01Z</time></trkpt>
			<trkpt lat="54.709870" lon="20.545830"><ele>7.0</ele><time>2026-06-22T15:11:07Z</time></trkpt>
			<trkpt lat="54.709880" lon="20.545560"><ele>7.2</ele><time>2026-06-22T15:11:13Z</time></trkpt>
			<trkpt lat="54.709890" lon="20.545190"><ele>7.5</ele><time>2026-06-22T15:11:19Z</time></trkpt>
			<trkpt lat="54.710000" lon="20.545010"><ele>7.6</ele><time>2026-06-22T15:11:25Z</time></trkpt>
			<trkpt lat="54.710220" lon="20.545030"><ele>7.9</ele><time>2026-06-22T15:11:31Z</time></trkpt>
			<trkpt lat="54.710810" lon="20.545070"><ele>8.1</ele><time>2026-06-22T15:11:37Z</time></trkpt>
			<trkpt lat="54.710960" lon="20.545060"><ele>8.0</ele><time>2026-06-22T15:11:43Z</time></trkpt>
			<trkpt lat="54.711030" lon="20.543960"><ele>7.8</ele><time>2026-06-22T15:11:49Z</time></trkpt>
			<trkpt lat="54.711040" lon="20.543960"><ele>7.8</ele><time>2026-06-22T15:11:55Z</time></trkpt>
			<trkpt lat="54.711074" lon="20.542786"><ele>7.6</ele><time>2026-06-22T15:13:29Z</time></trkpt>
		</trkseg>
	</trk>
</gpx>